Provisional Data: West Branch Pine Creek near Galeton, PA


Please select a monitoring station.
Please select start date.
Please select start date.

Toggle Unit: C/F Toggle Unit: C/F
Sample Time Temperature (C) Temperature (F) Specific Conductivity (mS/cm) pH   Turbidity (NTU+) DO (mg/L)
10/20/2020 12:00:00 AM 10.17 50.306 0.07 7.18 1.88 10.16
10/20/2020 12:15:00 AM 10.21 50.378 0.07 7.2 1.85 10.16
10/20/2020 12:30:00 AM 10.26 50.468 0.071 7.19 1.84 10.15
10/20/2020 12:45:00 AM 10.3 50.54 0.071 7.2 1.84 10.14
10/20/2020 1:00:00 AM 10.33 50.594 0.071 7.2 1.87 10.13
10/20/2020 1:15:00 AM 10.37 50.666 0.071 7.21 1.86 10.14
10/20/2020 1:30:00 AM 10.4 50.72 0.071 7.21 1.84 10.12
10/20/2020 1:45:00 AM 10.43 50.774 0.071 7.2 1.91 10.14
10/20/2020 2:00:00 AM 10.46 50.828 0.071 7.23 1.92 10.14
10/20/2020 2:15:00 AM 10.48 50.864 0.071 7.22 1.98 10.14
10/20/2020 2:30:00 AM 10.5 50.9 0.071 7.24 1.93 10.13
10/20/2020 2:45:00 AM 10.52 50.936 0.071 7.22 2.14 10.12
10/20/2020 3:00:00 AM 10.55 50.99 0.071 7.24 2.01 10.13
10/20/2020 3:15:00 AM 10.57 51.026 0.071 7.22 1.97 10.14
10/20/2020 3:30:00 AM 10.61 51.098 0.071 7.22 2.01 10.1
10/20/2020 3:45:00 AM 10.63 51.134 0.071 7.23 1.95 10.11
10/20/2020 4:00:00 AM 10.66 51.188 0.071 7.22 2.07 10.11
10/20/2020 4:15:00 AM 10.67 51.206 0.071 7.21 1.95 10.12
10/20/2020 4:30:00 AM 10.68 51.224 0.071 7.24 2.01 10.13
10/20/2020 4:45:00 AM 10.68 51.224 0.071 7.25 1.95 10.14
10/20/2020 5:00:00 AM 10.69 51.242 0.071 7.24 1.93 10.14
10/20/2020 5:15:00 AM 10.71 51.278 0.071 7.23 1.91 10.13
10/20/2020 5:30:00 AM 10.71 51.278 0.071 7.26 1.97 10.13
10/20/2020 5:45:00 AM 10.71 51.278 0.071 7.24 2.1 10.13
10/20/2020 6:00:00 AM 10.72 51.296 0.07 7.26 2.21 10.13
10/20/2020 6:15:00 AM 10.74 51.332 0.07 7.26 2.4 10.16
10/20/2020 6:30:00 AM 10.74 51.332 0.069 7.24 2.22 10.17
10/20/2020 6:45:00 AM 10.73 51.314 0.07 7.24 2.1 10.19
10/20/2020 7:00:00 AM 10.73 51.314 0.07 7.27 2.29 10.2
10/20/2020 7:15:00 AM 10.74 51.332 0.07 7.29 2.18 10.19
10/20/2020 7:30:00 AM 10.74 51.332 0.07 7.29 2.15 10.19
10/20/2020 7:45:00 AM 10.74 51.332 0.07 7.28 2.22 10.19
10/20/2020 8:00:00 AM 10.74 51.332 0.07 7.27 2.11 10.2
10/20/2020 8:15:00 AM 10.74 51.332 0.07 7.25 2.47 10.2
10/20/2020 8:30:00 AM 10.74 51.332 0.07 7.28 2.38 10.22
10/20/2020 8:45:00 AM 10.75 51.35 0.07 7.23 2.49 10.24
10/20/2020 9:00:00 AM 10.76 51.368 0.07 7.24 2.49 10.25
10/20/2020 9:15:00 AM 10.77 51.386 0.07 7.24 2.39 10.28
10/20/2020 9:30:00 AM 10.78 51.404 0.07 7.26 2.35 10.34
10/20/2020 9:45:00 AM 10.81 51.458 0.07 7.3 2.44 10.38
10/20/2020 10:00:00 AM 10.84 51.512 0.07 7.28 2.63 10.44
10/20/2020 10:15:00 AM 10.89 51.602 0.07 7.3 2.2 10.51
10/20/2020 10:30:00 AM 10.94 51.692 0.069 7.35 2.1 10.53
10/20/2020 10:45:00 AM 10.97 51.746 0.069 7.31 2.11 10.53
10/20/2020 11:00:00 AM 11 51.8 0.069 7.31 2.1 10.49
10/20/2020 11:15:00 AM 11.02 51.836 0.069 7.29 2.69 10.48
10/20/2020 11:30:00 AM 11.03 51.854 0.069 7.28 2.07 10.48
10/20/2020 11:45:00 AM 11.03 51.854 0.069 7.29 2.17 10.47
10/20/2020 12:00:00 PM 11.04 51.872 0.069 7.33 2.45 10.49
10/20/2020 12:15:00 PM 11.09 51.962 0.068 7.35 2.24 10.52
10/20/2020 12:30:00 PM 11.15 52.07 0.068 7.32 2.12 10.56
10/20/2020 12:45:00 PM 11.18 52.124 0.068 7.33 2.17 10.57
10/20/2020 1:00:00 PM 11.2 52.16 0.068 7.37 2.26 10.57
10/20/2020 1:15:00 PM 11.24 52.232 0.068 7.36 2.17 10.58
10/20/2020 1:30:00 PM 11.26 52.268 0.068 7.37 2.19 10.58
10/20/2020 1:45:00 PM 11.28 52.304 0.068 7.38 2.21 10.58
10/20/2020 2:00:00 PM 11.31 52.358 0.068 7.34 2.32 10.58
10/20/2020 2:15:00 PM 11.32 52.376 0.068 7.39 2.24 10.55
10/20/2020 2:30:00 PM 11.31 52.358 0.068 7.32 2.36 10.51
10/20/2020 2:45:00 PM 11.32 52.376 0.068 7.34 2.3 10.51
10/20/2020 3:00:00 PM 11.32 52.376 0.068 7.35 2.51 10.47
10/20/2020 3:15:00 PM 11.32 52.376 0.068 7.37 2.55 10.49
10/20/2020 3:30:00 PM 11.32 52.376 0.068 7.33 2.4 10.46
10/20/2020 3:45:00 PM 11.33 52.394 0.068 7.34 2.51 10.43
10/20/2020 4:00:00 PM 11.33 52.394 0.068 7.37 2.57 10.41
10/20/2020 4:15:00 PM 11.31 52.358 0.068 7.31 2.53 10.4
10/20/2020 4:30:00 PM 11.3 52.34 0.068 7.35 2.51 10.38
10/20/2020 4:45:00 PM 11.29 52.322 0.068 7.35 2.61 10.37
10/20/2020 5:00:00 PM 11.28 52.304 0.068 7.3 2.35 10.35
10/20/2020 5:15:00 PM 11.27 52.286 0.068 7.35 2.36 10.35
10/20/2020 5:30:00 PM 11.25 52.25 0.068 7.31 2.44 10.34
10/20/2020 5:45:00 PM 11.23 52.214 0.068 7.32 2.37 10.33
10/20/2020 6:00:00 PM 11.2 52.16 0.068 7.35 2.36 10.33
10/20/2020 6:15:00 PM 11.17 52.106 0.068 7.34 2.47 10.31
10/20/2020 6:30:00 PM 11.14 52.052 0.068 7.28 2.47 10.29
10/20/2020 6:45:00 PM 11.1 51.98 0.068 7.31 2.56 10.3
10/20/2020 7:00:00 PM 11.07 51.926 0.068 7.29 2.63 10.3
10/20/2020 7:15:00 PM 11.04 51.872 0.068 7.3 2.98 10.27
10/20/2020 7:30:00 PM 11.01 51.818 0.068 7.3 7.09 10.27
10/20/2020 7:45:00 PM 10.97 51.746 0.069 7.27 1.92 10.28
10/20/2020 8:00:00 PM 10.94 51.692 0.069 7.28 1.88 10.28
10/20/2020 8:15:00 PM 10.9 51.62 0.069 7.32 1.89 10.29
10/20/2020 8:30:00 PM 10.87 51.566 0.069 7.31 1.85 10.29
10/20/2020 8:45:00 PM 10.83 51.494 0.069 7.33 1.78 10.32
10/20/2020 9:00:00 PM 10.8 51.44 0.069 7.27 1.82 10.33
10/20/2020 9:15:00 PM 10.77 51.386 0.069 7.32 1.87 10.34
10/20/2020 9:30:00 PM 10.75 51.35 0.069 7.3 2.16 10.33
10/20/2020 9:45:00 PM 10.72 51.296 0.069 7.32 1.88 10.34
10/20/2020 10:00:00 PM 10.69 51.242 0.069 7.32 2.12 10.36
10/20/2020 10:15:00 PM 10.66 51.188 0.069 7.33 1.84 10.38
10/20/2020 10:30:00 PM 10.63 51.134 0.069 7.32 1.92 10.39
10/20/2020 10:45:00 PM 10.61 51.098 0.069 7.32 1.72 10.38
10/20/2020 11:00:00 PM 10.58 51.044 0.07 7.29 1.72 10.41
10/20/2020 11:15:00 PM 10.55 50.99 0.07 7.3 1.87 10.43
10/20/2020 11:30:00 PM 10.53 50.954 0.07 7.32 1.72 10.44
10/20/2020 11:45:00 PM 10.52 50.936 0.07 7.3 1.72 10.41
10/21/2020 12:00:00 AM 10.5 50.9 0.07 7.34 1.66 10.45
10/21/2020 12:15:00 AM 10.48 50.864 0.07 7.32 1.71 10.46
10/21/2020 12:30:00 AM 10.47 50.846 0.07 7.31 1.79 10.45
10/21/2020 12:45:00 AM 10.45 50.81 0.07 7.34 1.63 10.46
10/21/2020 1:00:00 AM 10.44 50.792 0.07 7.32 1.56 10.45
10/21/2020 1:15:00 AM 10.43 50.774 0.07 7.28 1.63 10.45
10/21/2020 1:30:00 AM 10.41 50.738 0.07 7.34 1.66 10.45
10/21/2020 1:45:00 AM 10.4 50.72 0.07 7.31 1.65 10.47
10/21/2020 2:00:00 AM 10.39 50.702 0.07 7.33 1.62 10.48
10/21/2020 2:15:00 AM 10.38 50.684 0.07 7.33 1.63 10.47
10/21/2020 2:30:00 AM 10.37 50.666 0.07 7.33 1.68 10.46
10/21/2020 2:45:00 AM 10.36 50.648 0.07 7.34 1.59 10.47
10/21/2020 3:00:00 AM 10.35 50.63 0.07 7.33 6.23 10.46
10/21/2020 3:15:00 AM 10.34 50.612 0.07 7.31 1.65 10.49
10/21/2020 3:30:00 AM 10.33 50.594 0.07 7.31 1.58 10.48
10/21/2020 3:45:00 AM 10.33 50.594 0.07 7.31 1.61 10.48
10/21/2020 4:00:00 AM 10.32 50.576 0.07 7.35 1.62 10.5
10/21/2020 4:15:00 AM 10.31 50.558 0.07 7.3 1.57 10.49
10/21/2020 4:30:00 AM 10.31 50.558 0.07 7.34 1.63 10.48
10/21/2020 4:45:00 AM 10.3 50.54 0.07 7.31 1.66 10.47
10/21/2020 5:00:00 AM 10.29 50.522 0.07 7.29 1.71 10.48
10/21/2020 5:15:00 AM 10.29 50.522 0.07 7.3 1.59 10.46
10/21/2020 5:30:00 AM 10.28 50.504 0.07 7.3 1.59 10.48
10/21/2020 5:45:00 AM 10.28 50.504 0.07 7.29 1.64 10.47
10/21/2020 6:00:00 AM 10.28 50.504 0.07 7.31 1.69 10.47
10/21/2020 6:15:00 AM 10.27 50.486 0.07 7.34 1.66 10.49
10/21/2020 6:30:00 AM 10.27 50.486 0.07 7.29 1.54 10.46
10/21/2020 6:45:00 AM 10.26 50.468 0.07 7.3 1.72 10.48
10/21/2020 7:00:00 AM 10.24 50.432 0.07 7.33 1.65 10.49
10/21/2020 7:15:00 AM 10.23 50.414 0.07 7.32 1.59 10.49
10/21/2020 7:30:00 AM 10.23 50.414 0.07 7.31 1.6 10.48
10/21/2020 7:45:00 AM 10.23 50.414 0.07 7.32 1.53 10.5
10/21/2020 8:00:00 AM 10.24 50.432 0.07 7.34 1.47 10.52
10/21/2020 8:15:00 AM 10.25 50.45 0.07 7.29 1.49 10.57
10/21/2020 8:30:00 AM 10.26 50.468 0.07 7.36 1.54 10.59
10/21/2020 8:45:00 AM 10.31 50.558 0.07 7.3 1.55 10.65
10/21/2020 9:00:00 AM 10.36 50.648 0.07 7.38 1.49 10.72
10/21/2020 9:15:00 AM 10.4 50.72 0.07 7.33 1.4 10.74
10/21/2020 9:30:00 AM 10.43 50.774 0.07 7.38 1.47 10.74
10/21/2020 9:45:00 AM 10.54 50.972 0.07 7.35 1.43 10.78
10/21/2020 10:00:00 AM 10.67 51.206 0.07 7.38 1.42 10.81
10/21/2020 10:15:00 AM 10.75 51.35 0.07 7.37 1.44 10.8
10/21/2020 10:30:00 AM 10.86 51.548 0.07 7.43 1.5 10.81
10/21/2020 10:45:00 AM 10.99 51.782 0.07 7.36 1.44 10.79
10/21/2020 11:00:00 AM 11.12 52.016 0.07 7.43 1.41 10.78
10/21/2020 11:15:00 AM 11.26 52.268 0.07 7.4 1.42 10.78
10/21/2020 11:30:00 AM 11.43 52.574 0.07 7.42 1.45 10.74
10/21/2020 11:45:00 AM 11.63 52.934 0.07 7.41 1.51 10.69
10/21/2020 12:00:00 PM 11.78 53.204 0.07 7.4 1.41 10.67
10/21/2020 12:15:00 PM 11.98 53.564 0.07 7.42 1.47 10.67
10/21/2020 12:30:00 PM 12.17 53.906 0.07 7.47 1.4 10.64
10/21/2020 12:45:00 PM 12.4 54.32 0.07 7.47 1.39 10.59
10/21/2020 1:00:00 PM 12.57 54.626 0.07 7.44 1.36 10.55
10/21/2020 1:15:00 PM 12.75 54.95 0.07 7.45 1.45 10.52
10/21/2020 1:30:00 PM 12.98 55.364 0.07 7.49 1.42 10.49
10/21/2020 1:45:00 PM 13.13 55.634 0.07 7.47 1.39 10.43
10/21/2020 2:00:00 PM 13.21 55.778 0.07 7.48 1.46 10.37
10/21/2020 2:15:00 PM 13.22 55.796 0.07 7.48 1.4 10.34
10/21/2020 2:30:00 PM 13.31 55.958 0.07 7.48 1.38 10.33
10/21/2020 2:45:00 PM 13.51 56.318 0.07 7.45 1.43 10.31
10/21/2020 3:00:00 PM 13.8 56.84 0.07 7.51 1.38 10.27
10/21/2020 3:15:00 PM 13.87 56.966 0.07 7.45 1.38 10.12
10/21/2020 3:30:00 PM 13.95 57.11 0.07 7.46 1.43 10.07
10/21/2020 3:45:00 PM 13.96 57.128 0.07 7.48 1.55 10.03
10/21/2020 4:00:00 PM 13.95 57.11 0.07 7.46 1.45 9.99
10/21/2020 4:15:00 PM 13.97 57.146 0.07 7.45 1.44 9.95
10/21/2020 4:30:00 PM 13.99 57.182 0.07 7.45 1.42 9.92
10/21/2020 4:45:00 PM 14.02 57.236 0.071 7.42 1.51 9.87
10/21/2020 5:00:00 PM 14.05 57.29 0.071 7.4 1.42 9.83
10/21/2020 5:15:00 PM 14.08 57.344 0.071 7.39 1.4 9.8
10/21/2020 5:30:00 PM 14.09 57.362 0.071 7.43 1.42 9.77
10/21/2020 5:45:00 PM 14.09 57.362 0.071 7.39 1.39 9.73
10/21/2020 6:00:00 PM 14.1 57.38 0.071 7.41 1.5 9.67
10/21/2020 6:15:00 PM 14.11 57.398 0.071 7.41 1.56 9.63
10/21/2020 6:30:00 PM 14.11 57.398 0.072 7.4 1.52 9.59
10/21/2020 6:45:00 PM 14.1 57.38 0.072 7.38 1.49 9.55
10/21/2020 7:00:00 PM 14.09 57.362 0.072 7.36 1.63 9.53
10/21/2020 7:15:00 PM 14.08 57.344 0.072 7.34 1.58 9.51
10/21/2020 7:30:00 PM 14.07 57.326 0.072 7.3 1.65 9.5
10/21/2020 7:45:00 PM 14.02 57.236 0.072 7.33 1.55 9.49
10/21/2020 8:00:00 PM 14 57.2 0.072 7.33 1.48 9.49
10/21/2020 8:15:00 PM 13.98 57.164 0.072 7.32 1.59 9.49
10/21/2020 8:30:00 PM 13.95 57.11 0.072 7.26 1.49 9.49
10/21/2020 8:45:00 PM 13.92 57.056 0.073 7.29 1.46 9.5
10/21/2020 9:00:00 PM 13.9 57.02 0.073 7.27 1.54 9.5
10/21/2020 9:15:00 PM 13.86 56.948 0.073 7.31 1.49 9.51
10/21/2020 9:30:00 PM 13.82 56.876 0.073 7.29 1.48 9.5
10/21/2020 9:45:00 PM 13.79 56.822 0.073 7.23 1.45 9.52
10/21/2020 10:00:00 PM 13.73 56.714 0.073 7.25 1.51 9.53
10/21/2020 10:15:00 PM 13.65 56.57 0.073 7.28 1.53 9.53
10/21/2020 10:30:00 PM 13.59 56.462 0.073 7.29 1.52 9.55
10/21/2020 10:45:00 PM 13.52 56.336 0.073 7.27 1.48 9.56
10/21/2020 11:00:00 PM 13.45 56.21 0.073 7.23 1.47 9.57
10/21/2020 11:15:00 PM 13.38 56.084 0.073 7.29 1.52 9.59
10/21/2020 11:30:00 PM 13.33 55.994 0.073 7.29 1.53 9.6
10/21/2020 11:45:00 PM 13.29 55.922 0.074 7.29 1.56 9.62
10/22/2020 12:00:00 AM 13.25 55.85 0.074 7.27 1.41 9.63
10/22/2020 12:15:00 AM 13.2 55.76 0.074 7.29 1.5 9.64
10/22/2020 12:30:00 AM 13.14 55.652 0.074 7.25 1.47 9.65
10/22/2020 12:45:00 AM 13.07 55.526 0.074 7.28 1.44 9.66
10/22/2020 1:00:00 AM 13.04 55.472 0.074 7.28 1.55 9.67
10/22/2020 1:15:00 AM 13 55.4 0.074 7.29 1.54 9.69
10/22/2020 1:30:00 AM 12.96 55.328 0.074 7.27 1.5 9.69
10/22/2020 1:45:00 AM 12.93 55.274 0.074 7.21 1.49 9.7
10/22/2020 2:00:00 AM 12.9 55.22 0.074 7.23 1.46 9.7
10/22/2020 2:15:00 AM 12.87 55.166 0.074 7.24 1.47 9.71
10/22/2020 2:30:00 AM 12.85 55.13 0.074 7.28 1.46 9.72
10/22/2020 2:45:00 AM 12.82 55.076 0.074 7.27 1.49 9.73
10/22/2020 3:00:00 AM 12.8 55.04 0.074 7.24 1.5 9.73
10/22/2020 3:15:00 AM 12.77 54.986 0.074 7.24 1.46 9.74
10/22/2020 3:30:00 AM 12.75 54.95 0.074 7.27 1.5 9.74
10/22/2020 3:45:00 AM 12.73 54.914 0.074 7.26 1.59 9.75
10/22/2020 4:00:00 AM 12.71 54.878 0.074 7.26 1.49 9.75
10/22/2020 4:15:00 AM 12.69 54.842 0.074 7.27 1.44 9.76
10/22/2020 4:30:00 AM 12.68 54.824 0.074 7.2 1.46 9.77
10/22/2020 4:45:00 AM 12.66 54.788 0.074 7.28 1.46 9.77
10/22/2020 5:00:00 AM 12.64 54.752 0.074 7.26 1.39 9.77
10/22/2020 5:15:00 AM 12.63 54.734 0.074 7.2 1.46 9.77
10/22/2020 5:30:00 AM 12.61 54.698 0.074 7.22 1.41 9.78
10/22/2020 5:45:00 AM 12.6 54.68 0.074 7.26 1.49 9.78
10/22/2020 6:00:00 AM 12.58 54.644 0.074 7.26 1.38 9.77
10/22/2020 6:15:00 AM 12.57 54.626 0.074 7.25 1.42 9.79
10/22/2020 6:30:00 AM 12.56 54.608 0.074 7.25 1.39 9.78
10/22/2020 6:45:00 AM 12.55 54.59 0.074 7.23 1.37 9.78
10/22/2020 7:00:00 AM 12.54 54.572 0.074 7.26 1.36 9.79
10/22/2020 7:15:00 AM 12.53 54.554 0.074 7.25 1.4 9.79
10/22/2020 7:30:00 AM 12.52 54.536 0.074 7.24 1.42 9.79
10/22/2020 7:45:00 AM 12.51 54.518 0.074 7.26 1.35 9.8
10/22/2020 8:00:00 AM 12.5 54.5 0.074 7.25 1.42 9.82
10/22/2020 8:15:00 AM 12.5 54.5 0.074 7.25 1.36 9.85
10/22/2020 8:30:00 AM 12.51 54.518 0.074 7.24 1.32 9.89
10/22/2020 8:45:00 AM 12.53 54.554 0.074 7.25 1.31 9.95
10/22/2020 9:00:00 AM 12.55 54.59 0.074 7.24 1.35 10
10/22/2020 9:15:00 AM 12.59 54.662 0.074 7.31 1.32 10.08
10/22/2020 9:30:00 AM 12.65 54.77 0.073 7.29 1.31 10.14
10/22/2020 9:45:00 AM 12.7 54.86 0.073 7.34 1.32 10.18
10/22/2020 10:00:00 AM 12.79 55.022 0.073 7.35 1.27 10.23
10/22/2020 10:15:00 AM 12.9 55.22 0.073 7.37 1.24 10.27
10/22/2020 10:30:00 AM 13.02 55.436 0.073 7.38 1.28 10.29
10/22/2020 10:45:00 AM 13.13 55.634 0.073 7.36 1.27 10.3
10/22/2020 11:00:00 AM 13.24 55.832 0.073 7.42 1.25 10.31
10/22/2020 11:15:00 AM 13.36 56.048 0.073 7.43 1.32 10.32
10/22/2020 11:30:00 AM 13.46 56.228 0.073 7.38 1.25 10.3
10/22/2020 11:45:00 AM 13.56 56.408 0.073 7.4 1.24 10.26
10/22/2020 12:00:00 PM 13.66 56.588 0.073 7.43 1.26 10.19
10/22/2020 12:15:00 PM 13.79 56.822 0.073 7.37 1.29 10.17
10/22/2020 12:30:00 PM 13.96 57.128 0.073 7.45 1.35 10.2
10/22/2020 12:45:00 PM 14.04 57.272 0.073 7.45 1.28 10.18
10/22/2020 1:00:00 PM 14.11 57.398 0.073 7.46 1.26 10.12
10/22/2020 1:15:00 PM 14.15 57.47 0.073 7.44 1.29 10.11
10/22/2020 1:30:00 PM 14.32 57.776 0.072 7.41 1.25 10.12
10/22/2020 1:45:00 PM 14.57 58.226 0.072 7.44 1.29 10.1
10/22/2020 2:00:00 PM 14.86 58.748 0.072 7.45 1.3 10.06
10/22/2020 2:15:00 PM 15.16 59.288 0.072 7.45 1.29 9.99
10/22/2020 2:30:00 PM 15.36 59.648 0.072 7.49 1.3 9.92
10/22/2020 2:45:00 PM 15.42 59.756 0.072 7.43 1.38 9.89
10/22/2020 3:00:00 PM 15.46 59.828 0.072 7.48 1.29 9.85
10/22/2020 3:15:00 PM 15.43 59.774 0.072 7.45 1.25 9.78
10/22/2020 3:30:00 PM 15.4 59.72 0.072 7.5 1.23 9.85
10/22/2020 3:45:00 PM 15.41 59.738 0.073 7.51 1.22 9.83
10/22/2020 4:00:00 PM 15.38 59.684 0.073 7.45 1.23 9.79
10/22/2020 4:15:00 PM 15.43 59.774 0.072 7.44 1.24 9.75
10/22/2020 4:30:00 PM 15.42 59.756 0.072 7.47 1.26 9.67
10/22/2020 4:45:00 PM 15.4 59.72 0.072 7.47 1.28 9.66
10/22/2020 5:00:00 PM 15.37 59.666 0.073 7.43 1.28 9.6
10/22/2020 5:15:00 PM 15.34 59.612 0.073 7.45 1.31 9.53
10/22/2020 5:30:00 PM 15.31 59.558 0.073 7.43 1.32 9.5
10/22/2020 5:45:00 PM 15.29 59.522 0.073 7.36 1.25 9.45
10/22/2020 6:00:00 PM 15.26 59.468 0.073 7.4 1.27 9.4
10/22/2020 6:15:00 PM 15.24 59.432 0.073 7.39 1.28 9.35
10/22/2020 6:30:00 PM 15.21 59.378 0.073 7.32 1.27 9.29
10/22/2020 6:45:00 PM 15.18 59.324 0.073 7.33 1.27 9.25
10/22/2020 7:00:00 PM 15.15 59.27 0.074 7.35 1.39 9.22
10/22/2020 7:15:00 PM 15.12 59.216 0.074 7.37 1.44 9.2
10/22/2020 7:30:00 PM 15.09 59.162 0.074 7.35 1.39 9.18
10/22/2020 7:45:00 PM 15.05 59.09 0.074 7.34 1.36 9.18
10/22/2020 8:00:00 PM 15.01 59.018 0.074 7.3 1.41 9.16
10/22/2020 8:15:00 PM 14.96 58.928 0.074 7.32 1.35 9.16
10/22/2020 8:30:00 PM 14.89 58.802 0.074 7.31 2.15 9.16
10/22/2020 8:45:00 PM 14.82 58.676 0.074 7.27 1.36 9.16
10/22/2020 9:00:00 PM 14.75 58.55 0.074 7.31 1.3 9.16
10/22/2020 9:15:00 PM 14.67 58.406 0.074 7.25 1.37 9.19
10/22/2020 9:30:00 PM 14.59 58.262 0.074 7.31 1.4 9.2
10/22/2020 9:45:00 PM 14.5 58.1 0.075 7.3 1.34 9.21
10/22/2020 10:00:00 PM 14.41 57.938 0.075 7.29 1.33 9.21
10/22/2020 10:15:00 PM 14.32 57.776 0.075 7.27 1.33 9.23
10/22/2020 10:30:00 PM 14.22 57.596 0.075 7.24 1.35 9.25
10/22/2020 10:45:00 PM 14.13 57.434 0.075 7.24 1.54 9.27
10/22/2020 11:00:00 PM 14.04 57.272 0.075 7.28 1.39 9.29
10/22/2020 11:15:00 PM 13.94 57.092 0.075 7.28 1.3 9.31
10/22/2020 11:30:00 PM 13.85 56.93 0.075 7.25 1.32 9.33
10/22/2020 11:45:00 PM 13.76 56.768 0.075 7.26 1.34 9.36
10/23/2020 12:00:00 AM 13.66 56.588 0.075 7.29 1.34 9.37
10/23/2020 12:15:00 AM 13.57 56.426 0.075 7.29 1.29 9.39
10/23/2020 12:30:00 AM 13.47 56.246 0.075 7.23 1.35 9.4
10/23/2020 12:45:00 AM 13.38 56.084 0.075 7.27 1.32 9.43
10/23/2020 1:00:00 AM 13.29 55.922 0.075 7.24 1.37 9.45
10/23/2020 1:15:00 AM 13.19 55.742 0.075 7.24 1.25 9.47
10/23/2020 1:30:00 AM 13.1 55.58 0.076 7.25 1.38 9.51
10/23/2020 1:45:00 AM 13.01 55.418 0.076 7.24 1.3 9.52
10/23/2020 2:00:00 AM 12.92 55.256 0.076 7.25 1.33 9.55
10/23/2020 2:15:00 AM 12.84 55.112 0.076 7.26 1.38 9.57
10/23/2020 2:30:00 AM 12.75 54.95 0.076 7.29 1.25 9.59
10/23/2020 2:45:00 AM 12.66 54.788 0.076 7.24 1.39 9.6
10/23/2020 3:00:00 AM 12.58 54.644 0.076 7.25 1.31 9.62
10/23/2020 3:15:00 AM 12.5 54.5 0.076 7.27 1.35 9.65
10/23/2020 3:30:00 AM 12.42 54.356 0.076 7.28 1.35 9.66
10/23/2020 3:45:00 AM 12.34 54.212 0.076 7.28 1.33 9.68
10/23/2020 4:00:00 AM 12.27 54.086 0.076 7.26 1.3 9.69
10/23/2020 4:15:00 AM 12.19 53.942 0.076 7.26 1.3 9.71
10/23/2020 4:30:00 AM 12.12 53.816 0.076 7.29 1.36 9.73
10/23/2020 4:45:00 AM 12.05 53.69 0.076 7.22 1.28 9.75
10/23/2020 5:00:00 AM 12 53.6 0.076 7.25 1.31 9.77
10/23/2020 5:15:00 AM 11.96 53.528 0.076 7.29 1.28 9.78
10/23/2020 5:30:00 AM 11.92 53.456 0.076 7.25 1.41 9.79
10/23/2020 5:45:00 AM 11.89 53.402 0.076 7.3 1.28 9.81
10/23/2020 6:00:00 AM 11.86 53.348 0.076 7.24 1.33 9.81
10/23/2020 6:15:00 AM 11.83 53.294 0.076 7.29 1.33 9.84
10/23/2020 6:30:00 AM 11.81 53.258 0.076 7.28 1.25 9.84
10/23/2020 6:45:00 AM 11.79 53.222 0.076 7.26 1.31 9.85
10/23/2020 7:00:00 AM 11.76 53.168 0.076 7.26 1.28 9.85
10/23/2020 7:15:00 AM 11.72 53.096 0.076 7.24 1.27 9.86
10/23/2020 7:30:00 AM 11.68 53.024 0.076 7.25 1.26 9.88
10/23/2020 7:45:00 AM 11.65 52.97 0.076 7.3 1.27 9.9
10/23/2020 8:00:00 AM 11.63 52.934 0.076 7.26 1.3 9.94
10/23/2020 8:15:00 AM 11.63 52.934 0.076 7.31 1.3 10.01
10/23/2020 8:30:00 AM 11.65 52.97 0.076 7.29 1.32 10.08
10/23/2020 8:45:00 AM 11.63 52.934 0.076 7.29 1.24 10.13
10/23/2020 9:00:00 AM 11.64 52.952 0.075 7.3 1.24 10.19
10/23/2020 9:15:00 AM 11.64 52.952 0.075 7.34 1.23 10.22
10/23/2020 9:30:00 AM 11.67 53.006 0.075 7.34 1.21 10.28
10/23/2020 9:45:00 AM 11.73 53.114 0.075 7.32 1.19 10.35
10/23/2020 10:00:00 AM 11.8 53.24 0.075 7.36 1.19 10.4
10/23/2020 10:15:00 AM 11.91 53.438 0.075 7.36 1.22 10.44
10/23/2020 10:30:00 AM 11.99 53.582 0.075 7.37 1.18 10.46
10/23/2020 10:45:00 AM 12.11 53.798 0.075 7.42 1.24 10.47
10/23/2020 11:00:00 AM 12.29 54.122 0.075 7.44 1.17 10.48
10/23/2020 11:15:00 AM 12.45 54.41 0.074 7.44 1.2 10.46
10/23/2020 11:30:00 AM 12.66 54.788 0.074 7.42 1.26 10.47
10/23/2020 11:45:00 AM 12.79 55.022 0.074 7.46 1.21 10.41
10/23/2020 12:00:00 PM 12.99 55.382 0.074 7.47 1.25 10.39
10/23/2020 12:15:00 PM 13.24 55.832 0.074 7.42 1.12 10.36
10/23/2020 12:30:00 PM 13.4 56.12 0.074 7.47 1.21 10.31
10/23/2020 12:45:00 PM 13.51 56.318 0.074 7.42 1.19 10.26
10/23/2020 1:00:00 PM 13.73 56.714 0.074 7.46 1.15 10.22
10/23/2020 1:15:00 PM 13.89 57.002 0.074 7.48 1.21 10.22
10/23/2020 1:30:00 PM 14 57.2 0.074 7.43 1.16 10.21
10/23/2020 1:45:00 PM 14.12 57.416 0.074 7.44 1.19 10.18
10/23/2020 2:00:00 PM 14.2 57.56 0.074 7.47 1.19 10.12
10/23/2020 2:15:00 PM 14.42 57.956 0.073 7.49 1.22 10.08
10/23/2020 2:30:00 PM 14.53 58.154 0.073 7.49 1.15 10.03
10/23/2020 2:45:00 PM 14.72 58.496 0.073 7.48 1.22 9.99
10/23/2020 3:00:00 PM 14.86 58.748 0.073 7.48 1.21 9.95
10/23/2020 3:15:00 PM 15 59 0.073 7.42 1.15 9.9
10/23/2020 3:30:00 PM 15.08 59.144 0.073 7.47 1.2 9.88
10/23/2020 3:45:00 PM 15.17 59.306 0.073 7.45 1.12 9.83
10/23/2020 4:00:00 PM 15.25 59.45 0.073 7.48 1.39 9.82
10/23/2020 4:15:00 PM 15.29 59.522 0.073 7.48 1.16 9.82
10/23/2020 4:30:00 PM 15.3 59.54 0.073 7.5 1.23 9.81
10/23/2020 4:45:00 PM 15.29 59.522 0.073 7.51 1.18 9.74
10/23/2020 5:00:00 PM 15.26 59.468 0.073 7.44 1.19 9.69
10/23/2020 5:15:00 PM 15.25 59.45 0.073 7.49 1.19 9.64
10/23/2020 5:30:00 PM 15.23 59.414 0.073 7.41 1.24 9.54
10/23/2020 5:45:00 PM 15.19 59.342 0.073 7.4 1.2 9.46
10/23/2020 6:00:00 PM 15.17 59.306 0.074 7.44 1.24 9.39
10/23/2020 6:15:00 PM 15.14 59.252 0.074 7.42 1.28 9.32
10/23/2020 6:30:00 PM 15.12 59.216 0.074 7.37 1.44 9.26
10/23/2020 6:45:00 PM 15.09 59.162 0.074 7.4 1.51 9.19
10/23/2020 7:00:00 PM 15.06 59.108 0.074 7.33 1.54 9.14
10/23/2020 7:15:00 PM 15.03 59.054 0.074 7.38 1.54 9.11
10/23/2020 7:30:00 PM 15.01 59.018 0.074 7.33 1.41 9.08
10/23/2020 7:45:00 PM 14.99 58.982 0.074 7.34 1.42 9.07
10/23/2020 8:00:00 PM 14.98 58.964 0.075 7.36 1.4 9.07
10/23/2020 8:15:00 PM 14.96 58.928 0.075 7.37 1.42 9.05
10/23/2020 8:30:00 PM 14.95 58.91 0.075 7.3 1.36 9.03
10/23/2020 8:45:00 PM 14.93 58.874 0.075 7.31 1.33 9.02
10/23/2020 9:00:00 PM 14.92 58.856 0.075 7.33 1.34 9.02
10/23/2020 9:15:00 PM 14.91 58.838 0.075 7.34 1.38 9.01
10/23/2020 9:30:00 PM 14.88 58.784 0.075 7.3 1.33 9
10/23/2020 9:45:00 PM 14.86 58.748 0.075 7.35 1.32 9
10/23/2020 10:00:00 PM 14.84 58.712 0.075 7.3 1.36 9
10/23/2020 10:15:00 PM 14.81 58.658 0.075 7.29 1.35 8.99
10/23/2020 10:30:00 PM 14.77 58.586 0.075 7.33 1.35 8.99
10/23/2020 10:45:00 PM 14.73 58.514 0.075 7.26 1.34 9
10/23/2020 11:00:00 PM 14.69 58.442 0.075 7.33 1.36 9.01
10/23/2020 11:15:00 PM 14.65 58.37 0.075 7.33 1.29 9.03
10/23/2020 11:30:00 PM 14.61 58.298 0.075 7.28 1.29 9.03
10/23/2020 11:45:00 PM 14.57 58.226 0.075 7.29 1.31 9.03
10/24/2020 12:00:00 AM 14.54 58.172 0.075 7.29 1.26 9.05
10/24/2020 12:15:00 AM 14.5 58.1 0.075 7.33 1.34 9.05
10/24/2020 12:30:00 AM 14.47 58.046 0.076 7.27 1.31 9.06
10/24/2020 12:45:00 AM 14.42 57.956 0.076 7.33 1.24 9.08
10/24/2020 1:00:00 AM 14.39 57.902 0.076 7.33 1.29 9.08
10/24/2020 1:15:00 AM 14.35 57.83 0.076 7.3 1.33 9.09
10/24/2020 1:30:00 AM 14.33 57.794 0.076 7.28 1.51 9.09
10/24/2020 1:45:00 AM 14.29 57.722 0.076 7.33 1.38 9.12
10/24/2020 2:00:00 AM 14.26 57.668 0.076 7.33 1.34 9.11
10/24/2020 2:15:00 AM 14.23 57.614 0.076 7.33 1.42 9.13
10/24/2020 2:30:00 AM 14.2 57.56 0.076 7.27 1.3 9.13
10/24/2020 2:45:00 AM 14.17 57.506 0.076 7.29 1.29 9.15
10/24/2020 3:00:00 AM 14.14 57.452 0.076 7.3 1.32 9.16
10/24/2020 3:15:00 AM 14.1 57.38 0.076 7.29 1.33 9.17
10/24/2020 3:30:00 AM 14.08 57.344 0.076 7.32 1.28 9.17
10/24/2020 3:45:00 AM 14.05 57.29 0.076 7.27 1.36 9.17
10/24/2020 4:00:00 AM 14.03 57.254 0.076 7.32 1.32 9.18
10/24/2020 4:15:00 AM 14.01 57.218 0.076 7.31 1.42 9.19
10/24/2020 4:30:00 AM 14 57.2 0.076 7.33 1.5 9.18
10/24/2020 4:45:00 AM 13.98 57.164 0.076 7.31 1.61 9.19
10/24/2020 5:00:00 AM 13.97 57.146 0.076 7.27 1.52 9.19
10/24/2020 5:15:00 AM 13.96 57.128 0.076 7.31 1.44 9.2
10/24/2020 5:30:00 AM 13.95 57.11 0.076 7.27 1.36 9.2
10/24/2020 5:45:00 AM 13.94 57.092 0.076 7.28 1.34 9.19
10/24/2020 6:00:00 AM 13.94 57.092 0.076 7.27 1.29 9.2
10/24/2020 6:15:00 AM 13.91 57.038 0.076 7.28 1.45 9.21
10/24/2020 6:30:00 AM 13.86 56.948 0.076 7.3 1.29 9.21
10/24/2020 6:45:00 AM 13.8 56.84 0.076 7.28 1.31 9.22
10/24/2020 7:00:00 AM 13.74 56.732 0.076 7.31 1.3 9.24
10/24/2020 7:15:00 AM 13.67 56.606 0.076 7.27 1.37 9.25
10/24/2020 7:30:00 AM 13.61 56.498 0.076 7.28 1.28 9.26
10/24/2020 7:45:00 AM 13.55 56.39 0.076 7.31 1.35 9.28
10/24/2020 8:00:00 AM 13.51 56.318 0.076 7.33 1.33 9.3
10/24/2020 8:15:00 AM 13.45 56.21 0.076 7.32 1.29 9.35
10/24/2020 8:30:00 AM 13.38 56.084 0.076 7.31 1.27 9.42
10/24/2020 8:45:00 AM 13.34 56.012 0.076 7.35 1.31 9.51
10/24/2020 9:00:00 AM 13.3 55.94 0.076 7.37 1.28 9.61
10/24/2020 9:15:00 AM 13.27 55.886 0.076 7.36 1.32 9.69
10/24/2020 9:30:00 AM 13.22 55.796 0.075 7.38 1.27 9.72
10/24/2020 9:45:00 AM 13.18 55.724 0.075 7.36 1.27 9.81
10/24/2020 10:00:00 AM 13.16 55.688 0.075 7.41 1.3 9.91
10/24/2020 10:15:00 AM 13.18 55.724 0.075 7.42 1.23 10
10/24/2020 10:30:00 AM 13.16 55.688 0.075 7.4 1.33 10.06
10/24/2020 10:45:00 AM 13.13 55.634 0.075 7.45 1.3 10.12
10/24/2020 11:00:00 AM 13.11 55.598 0.075 7.45 1.22 10.17
10/24/2020 11:15:00 AM 13.1 55.58 0.075 7.47 1.26 10.21
10/24/2020 11:30:00 AM 13.11 55.598 0.074 7.48 1.26 10.26
10/24/2020 11:45:00 AM 13.16 55.688 0.074 7.45 1.23 10.3
10/24/2020 12:00:00 PM 13.15 55.67 0.074 7.51 1.22 10.33
10/24/2020 12:15:00 PM 13.16 55.688 0.074 7.48 1.22 10.36
10/24/2020 12:30:00 PM 13.12 55.616 0.074 7.52 1.25 10.38
10/24/2020 12:45:00 PM 13.13 55.634 0.074 7.5 1.29 10.36
10/24/2020 1:00:00 PM 13.16 55.688 0.074 7.49 1.28 10.38
10/24/2020 1:15:00 PM 13.13 55.634 0.074 7.48 1.26 10.38
10/24/2020 1:30:00 PM 13.12 55.616 0.074 7.55 1.24 10.39
10/24/2020 1:45:00 PM 13.13 55.634 0.074 7.5 1.26 10.41
10/24/2020 2:00:00 PM 13.14 55.652 0.074 7.53 1.19 10.42
10/24/2020 2:15:00 PM 13.14 55.652 0.073 7.56 1.25 10.42
10/24/2020 2:30:00 PM 13.15 55.67 0.073 7.52 1.26 10.45
10/24/2020 2:45:00 PM 13.18 55.724 0.073 7.57 1.87 10.44
10/24/2020 3:00:00 PM 13.19 55.742 0.074 7.61 2.48 10.5
10/24/2020 3:15:00 PM 13.12 55.616 0.074 7.59 1.68 10.43
10/24/2020 3:30:00 PM 13.15 55.67 0.073 7.57 1.56 10.39
10/24/2020 3:45:00 PM 13.2 55.76 0.074 7.57 1.48 10.34
10/24/2020 4:00:00 PM 13.22 55.796 0.074 7.54 1.42 10.33
10/24/2020 4:15:00 PM 13.2 55.76 0.074 7.56 1.39 10.32
10/24/2020 4:30:00 PM 13.11 55.598 0.074 7.55 1.37 10.26
10/24/2020 4:45:00 PM 13.03 55.454 0.074 7.51 1.46 10.24
10/24/2020 5:00:00 PM 12.97 55.346 0.074 7.5 1.59 10.23
10/24/2020 5:15:00 PM 12.84 55.112 0.074 7.49 1.64 10.18
10/24/2020 5:30:00 PM 12.71 54.878 0.074 7.5 1.83 10.14
10/24/2020 5:45:00 PM 12.57 54.626 0.074 7.44 1.87 10.09
10/24/2020 6:00:00 PM 12.45 54.41 0.074 7.46 1.83 10.02
10/24/2020 6:15:00 PM 12.34 54.212 0.074 7.41 1.89 9.97
10/24/2020 6:30:00 PM 12.24 54.032 0.074 7.39 2.09 9.92
10/24/2020 6:45:00 PM 12.15 53.87 0.075 7.38 2.03 9.88
10/24/2020 7:00:00 PM 12.06 53.708 0.075 7.38 1.96 9.86
10/24/2020 7:15:00 PM 11.99 53.582 0.075 7.36 1.77 9.85
10/24/2020 7:30:00 PM 11.93 53.474 0.075 7.37 1.74 9.85
10/24/2020 7:45:00 PM 11.87 53.366 0.075 7.38 1.64 9.84
10/24/2020 8:00:00 PM 11.83 53.294 0.075 7.34 1.58 9.83
10/24/2020 8:15:00 PM 11.79 53.222 0.075 7.38 1.57 9.84
10/24/2020 8:30:00 PM 11.74 53.132 0.075 7.37 1.54 9.84
10/24/2020 8:45:00 PM 11.69 53.042 0.075 7.38 1.84 9.84
10/24/2020 9:00:00 PM 11.63 52.934 0.075 7.37 1.44 9.85
10/24/2020 9:15:00 PM 11.57 52.826 0.075 7.33 1.45 9.86
10/24/2020 9:30:00 PM 11.51 52.718 0.075 7.33 1.47 9.88
10/24/2020 9:45:00 PM 11.43 52.574 0.075 7.33 1.4 9.91
10/24/2020 10:00:00 PM 11.35 52.43 0.075 7.37 1.44 9.92
10/24/2020 10:15:00 PM 11.27 52.286 0.075 7.32 1.45 9.94
10/24/2020 10:30:00 PM 11.19 52.142 0.075 7.36 1.46 9.97
10/24/2020 10:45:00 PM 11.11 51.998 0.076 7.32 1.39 9.99
10/24/2020 11:00:00 PM 11.04 51.872 0.076 7.32 1.38 10
10/24/2020 11:15:00 PM 10.98 51.764 0.076 7.34 1.46 10.02
10/24/2020 11:30:00 PM 10.91 51.638 0.076 7.32 1.47 10.04
10/24/2020 11:45:00 PM 10.84 51.512 0.076 7.33 1.37 10.06
10/25/2020 12:00:00 AM 10.78 51.404 0.076 7.32 1.4 10.08
10/25/2020 12:15:00 AM 10.72 51.296 0.076 7.36 1.37 10.11
10/25/2020 12:30:00 AM 10.65 51.17 0.076 7.31 1.39 10.12
10/25/2020 12:45:00 AM 10.56 51.008 0.076 7.33 1.38 10.14
10/25/2020 1:00:00 AM 10.48 50.864 0.076 7.33 1.34 10.17
10/25/2020 1:15:00 AM 10.42 50.756 0.076 7.33 1.36 10.18
10/25/2020 1:30:00 AM 10.35 50.63 0.076 7.33 1.33 10.21
10/25/2020 1:45:00 AM 10.27 50.486 0.076 7.33 1.41 10.23
10/25/2020 2:00:00 AM 10.21 50.378 0.076 7.36 1.37 10.25
10/25/2020 2:15:00 AM 10.14 50.252 0.076 7.37 1.35 10.27
10/25/2020 2:30:00 AM 10.06 50.108 0.076 7.32 1.35 10.28
10/25/2020 2:45:00 AM 9.96 49.928 0.076 7.36 1.35 10.3
10/25/2020 3:00:00 AM 9.85 49.73 0.076 7.36 1.43 10.32
10/25/2020 3:15:00 AM 9.73 49.514 0.076 7.31 1.38 10.35
10/25/2020 3:30:00 AM 9.62 49.316 0.076 7.32 1.36 10.39
10/25/2020 3:45:00 AM 9.5 49.1 0.076 7.32 1.33 10.42
10/25/2020 4:00:00 AM 9.39 48.902 0.076 7.34 1.37 10.46
10/25/2020 4:15:00 AM 9.28 48.704 0.076 7.33 1.37 10.49
10/25/2020 4:30:00 AM 9.17 48.506 0.076 7.36 1.36 10.52
10/25/2020 4:45:00 AM 9.07 48.326 0.076 7.34 1.38 10.54
10/25/2020 5:00:00 AM 8.97 48.146 0.076 7.36 1.3 10.58
10/25/2020 5:15:00 AM 8.87 47.966 0.076 7.31 1.33 10.61
10/25/2020 5:30:00 AM 8.78 47.804 0.076 7.32 1.31 10.63
10/25/2020 5:45:00 AM 8.68 47.624 0.076 7.32 1.4 10.66
10/25/2020 6:00:00 AM 8.59 47.462 0.076 7.33 1.32 10.69
10/25/2020 6:15:00 AM 8.5 47.3 0.076 7.33 1.33 10.72
10/25/2020 6:30:00 AM 8.41 47.138 0.076 7.34 1.32 10.75
10/25/2020 6:45:00 AM 8.31 46.958 0.076 7.32 1.32 10.77
10/25/2020 7:00:00 AM 8.22 46.796 0.076 7.32 1.38 10.81
10/25/2020 7:15:00 AM 8.13 46.634 0.076 7.33 1.36 10.83
10/25/2020 7:30:00 AM 8.04 46.472 0.076 7.32 1.36 10.87
10/25/2020 7:45:00 AM 7.95 46.31 0.076 7.33 1.35 10.93
10/25/2020 8:00:00 AM 7.87 46.166 0.076 7.33 1.32 10.97
10/25/2020 8:15:00 AM 7.79 46.022 0.076 7.37 1.3 11.03
10/25/2020 8:30:00 AM 7.73 45.914 0.076 7.33 1.33 11.1
10/25/2020 8:45:00 AM 7.7 45.86 0.076 7.35 1.28 11.18
10/25/2020 9:00:00 AM 7.69 45.842 0.076 7.37 1.28 11.28
10/25/2020 9:15:00 AM 7.71 45.878 0.075 7.37 1.32 11.35
10/25/2020 9:30:00 AM 7.71 45.878 0.075 7.38 1.33 11.42
10/25/2020 9:45:00 AM 7.75 45.95 0.075 7.39 1.25 11.48
10/25/2020 10:00:00 AM 7.82 46.076 0.075 7.41 1.29 11.55
10/25/2020 10:15:00 AM 7.88 46.184 0.075 7.42 1.31 11.59
10/25/2020 10:30:00 AM 7.95 46.31 0.075 7.43 1.32 11.62
10/25/2020 10:45:00 AM 8.05 46.49 0.075 7.46 1.3 11.65
10/25/2020 11:00:00 AM 8.18 46.724 0.075 7.46 1.36 11.67
10/25/2020 11:15:00 AM 8.29 46.922 0.074 7.46 1.23 11.67
10/25/2020 11:30:00 AM 8.43 47.174 0.074 7.48 1.23 11.68
10/25/2020 11:45:00 AM 8.61 47.498 0.074 7.49 1.24 11.67
10/25/2020 12:00:00 PM 8.67 47.606 0.074 7.47 1.28 11.65
10/25/2020 12:15:00 PM 8.75 47.75 0.074 7.52 1.21 11.63
10/25/2020 12:30:00 PM 8.88 47.984 0.074 7.51 1.25 11.59
10/25/2020 12:45:00 PM 9.03 48.254 0.074 7.48 1.22 11.57
10/25/2020 1:00:00 PM 9.19 48.542 0.074 7.52 1.22 11.54
10/25/2020 1:15:00 PM 9.38 48.884 0.074 7.51 1.2 11.49
10/25/2020 1:30:00 PM 9.57 49.226 0.074 7.51 1.18 11.44
10/25/2020 1:45:00 PM 9.73 49.514 0.073 7.51 1.23 11.41
10/25/2020 2:00:00 PM 9.88 49.784 0.073 7.51 1.27 11.39
10/25/2020 2:15:00 PM 9.95 49.91 0.073 7.54 1.21 11.36
10/25/2020 2:30:00 PM 10.01 50.018 0.073 7.49 1.2 11.34
10/25/2020 2:45:00 PM 10.03 50.054 0.073 7.5 1.22 11.32
10/25/2020 3:00:00 PM 10 50 0.073 7.49 1.2 11.31
10/25/2020 3:15:00 PM 9.96 49.928 0.073 7.48 1.25 11.3
10/25/2020 3:30:00 PM 9.89 49.802 0.073 7.48 1.29 11.29
10/25/2020 3:45:00 PM 9.83 49.694 0.073 7.49 1.24 11.29
10/25/2020 4:00:00 PM 9.78 49.604 0.073 7.49 1.23 11.24
10/25/2020 4:15:00 PM 9.75 49.55 0.072 7.5 1.28 11.22
10/25/2020 4:30:00 PM 9.73 49.514 0.072 7.46 1.35 11.2
10/25/2020 4:45:00 PM 9.73 49.514 0.072 7.47 1.3 11.14
10/25/2020 5:00:00 PM 9.75 49.55 0.072 7.5 1.27 11.11
10/25/2020 5:15:00 PM 9.8 49.64 0.072 7.49 1.27 11.09
10/25/2020 5:30:00 PM 9.82 49.676 0.072 7.48 1.25 11.02
10/25/2020 5:45:00 PM 9.84 49.712 0.072 7.47 1.31 10.93
10/25/2020 6:00:00 PM 9.83 49.694 0.072 7.43 1.31 10.85
10/25/2020 6:15:00 PM 9.82 49.676 0.073 7.43 1.31 10.77
10/25/2020 6:30:00 PM 9.81 49.658 0.073 7.38 1.31 10.69
10/25/2020 6:45:00 PM 9.78 49.604 0.073 7.42 1.34 10.62
10/25/2020 7:00:00 PM 9.77 49.586 0.073 7.4 1.28 10.58
10/25/2020 7:15:00 PM 9.78 49.604 0.073 7.37 1.36 10.56
10/25/2020 7:30:00 PM 9.78 49.604 0.073 7.36 1.35 10.52
10/25/2020 7:45:00 PM 9.77 49.586 0.073 7.39 1.38 10.51
10/25/2020 8:00:00 PM 9.73 49.514 0.074 7.34 1.38 10.5
10/25/2020 8:15:00 PM 9.7 49.46 0.074 7.38 1.42 10.5
10/25/2020 8:30:00 PM 9.67 49.406 0.074 7.35 1.44 10.51
10/25/2020 8:45:00 PM 9.66 49.388 0.074 7.35 1.39 10.51
10/25/2020 9:00:00 PM 9.63 49.334 0.074 7.37 1.39 10.51
10/25/2020 9:15:00 PM 9.62 49.316 0.074 7.35 1.38 10.5
10/25/2020 9:30:00 PM 9.61 49.298 0.074 7.38 1.36 10.5
10/25/2020 9:45:00 PM 9.6 49.28 0.074 7.35 1.41 10.48
10/25/2020 10:00:00 PM 9.59 49.262 0.074 7.34 1.39 10.46
10/25/2020 10:15:00 PM 9.56 49.208 0.074 7.33 1.32 10.46
10/25/2020 10:30:00 PM 9.52 49.136 0.074 7.32 2.02 10.47
10/25/2020 10:45:00 PM 9.47 49.046 0.074 7.31 1.71 10.47
10/25/2020 11:00:00 PM 9.45 49.01 0.074 7.31 1.46 10.49
10/25/2020 11:15:00 PM 9.42 48.956 0.074 7.35 2.1 10.51
10/25/2020 11:30:00 PM 9.4 48.92 0.074 7.32 1.63 10.51
10/25/2020 11:45:00 PM 9.38 48.884 0.074 7.33 1.67 10.53
10/26/2020 12:00:00 AM 9.36 48.848 0.075 7.32 1.45 10.53
10/26/2020 12:15:00 AM 9.35 48.83 0.075 7.34 1.45 10.52
10/26/2020 12:30:00 AM 9.32 48.776 0.075 7.34 1.61 10.53
10/26/2020 12:45:00 AM 9.3 48.74 0.075 7.34 1.37 10.53
10/26/2020 1:00:00 AM 9.28 48.704 0.075 7.31 1.37 10.53
10/26/2020 1:15:00 AM 9.26 48.668 0.075 7.31 1.39 10.54
10/26/2020 1:30:00 AM 9.23 48.614 0.075 7.35 1.43 10.54
10/26/2020 1:45:00 AM 9.2 48.56 0.075 7.33 1.43 10.54
10/26/2020 2:00:00 AM 9.17 48.506 0.075 7.3 1.41 10.54
10/26/2020 2:15:00 AM 9.15 48.47 0.075 7.31 1.42 10.55
10/26/2020 2:30:00 AM 9.13 48.434 0.075 7.33 1.35 10.56
10/26/2020 2:45:00 AM 9.12 48.416 0.075 7.33 1.42 10.56
10/26/2020 3:00:00 AM 9.1 48.38 0.075 7.31 1.4 10.57
10/26/2020 3:15:00 AM 9.09 48.362 0.075 7.34 1.42 10.58
10/26/2020 3:30:00 AM 9.08 48.344 0.075 7.3 1.39 10.58
10/26/2020 3:45:00 AM 9.06 48.308 0.075 7.3 1.36 10.58
10/26/2020 4:00:00 AM 9.04 48.272 0.075 7.31 1.36 10.58
10/26/2020 4:15:00 AM 9.03 48.254 0.075 7.33 1.43 10.57
10/26/2020 4:30:00 AM 9.02 48.236 0.075 7.29 1.38 10.58
10/26/2020 4:45:00 AM 9.02 48.236 0.075 7.3 1.39 10.59
10/26/2020 5:00:00 AM 9.01 48.218 0.075 7.31 1.4 10.59
10/26/2020 5:15:00 AM 9 48.2 0.075 7.3 1.34 10.58
10/26/2020 5:30:00 AM 8.99 48.182 0.075 7.32 1.36 10.59
10/26/2020 5:45:00 AM 8.99 48.182 0.075 7.33 1.39 10.59
10/26/2020 6:00:00 AM 8.99 48.182 0.075 7.33 1.41 10.6
10/26/2020 6:15:00 AM 8.99 48.182 0.074 7.29 1.46 10.6
10/26/2020 6:30:00 AM 8.99 48.182 0.074 7.31 1.45 10.58
10/26/2020 6:45:00 AM 8.99 48.182 0.074 7.32 1.42 10.6
10/26/2020 7:00:00 AM 8.99 48.182 0.074 7.31 1.36 10.59
10/26/2020 7:15:00 AM 8.99 48.182 0.075 7.28 1.36 10.6
10/26/2020 7:30:00 AM 8.98 48.164 0.075 7.32 1.35 10.6
10/26/2020 7:45:00 AM 8.98 48.164 0.074 7.32 1.39 10.59
10/26/2020 8:00:00 AM 8.98 48.164 0.074 7.33 1.36 10.6
10/26/2020 8:15:00 AM 8.98 48.164 0.074 7.34 1.38 10.63
10/26/2020 8:30:00 AM 8.98 48.164 0.074 7.32 1.38 10.65
10/26/2020 8:45:00 AM 8.99 48.182 0.074 7.35 1.31 10.68
10/26/2020 9:00:00 AM 9.01 48.218 0.074 7.31 1.36 10.71
10/26/2020 9:15:00 AM 9.02 48.236 0.074 7.34 1.36 10.74
10/26/2020 9:30:00 AM 9.04 48.272 0.074 7.31 1.33 10.76
10/26/2020 9:45:00 AM 9.06 48.308 0.074 7.35 1.31 10.81
10/26/2020 10:00:00 AM 9.1 48.38 0.074 7.35 1.31 10.88
10/26/2020 10:15:00 AM 9.16 48.488 0.074 7.38 1.33 10.97
10/26/2020 10:30:00 AM 9.24 48.632 0.074 7.39 1.38 11.04
10/26/2020 10:45:00 AM 9.29 48.722 0.073 7.41 1.38 11.08
10/26/2020 11:00:00 AM 9.33 48.794 0.073 7.42 1.35 11.11
10/26/2020 11:15:00 AM 9.38 48.884 0.073 7.39 1.37 11.11
10/26/2020 11:30:00 AM 9.45 49.01 0.073 7.41 1.3 11.12
10/26/2020 11:45:00 AM 9.53 49.154 0.073 7.41 1.31 11.15
10/26/2020 12:00:00 PM 9.62 49.316 0.073 7.44 1.29 11.16
10/26/2020 12:15:00 PM 9.69 49.442 0.073 7.42 1.31 11.18
10/26/2020 12:30:00 PM 9.73 49.514 0.073 7.46 1.3 11.16
10/26/2020 12:45:00 PM 9.78 49.604 0.073 7.44 1.33 11.15
10/26/2020 1:00:00 PM 9.84 49.712 0.073 7.45 1.37 11.16
10/26/2020 1:15:00 PM 9.87 49.766 0.073 7.47 1.35 11.12
10/26/2020 1:30:00 PM 9.89 49.802 0.073 7.45 1.29 11.06
10/26/2020 1:45:00 PM 9.92 49.856 0.073 7.43 1.32 11.02
10/26/2020 2:00:00 PM 10 50 0.073 7.43 1.31 11.06
10/26/2020 2:15:00 PM 10.09 50.162 0.072 7.44 1.33 11.08
10/26/2020 2:30:00 PM 10.15 50.27 0.072 7.46 1.31 11.09
10/26/2020 2:45:00 PM 10.21 50.378 0.072 7.47 1.29 11.1
10/26/2020 3:00:00 PM 10.25 50.45 0.072 7.48 1.31 11.06
10/26/2020 3:15:00 PM 10.31 50.558 0.072 7.48 1.31 11.04
10/26/2020 3:30:00 PM 10.37 50.666 0.072 7.47 1.29 11.04
10/26/2020 3:45:00 PM 10.42 50.756 0.072 7.49 1.32 10.98
10/26/2020 4:00:00 PM 10.46 50.828 0.072 7.46 1.33 10.96
10/26/2020 4:15:00 PM 10.49 50.882 0.072 7.46 1.31 10.9
10/26/2020 4:30:00 PM 10.52 50.936 0.072 7.43 1.42 10.86
10/26/2020 4:45:00 PM 10.52 50.936 0.072 7.44 1.33 10.77
10/26/2020 5:00:00 PM 10.53 50.954 0.072 7.43 1.34 10.69
10/26/2020 5:15:00 PM 10.55 50.99 0.072 7.43 1.4 10.65
10/26/2020 5:30:00 PM 10.56 51.008 0.072 7.36 1.43 10.61
10/26/2020 5:45:00 PM 10.56 51.008 0.072 7.37 1.37 10.55
10/26/2020 6:00:00 PM 10.56 51.008 0.072 7.37 1.34 10.49
10/26/2020 6:15:00 PM 10.57 51.026 0.072 7.37 1.38 10.44
10/26/2020 6:30:00 PM 10.57 51.026 0.072 7.35 1.38 10.39
10/26/2020 6:45:00 PM 10.58 51.044 0.073 7.35 1.33 10.35
10/26/2020 7:00:00 PM 10.58 51.044 0.073 7.36 1.43 10.33
10/26/2020 7:15:00 PM 10.59 51.062 0.073 7.36 1.47 10.3
10/26/2020 7:30:00 PM 10.6 51.08 0.073 7.33 1.45 10.28
10/26/2020 7:45:00 PM 10.61 51.098 0.073 7.32 1.38 10.26
10/26/2020 8:00:00 PM 10.62 51.116 0.073 7.35 1.41 10.26
10/26/2020 8:15:00 PM 10.62 51.116 0.073 7.31 1.51 10.24
10/26/2020 8:30:00 PM 10.63 51.134 0.073 7.33 1.44 10.23
10/26/2020 8:45:00 PM 10.64 51.152 0.073 7.34 1.49 10.22
10/26/2020 9:00:00 PM 10.64 51.152 0.073 7.29 1.39 10.22
10/26/2020 9:15:00 PM 10.64 51.152 0.073 7.32 1.4 10.21
10/26/2020 9:30:00 PM 10.64 51.152 0.074 7.31 1.4 10.21
10/26/2020 9:45:00 PM 10.63 51.134 0.074 7.32 1.61 10.21
10/26/2020 10:00:00 PM 10.62 51.116 0.074 7.32 1.38 10.21
10/26/2020 10:15:00 PM 10.61 51.098 0.074 7.3 1.4 10.2
10/26/2020 10:30:00 PM 10.59 51.062 0.074 7.3 1.45 10.21
10/26/2020 10:45:00 PM 10.56 51.008 0.074 7.3 1.42 10.22
10/26/2020 11:00:00 PM 10.51 50.918 0.074 7.35 1.44 10.23
10/26/2020 11:15:00 PM 10.47 50.846 0.074 7.34 1.4 10.24
10/26/2020 11:30:00 PM 10.43 50.774 0.074 7.32 1.36 10.25
10/26/2020 11:45:00 PM 10.39 50.702 0.075 7.33 1.4 10.27
10/27/2020 12:00:00 AM 10.35 50.63 0.075 7.32 1.37 10.28
10/27/2020 12:15:00 AM 10.31 50.558 0.075 7.34 1.41 10.29
10/27/2020 12:30:00 AM 10.27 50.486 0.075 7.42 1.39 10.31
10/27/2020 12:45:00 AM 10.24 50.432 0.075 7.33 1.38 10.32
10/27/2020 1:00:00 AM 10.2 50.36 0.075 7.35 1.4 10.33
10/27/2020 1:15:00 AM 10.17 50.306 0.075 7.34 1.41 10.34
10/27/2020 1:30:00 AM 10.13 50.234 0.075 7.34 1.46 10.36
10/27/2020 1:45:00 AM 10.09 50.162 0.075 7.35 1.39 10.36
10/27/2020 2:00:00 AM 10.05 50.09 0.075 7.35 1.54 10.37
10/27/2020 2:15:00 AM 10.01 50.018 0.075 7.35 1.44 10.38
10/27/2020 2:30:00 AM 9.97 49.946 0.075 7.29 1.41 10.38
10/27/2020 2:45:00 AM 9.93 49.874 0.075 7.31 1.42 10.39
10/27/2020 3:00:00 AM 9.9 49.82 0.075 7.31 1.39 10.4
10/27/2020 3:15:00 AM 9.86 49.748 0.075 7.36 1.42 10.43
10/27/2020 3:30:00 AM 9.82 49.676 0.075 7.31 1.41 10.43
10/27/2020 3:45:00 AM 9.79 49.622 0.075 7.34 1.41 10.44
10/27/2020 4:00:00 AM 9.75 49.55 0.075 7.31 1.43 10.45
10/27/2020 4:15:00 AM 9.72 49.496 0.075 7.3 1.37 10.45
10/27/2020 4:30:00 AM 9.69 49.442 0.075 7.32 1.37 10.46
10/27/2020 4:45:00 AM 9.65 49.37 0.075 7.34 1.41 10.46
10/27/2020 5:00:00 AM 9.62 49.316 0.075 7.3 1.43 10.47
10/27/2020 5:15:00 AM 9.59 49.262 0.075 7.31 1.35 10.48
10/27/2020 5:30:00 AM 9.56 49.208 0.075 7.35 1.39 10.5
10/27/2020 5:45:00 AM 9.53 49.154 0.075 7.34 1.36 10.51
10/27/2020 6:00:00 AM 9.5 49.1 0.075 7.35 1.42 10.53
10/27/2020 6:15:00 AM 9.48 49.064 0.075 7.32 1.47 10.52
10/27/2020 6:30:00 AM 9.45 49.01 0.075 7.3 1.39 10.54
10/27/2020 6:45:00 AM 9.43 48.974 0.075 7.3 1.38 10.55
10/27/2020 7:00:00 AM 9.41 48.938 0.075 7.3 1.35 10.55
10/27/2020 7:15:00 AM 9.38 48.884 0.075 7.31 1.43 10.57
10/27/2020 7:30:00 AM 9.36 48.848 0.075 7.3 1.35 10.57
10/27/2020 7:45:00 AM 9.34 48.812 0.075 7.35 1.34 10.59
10/27/2020 8:00:00 AM 9.32 48.776 0.075 7.3 1.35 10.61
10/27/2020 8:15:00 AM 9.3 48.74 0.075 7.31 1.36 10.66
10/27/2020 8:30:00 AM 9.33 48.794 0.074 7.34 1.39 10.79
10/27/2020 8:45:00 AM 9.32 48.776 0.074 7.38 1.38 10.85
10/27/2020 9:00:00 AM 9.36 48.848 0.074 7.34 1.34 10.96
10/27/2020 9:15:00 AM 9.39 48.902 0.074 7.42 1.35 11.05
10/27/2020 9:30:00 AM 9.47 49.046 0.074 7.4 1.32 11.14
10/27/2020 9:45:00 AM 9.5 49.1 0.074 7.43 1.34 11.16
10/27/2020 10:00:00 AM 9.53 49.154 0.073 7.45 1.32 11.19
10/27/2020 10:15:00 AM 9.57 49.226 0.073 7.4 1.34 11.21
10/27/2020 10:30:00 AM 9.61 49.298 0.073 7.45 1.32 11.22
10/27/2020 10:45:00 AM 9.66 49.388 0.073 7.47 1.28 11.25
10/27/2020 11:00:00 AM 9.78 49.604 0.073 7.48 1.28 11.29
10/27/2020 11:15:00 AM 9.89 49.802 0.073 7.44 1.28 11.32
10/27/2020 11:30:00 AM 9.98 49.964 0.073 7.46 1.43 11.31
10/27/2020 11:45:00 AM 10.05 50.09 0.073 7.5 1.32 11.31
10/27/2020 12:00:00 PM 10.14 50.252 0.073 7.5 1.29 11.31
10/27/2020 12:15:00 PM 10.17 50.306 0.073 7.48 1.28 11.29
10/27/2020 12:30:00 PM 10.18 50.324 0.072 7.5 1.34 11.26
10/27/2020 12:45:00 PM 10.18 50.324 0.072 7.53 1.31 11.25
10/27/2020 1:00:00 PM 10.21 50.378 0.072 7.53 1.37 11.25
10/27/2020 1:15:00 PM 10.23 50.414 0.072 7.52 1.31 11.27
10/27/2020 1:30:00 PM 10.23 50.414 0.072 7.5 1.27 11.24
10/27/2020 1:45:00 PM 10.24 50.432 0.072 7.51 1.34 11.23
10/27/2020 2:00:00 PM 10.23 50.414 0.072 7.53 1.23 11.19
10/27/2020 2:15:00 PM 10.24 50.432 0.072 7.51 1.25 11.18
10/27/2020 2:30:00 PM 10.24 50.432 0.072 7.5 1.27 11.16
10/27/2020 2:45:00 PM 10.25 50.45 0.072 7.5 1.35 11.14
10/27/2020 3:00:00 PM 10.25 50.45 0.072 7.5 1.27 11.1
10/27/2020 3:15:00 PM 10.27 50.486 0.072 7.53 1.33 11.1
10/27/2020 3:30:00 PM 10.31 50.558 0.072 7.55 1.31 11.12
10/27/2020 3:45:00 PM 10.34 50.612 0.071 7.51 1.3 11.12
10/27/2020 4:00:00 PM 10.35 50.63 0.071 7.54 1.31 11.06
10/27/2020 4:15:00 PM 10.35 50.63 0.072 7.54 1.34 11.02
10/27/2020 4:30:00 PM 10.37 50.666 0.072 7.5 1.33 10.98
10/27/2020 4:45:00 PM 10.36 50.648 0.072 7.52 1.31 10.93
10/27/2020 5:00:00 PM 10.35 50.63 0.072 7.51 1.34 10.89
10/27/2020 5:15:00 PM 10.33 50.594 0.072 7.46 1.33 10.82
10/27/2020 5:30:00 PM 10.3 50.54 0.072 7.48 1.38 10.75
10/27/2020 5:45:00 PM 10.27 50.486 0.072 7.46 1.29 10.69
10/27/2020 6:00:00 PM 10.24 50.432 0.072 7.43 1.39 10.64
10/27/2020 6:15:00 PM 10.21 50.378 0.072 7.39 1.39 10.6
10/27/2020 6:30:00 PM 10.18 50.324 0.072 7.41 1.36 10.58
10/27/2020 6:45:00 PM 10.13 50.234 0.073 7.42 1.38 10.55
10/27/2020 7:00:00 PM 10.09 50.162 0.073 7.4 1.35 10.53
10/27/2020 7:15:00 PM 10.05 50.09 0.073 7.4 1.39 10.53
10/27/2020 7:30:00 PM 10.02 50.036 0.073 7.39 1.36 10.52
10/27/2020 7:45:00 PM 9.99 49.982 0.073 7.38 1.38 10.51
10/27/2020 8:00:00 PM 9.96 49.928 0.073 7.36 2.6 10.5
10/27/2020 8:15:00 PM 9.93 49.874 0.073 7.38 1.47 10.49
10/27/2020 8:30:00 PM 9.9 49.82 0.073 7.39 1.37 10.5
10/27/2020 8:45:00 PM 9.86 49.748 0.073 7.4 1.4 10.51
10/27/2020 9:00:00 PM 9.83 49.694 0.073 7.4 1.42 10.52
10/27/2020 9:15:00 PM 9.79 49.622 0.073 7.37 1.35 10.51
10/27/2020 9:30:00 PM 9.74 49.532 0.073 7.36 1.4 10.51
10/27/2020 9:45:00 PM 9.71 49.478 0.074 7.4 1.39 10.51
10/27/2020 10:00:00 PM 9.66 49.388 0.074 7.4 1.47 10.52
10/27/2020 10:15:00 PM 9.63 49.334 0.074 7.39 1.44 10.52
10/27/2020 10:30:00 PM 9.59 49.262 0.074 7.36 1.36 10.52
10/27/2020 10:45:00 PM 9.55 49.19 0.074 7.37 1.37 10.53
10/27/2020 11:00:00 PM 9.52 49.136 0.074 7.36 1.37 10.53
10/27/2020 11:15:00 PM 9.49 49.082 0.074 7.38 1.42 10.53
10/27/2020 11:30:00 PM 9.46 49.028 0.074 7.38 1.4 10.54
10/27/2020 11:45:00 PM 9.44 48.992 0.074 7.38 1.36 10.55
10/28/2020 12:00:00 AM 9.41 48.938 0.074 7.35 1.47 10.56
10/28/2020 12:15:00 AM 9.39 48.902 0.074 7.32 1.39 10.56
10/28/2020 12:30:00 AM 9.36 48.848 0.074 7.37 1.39 10.56
10/28/2020 12:45:00 AM 9.34 48.812 0.074 7.38 1.44 10.57
10/28/2020 1:00:00 AM 9.32 48.776 0.074 7.35 1.39 10.57
10/28/2020 1:15:00 AM 9.3 48.74 0.074 7.37 1.38 10.59
10/28/2020 1:30:00 AM 9.28 48.704 0.074 7.37 1.46 10.59
10/28/2020 1:45:00 AM 9.26 48.668 0.074 7.35 1.42 10.59
10/28/2020 2:00:00 AM 9.24 48.632 0.074 7.34 1.4 10.6
10/28/2020 2:15:00 AM 9.22 48.596 0.074 7.33 1.45 10.6
10/28/2020 2:30:00 AM 9.2 48.56 0.074 7.34 1.37 10.61
10/28/2020 2:45:00 AM 9.19 48.542 0.074 7.33 1.37 10.6
10/28/2020 3:00:00 AM 9.17 48.506 0.074 7.36 1.41 10.6
10/28/2020 3:15:00 AM 9.15 48.47 0.074 7.34 1.43 10.61
10/28/2020 3:30:00 AM 9.13 48.434 0.074 7.36 1.47 10.61
10/28/2020 3:45:00 AM 9.11 48.398 0.074 7.36 1.48 10.61
10/28/2020 4:00:00 AM 9.1 48.38 0.074 7.33 1.42 10.62
10/28/2020 4:15:00 AM 9.08 48.344 0.074 7.3 1.43 10.61
10/28/2020 4:30:00 AM 9.07 48.326 0.074 7.36 1.41 10.62
10/28/2020 4:45:00 AM 9.05 48.29 0.073 7.35 1.51 10.63
10/28/2020 5:00:00 AM 9.04 48.272 0.073 7.33 1.43 10.62
10/28/2020 5:15:00 AM 9.03 48.254 0.073 7.31 1.47 10.63
10/28/2020 5:30:00 AM 9.02 48.236 0.073 7.33 1.46 10.63
10/28/2020 5:45:00 AM 9.01 48.218 0.073 7.34 1.39 10.63
10/28/2020 6:00:00 AM 9 48.2 0.073 7.34 1.44 10.63
10/28/2020 6:15:00 AM 8.99 48.182 0.073 7.28 1.43 10.62
10/28/2020 6:30:00 AM 8.99 48.182 0.073 7.35 1.43 10.63
10/28/2020 6:45:00 AM 8.98 48.164 0.073 7.28 1.52 10.63
10/28/2020 7:00:00 AM 8.97 48.146 0.073 7.34 1.5 10.63
10/28/2020 7:15:00 AM 8.96 48.128 0.073 7.34 1.48 10.64
10/28/2020 7:30:00 AM 8.96 48.128 0.073 7.31 1.37 10.64
10/28/2020 7:45:00 AM 8.95 48.11 0.073 7.34 1.4 10.64
10/28/2020 8:00:00 AM 8.95 48.11 0.073 7.33 1.45 10.65
10/28/2020 8:15:00 AM 8.95 48.11 0.073 7.29 1.46 10.66
10/28/2020 8:30:00 AM 8.95 48.11 0.073 7.31 1.53 10.69
10/28/2020 8:45:00 AM 8.95 48.11 0.073 7.35 1.44 10.72
10/28/2020 9:00:00 AM 8.96 48.128 0.073 7.31 1.42 10.76
10/28/2020 9:15:00 AM 8.98 48.164 0.073 7.33 1.44 10.84
10/28/2020 9:30:00 AM 9.02 48.236 0.072 7.37 1.42 10.92
10/28/2020 9:45:00 AM 9.06 48.308 0.072 7.36 1.42 11.02
10/28/2020 10:00:00 AM 9.11 48.398 0.072 7.38 1.43 11.08
10/28/2020 10:15:00 AM 9.15 48.47 0.072 7.42 1.4 11.13
10/28/2020 10:30:00 AM 9.2 48.56 0.072 7.43 1.43 11.16
10/28/2020 10:45:00 AM 9.25 48.65 0.072 7.44 1.45 11.18
10/28/2020 11:00:00 AM 9.29 48.722 0.072 7.38 1.41 11.19
10/28/2020 11:15:00 AM 9.34 48.812 0.072 7.45 1.37 11.22
10/28/2020 11:30:00 AM 9.39 48.902 0.072 7.47 1.41 11.25
10/28/2020 11:45:00 AM 9.48 49.064 0.071 7.45 1.41 11.26
10/28/2020 12:00:00 PM 9.54 49.172 0.071 7.49 1.39 11.28
10/28/2020 12:15:00 PM 9.6 49.28 0.071 7.45 1.36 11.29
10/28/2020 12:30:00 PM 9.65 49.37 0.071 7.46 1.36 11.29
10/28/2020 12:45:00 PM 9.71 49.478 0.071 7.52 1.33 11.29
10/28/2020 1:00:00 PM 9.76 49.568 0.071 7.53 1.38 11.29
10/28/2020 1:15:00 PM 9.81 49.658 0.071 7.53 1.37 11.28
10/28/2020 1:30:00 PM 9.88 49.784 0.071 7.53 1.34 11.3
10/28/2020 1:45:00 PM 9.94 49.892 0.071 7.54 1.36 11.27
10/28/2020 2:00:00 PM 9.99 49.982 0.071 7.54 1.38 11.27
10/28/2020 2:15:00 PM 10.05 50.09 0.071 7.56 1.31 11.27
10/28/2020 2:30:00 PM 10.15 50.27 0.07 7.57 1.35 11.26
10/28/2020 2:45:00 PM 10.38 50.684 0.07 7.56 1.34 11.27
10/28/2020 3:00:00 PM 10.55 50.99 0.07 7.58 1.6 11.22
10/28/2020 3:15:00 PM 10.71 51.278 0.07 7.57 1.34 11.17
10/28/2020 3:30:00 PM 10.91 51.638 0.07 7.57 1.33 11.15
10/28/2020 3:45:00 PM 11.06 51.908 0.07 7.56 1.34 11.1
10/28/2020 4:00:00 PM 11.08 51.944 0.07 7.56 1.34 11.05
10/28/2020 4:15:00 PM 10.97 51.746 0.07 7.58 1.31 10.98
10/28/2020 4:30:00 PM 10.89 51.602 0.07 7.52 1.37 10.95
10/28/2020 4:45:00 PM 10.86 51.548 0.07 7.56 1.39 10.96
10/28/2020 5:00:00 PM 10.77 51.386 0.07 7.53 1.35 10.97
10/28/2020 5:15:00 PM 10.67 51.206 0.07 7.56 1.41 10.95
10/28/2020 5:30:00 PM 10.58 51.044 0.07 7.52 1.37 10.92
10/28/2020 5:45:00 PM 10.49 50.882 0.071 7.52 1.4 10.85
10/28/2020 6:00:00 PM 10.41 50.738 0.071 7.51 1.38 10.77
10/28/2020 6:15:00 PM 10.33 50.594 0.071 7.49 1.4 10.7
10/28/2020 6:30:00 PM 10.26 50.468 0.071 7.49 1.39 10.64
10/28/2020 6:45:00 PM 10.22 50.396 0.071 7.44 1.43 10.59
10/28/2020 7:00:00 PM 10.18 50.324 0.071 7.4 1.43 10.55
10/28/2020 7:15:00 PM 10.14 50.252 0.072 7.44 1.47 10.52
10/28/2020 7:30:00 PM 10.1 50.18 0.072 7.43 1.46 10.49
10/28/2020 7:45:00 PM 10.05 50.09 0.072 7.43 1.46 10.49
10/28/2020 8:00:00 PM 10 50 0.072 7.43 1.45 10.48
10/28/2020 8:15:00 PM 9.95 49.91 0.072 7.34 1.44 10.48
10/28/2020 8:30:00 PM 9.88 49.784 0.072 7.36 1.46 10.48
10/28/2020 8:45:00 PM 9.82 49.676 0.072 7.37 1.46 10.49
10/28/2020 9:00:00 PM 9.75 49.55 0.072 7.41 1.45 10.5
10/28/2020 9:15:00 PM 9.69 49.442 0.072 7.4 1.45 10.5
10/28/2020 9:30:00 PM 9.61 49.298 0.072 7.35 1.45 10.53
10/28/2020 9:45:00 PM 9.53 49.154 0.072 7.41 1.48 10.54
10/28/2020 10:00:00 PM 9.43 48.974 0.073 7.4 1.44 10.57
10/28/2020 10:15:00 PM 9.34 48.812 0.073 7.4 1.43 10.59
10/28/2020 10:30:00 PM 9.25 48.65 0.073 7.39 1.56 10.63
10/28/2020 10:45:00 PM 9.17 48.506 0.073 7.39 1.51 10.64
10/28/2020 11:00:00 PM 9.09 48.362 0.073 7.39 1.49 10.65
10/28/2020 11:15:00 PM 9.02 48.236 0.073 7.37 1.45 10.67
10/28/2020 11:30:00 PM 8.95 48.11 0.073 7.39 1.45 10.69
10/28/2020 11:45:00 PM 8.89 48.002 0.073 7.38 1.43 10.7
10/29/2020 12:00:00 AM 8.83 47.894 0.073 7.38 1.49 10.72
10/29/2020 12:15:00 AM 8.76 47.768 0.073 7.37 1.41 10.74
10/29/2020 12:30:00 AM 8.7 47.66 0.073 7.34 1.42 10.77
10/29/2020 12:45:00 AM 8.65 47.57 0.073 7.33 1.5 10.77
10/29/2020 1:00:00 AM 8.6 47.48 0.073 7.32 1.45 10.78
10/29/2020 1:15:00 AM 8.54 47.372 0.073 7.33 1.42 10.8
10/29/2020 1:30:00 AM 8.49 47.282 0.073 7.37 1.41 10.82
10/29/2020 1:45:00 AM 8.44 47.192 0.073 7.33 1.51 10.82
10/29/2020 2:00:00 AM 8.4 47.12 0.073 7.36 1.45 10.83
10/29/2020 2:15:00 AM 8.35 47.03 0.073 7.31 1.44 10.85
10/29/2020 2:30:00 AM 8.31 46.958 0.073 7.33 1.46 10.87
10/29/2020 2:45:00 AM 8.28 46.904 0.073 7.38 1.47 10.9
10/29/2020 3:00:00 AM 8.25 46.85 0.073 7.32 1.44 10.91
10/29/2020 3:15:00 AM 8.22 46.796 0.073 7.36 1.56 10.92
10/29/2020 3:30:00 AM 8.2 46.76 0.073 7.38 1.45 10.92
10/29/2020 3:45:00 AM 8.18 46.724 0.073 7.32 1.44 10.94
10/29/2020 4:00:00 AM 8.15 46.67 0.073 7.34 1.39 10.93
10/29/2020 4:15:00 AM 8.14 46.652 0.073 7.34 1.41 10.93
10/29/2020 4:30:00 AM 8.12 46.616 0.073 7.37 1.41 10.96
10/29/2020 4:45:00 AM 8.11 46.598 0.073 7.34 1.39 10.94
10/29/2020 5:00:00 AM 8.1 46.58 0.073 7.38 1.43 10.95
10/29/2020 5:15:00 AM 8.09 46.562 0.073 7.33 1.42 10.95
10/29/2020 5:30:00 AM 8.07 46.526 0.073 7.32 1.38 10.96
10/29/2020 5:45:00 AM 8.06 46.508 0.073 7.34 1.43 10.96
10/29/2020 6:00:00 AM 8.05 46.49 0.073 7.34 1.46 10.96
10/29/2020 6:15:00 AM 8.03 46.454 0.073 7.33 1.42 10.96
10/29/2020 6:30:00 AM 8.01 46.418 0.073 7.35 1.42 10.98
10/29/2020 6:45:00 AM 8 46.4 0.073 7.33 1.41 10.98
10/29/2020 7:00:00 AM 8 46.4 0.073 7.37 1.42 10.98
10/29/2020 7:15:00 AM 7.99 46.382 0.072 7.35 1.46 10.99
10/29/2020 7:30:00 AM 7.98 46.364 0.072 7.37 1.47 11
10/29/2020 7:45:00 AM 7.98 46.364 0.072 7.37 1.42 10.99
10/29/2020 8:00:00 AM 7.97 46.346 0.072 7.37 1.42 11.01
10/29/2020 8:15:00 AM 7.97 46.346 0.072 7.33 1.4 11.02
10/29/2020 8:30:00 AM 7.97 46.346 0.072 7.34 1.44 11.03
10/29/2020 8:45:00 AM 7.97 46.346 0.071 7.35 1.43 11.04
10/29/2020 9:00:00 AM 7.96 46.328 0.071 7.36 1.4 11.08
10/29/2020 9:15:00 AM 7.95 46.31 0.07 7.35 1.49 11.1
10/29/2020 9:30:00 AM 7.94 46.292 0.07 7.39 1.54 11.13
10/29/2020 9:45:00 AM 7.93 46.274 0.07 7.36 1.65 11.16
10/29/2020 10:00:00 AM 7.93 46.274 0.069 7.34 1.53 11.17
10/29/2020 10:15:00 AM 7.92 46.256 0.069 7.35 1.56 11.2
10/29/2020 10:30:00 AM 7.93 46.274 0.069 7.38 1.67 11.24
10/29/2020 10:45:00 AM 7.94 46.292 0.068 7.37 1.69 11.24
10/29/2020 11:00:00 AM 7.96 46.328 0.068 7.4 1.78 11.25
10/29/2020 11:15:00 AM 7.97 46.346 0.067 7.38 1.84 11.26
10/29/2020 11:30:00 AM 7.97 46.346 0.067 7.4 2.11 11.32
10/29/2020 11:45:00 AM 7.99 46.382 0.067 7.37 2.21 11.31
10/29/2020 12:00:00 PM 8 46.4 0.066 7.36 2.64 11.31
10/29/2020 12:15:00 PM 8.02 46.436 0.066 7.39 2.65 11.35
10/29/2020 12:30:00 PM 8.05 46.49 0.066 7.41 2.96 11.38
10/29/2020 12:45:00 PM 8.1 46.58 0.065 7.36 3.29 11.41
10/29/2020 1:00:00 PM 8.13 46.634 0.065 7.39 3.46 11.4
10/29/2020 1:15:00 PM 8.16 46.688 0.065 7.42 4.06 11.39
10/29/2020 1:30:00 PM 8.18 46.724 0.065 7.36 4.21 11.37
10/29/2020 1:45:00 PM 8.19 46.742 0.064 7.42 5.54 11.4
10/29/2020 2:00:00 PM 8.23 46.814 0.064 7.44 5.68 11.4
10/29/2020 2:15:00 PM 8.28 46.904 0.064 7.43 6.5 11.38
10/29/2020 2:30:00 PM 8.3 46.94 0.063 7.4 6.74 11.31
10/29/2020 2:45:00 PM 8.32 46.976 0.063 7.38 6.54 11.24
10/29/2020 3:00:00 PM 8.31 46.958 0.063 7.35 9.29 11.22
10/29/2020 3:15:00 PM 8.32 46.976 0.062 7.39 8.32 11.21
10/29/2020 3:30:00 PM 8.32 46.976 0.062 7.36 11.87 11.18
10/29/2020 3:45:00 PM 8.31 46.958 0.062 7.36 11.46 11.18
10/29/2020 4:00:00 PM 8.31 46.958 0.062 7.36 14.42 11.16
10/29/2020 4:15:00 PM 8.29 46.922 0.061 7.36 14.53 11.18
10/29/2020 4:30:00 PM 8.27 46.886 0.061 7.34 16.14 11.16
10/29/2020 4:45:00 PM 8.28 46.904 0.061 7.3 16.42 11.18
10/29/2020 5:00:00 PM 8.29 46.922 0.061 7.31 21.45 11.17
10/29/2020 5:15:00 PM 8.3 46.94 0.061 7.28 22.35 11.18
10/29/2020 5:30:00 PM 8.3 46.94 0.062 7.23 23.59 11.15
10/29/2020 5:45:00 PM 8.3 46.94 0.062 7.32 21.93 11.14
10/29/2020 6:00:00 PM 8.3 46.94 0.062 7.28 22.7 11.13
10/29/2020 6:15:00 PM 8.3 46.94 0.062 7.28 23.53 11.11
10/29/2020 6:30:00 PM 8.29 46.922 0.062 7.21 22.57 11.1
10/29/2020 6:45:00 PM 8.28 46.904 0.062 7.23 19.61 11.1
10/29/2020 7:00:00 PM 8.26 46.868 0.062 7.28 18.75 11.12
10/29/2020 7:15:00 PM 8.24 46.832 0.063 7.19 20.22 11.12
10/29/2020 7:30:00 PM 8.22 46.796 0.063 7.22 23.12 11.12
10/29/2020 7:45:00 PM 8.21 46.778 0.063 7.27 19.95 11.12
10/29/2020 8:00:00 PM 8.2 46.76 0.063 7.27 19.79 11.13
10/29/2020 8:15:00 PM 8.19 46.742 0.063 7.26 20.59 11.13
10/29/2020 8:30:00 PM 8.18 46.724 0.063 7.24 18.1 11.14
10/29/2020 8:45:00 PM 8.17 46.706 0.064 7.3 16.55 11.14
10/29/2020 9:00:00 PM 8.16 46.688 0.064 7.23 13.12 11.15
10/29/2020 9:15:00 PM 8.15 46.67 0.064 7.26 15.4 11.15
10/29/2020 9:30:00 PM 8.15 46.67 0.064 7.29 14.06 11.15
10/29/2020 9:45:00 PM 8.15 46.67 0.064 7.27 14.14 11.16
10/29/2020 10:00:00 PM 8.14 46.652 0.064 7.28 12.23 11.15
10/29/2020 10:15:00 PM 8.14 46.652 0.064 7.3 12.02 11.16
10/29/2020 10:30:00 PM 8.13 46.634 0.065 7.28 11.85 11.17
10/29/2020 10:45:00 PM 8.11 46.598 0.065 7.3 11.32 11.16
10/29/2020 11:00:00 PM 8.1 46.58 0.065 7.31 11.14 11.17
10/29/2020 11:15:00 PM 8.08 46.544 0.065 7.28 10.59 11.18
10/29/2020 11:30:00 PM 8.07 46.526 0.066 7.31 10.39 11.18
10/29/2020 11:45:00 PM 8.06 46.508 0.066 7.32 10.63 11.18
10/30/2020 12:00:00 AM 8.04 46.472 0.066 7.31 10.4 11.19
10/30/2020 12:15:00 AM 8.03 46.454 0.066 7.33 9.61 11.2
10/30/2020 12:30:00 AM 8.02 46.436 0.067 7.33 9.41 11.2
10/30/2020 12:45:00 AM 8.01 46.418 0.067 7.32 9.19 11.2
10/30/2020 1:00:00 AM 7.99 46.382 0.067 7.24 9.58 11.2
10/30/2020 1:15:00 AM 7.98 46.364 0.067 7.32 8.71 11.21
10/30/2020 1:30:00 AM 7.97 46.346 0.067 7.31 8.7 11.21
10/30/2020 1:45:00 AM 7.96 46.328 0.067 7.32 8.35 11.22
10/30/2020 2:00:00 AM 7.94 46.292 0.067 7.3 9.32 11.22
10/30/2020 2:15:00 AM 7.92 46.256 0.067 7.29 10.71 11.23
10/30/2020 2:30:00 AM 7.91 46.238 0.068 7.3 8.53 11.23
10/30/2020 2:45:00 AM 7.9 46.22 0.068 7.29 10.16 11.23
10/30/2020 3:00:00 AM 7.9 46.22 0.068 7.29 7.7 11.23
10/30/2020 3:15:00 AM 7.9 46.22 0.068 7.22 11.16 11.23
10/30/2020 3:30:00 AM 7.89 46.202 0.068 7.23 28.64 11.24
10/30/2020 3:45:00 AM 7.88 46.184 0.068 7.28 11.35 11.25
10/30/2020 4:00:00 AM 7.86 46.148 0.068 7.3 69.65 11.25
10/30/2020 4:15:00 AM 7.82 46.076 0.068 7.32 6.54 11.26
10/30/2020 4:30:00 AM 7.78 46.004 0.068 7.3 6.6 11.27
10/30/2020 4:45:00 AM 7.73 45.914 0.068 7.26 6.17 11.28
10/30/2020 5:00:00 AM 7.7 45.86 0.068 7.29 6.07 11.3
10/30/2020 5:15:00 AM 7.69 45.842 0.068 7.28 6.36 11.3
10/30/2020 5:30:00 AM 7.66 45.788 0.068 7.27 6.15 11.31
10/30/2020 5:45:00 AM 7.65 45.77 0.068 7.25 6.11 11.32
10/30/2020 6:00:00 AM 7.63 45.734 0.068 7.29 5.8 11.33
10/30/2020 6:15:00 AM 7.62 45.716 0.068 7.22 5.93 11.34
10/30/2020 6:30:00 AM 7.61 45.698 0.068 7.29 5.85 11.35
10/30/2020 6:45:00 AM 7.6 45.68 0.068 7.24 5.86 11.36
10/30/2020 7:00:00 AM 7.59 45.662 0.068 7.22 5.65 11.36
10/30/2020 7:15:00 AM 7.58 45.644 0.068 7.29 5.63 11.37
10/30/2020 7:30:00 AM 7.57 45.626 0.068 7.27 6.29 11.37
10/30/2020 7:45:00 AM 7.56 45.608 0.068 7.27 5.54 11.37
10/30/2020 8:00:00 AM 7.56 45.608 0.068 7.27 5.54 11.38
10/30/2020 8:15:00 AM 7.56 45.608 0.068 7.26 5.8 11.39
10/30/2020 8:30:00 AM 7.56 45.608 0.068 7.26 5.74 11.4
10/30/2020 8:45:00 AM 7.56 45.608 0.068 7.27 5.52 11.41
10/30/2020 9:00:00 AM 7.56 45.608 0.068 7.28 5.35 11.43
10/30/2020 9:15:00 AM 7.56 45.608 0.068 7.27 5.15 11.44
10/30/2020 9:30:00 AM 7.55 45.59 0.068 7.22 5.07 11.45
10/30/2020 9:45:00 AM 7.55 45.59 0.069 7.25 4.82 11.47
10/30/2020 10:00:00 AM 7.54 45.572 0.069 7.24 4.74 11.48
10/30/2020 10:15:00 AM 7.54 45.572 0.069 7.24 4.49 11.5
10/30/2020 10:30:00 AM 7.53 45.554 0.068 7.31 4.46 11.51
10/30/2020 10:45:00 AM 7.54 45.572 0.068 7.29 4.4 11.53
10/30/2020 11:00:00 AM 7.54 45.572 0.068 7.3 7.45 11.55
10/30/2020 11:15:00 AM 7.56 45.608 0.068 7.34 4.27 11.57
10/30/2020 11:30:00 AM 7.6 45.68 0.068 7.28 4.09 11.59
10/30/2020 11:45:00 AM 7.6 45.68 0.068 7.35 4.17 11.59
10/30/2020 12:00:00 PM 7.6 45.68 0.068 7.28 4.25 11.6
10/30/2020 12:15:00 PM 7.62 45.716 0.068 7.33 3.97 11.61
10/30/2020 12:30:00 PM 7.63 45.734 0.068 7.35 3.89 11.62
10/30/2020 12:45:00 PM 7.64 45.752 0.068 7.28 3.84 11.63
10/30/2020 1:00:00 PM 7.64 45.752 0.068 7.36 3.78 11.64
10/30/2020 1:15:00 PM 7.65 45.77 0.068 7.29 3.7 11.64
10/30/2020 1:30:00 PM 7.65 45.77 0.068 7.31 3.78 11.63
10/30/2020 1:45:00 PM 7.67 45.806 0.068 7.35 3.77 11.64
10/30/2020 2:00:00 PM 7.68 45.824 0.068 7.32 3.49 11.65
10/30/2020 2:15:00 PM 7.69 45.842 0.068 7.31 3.53 11.64
10/30/2020 2:30:00 PM 7.69 45.842 0.068 7.37 3.53 11.64
10/30/2020 2:45:00 PM 7.72 45.896 0.068 7.3 3.48 11.64
10/30/2020 3:00:00 PM 7.74 45.932 0.068 7.35 3.53 11.63
10/30/2020 3:15:00 PM 7.74 45.932 0.068 7.35 3.43 11.65
10/30/2020 3:30:00 PM 7.76 45.968 0.068 7.35 3.37 11.65
10/30/2020 3:45:00 PM 7.78 46.004 0.068 7.32 3.38 11.64
10/30/2020 4:00:00 PM 7.79 46.022 0.068 7.35 3.57 11.64
10/30/2020 4:15:00 PM 7.82 46.076 0.068 7.38 3.32 11.64
10/30/2020 4:30:00 PM 7.83 46.094 0.068 7.37 3.24 11.64
10/30/2020 4:45:00 PM 7.82 46.076 0.068 7.36 3.23 11.62
10/30/2020 5:00:00 PM 7.82 46.076 0.068 7.38 3.1 11.6
10/30/2020 5:15:00 PM 7.81 46.058 0.069 7.37 3.24 11.59
10/30/2020 5:30:00 PM 7.78 46.004 0.069 7.37 3.19 11.57
10/30/2020 5:45:00 PM 7.75 45.95 0.069 7.36 3.24 11.55
10/30/2020 6:00:00 PM 7.74 45.932 0.069 7.36 3.19 11.53
10/30/2020 6:15:00 PM 7.71 45.878 0.069 7.35 3.11 11.51
10/30/2020 6:30:00 PM 7.68 45.824 0.069 7.34 3.19 11.5
10/30/2020 6:45:00 PM 7.65 45.77 0.069 7.33 3.2 11.49
10/30/2020 7:00:00 PM 7.63 45.734 0.069 7.33 3.03 11.48
10/30/2020 7:15:00 PM 7.6 45.68 0.069 7.32 3.17 11.49
10/30/2020 7:30:00 PM 7.57 45.626 0.069 7.26 3.16 11.49
10/30/2020 7:45:00 PM 7.54 45.572 0.069 7.28 3.02 11.49
10/30/2020 8:00:00 PM 7.52 45.536 0.069 7.32 3.03 11.48
10/30/2020 8:15:00 PM 7.5 45.5 0.069 7.3 3.14 11.51
10/30/2020 8:30:00 PM 7.47 45.446 0.069 7.27 3.16 11.5
10/30/2020 8:45:00 PM 7.44 45.392 0.069 7.29 2.99 11.52
10/30/2020 9:00:00 PM 7.39 45.302 0.069 7.28 2.94 11.53
10/30/2020 9:15:00 PM 7.33 45.194 0.069 7.32 2.98 11.54
10/30/2020 9:30:00 PM 7.29 45.122 0.069 7.24 2.93 11.55
10/30/2020 9:45:00 PM 7.26 45.068 0.069 7.29 2.92 11.56
10/30/2020 10:00:00 PM 7.24 45.032 0.069 7.32 2.96 11.56
10/30/2020 10:15:00 PM 7.22 44.996 0.069 7.31 2.96 11.58
10/30/2020 10:30:00 PM 7.2 44.96 0.069 7.31 2.91 11.58
10/30/2020 10:45:00 PM 7.17 44.906 0.069 7.27 2.85 11.59
10/30/2020 11:00:00 PM 7.16 44.888 0.069 7.31 3.04 11.59
10/30/2020 11:15:00 PM 7.14 44.852 0.069 7.31 2.83 11.6
10/30/2020 11:30:00 PM 7.12 44.816 0.069 7.3 3.04 11.6
10/30/2020 11:45:00 PM 7.1 44.78 0.069 7.31 2.82 11.62
10/31/2020 12:00:00 AM 7.08 44.744 0.069 7.31 2.83 11.62
10/31/2020 12:15:00 AM 7.06 44.708 0.069 7.29 2.73 11.64
10/31/2020 12:30:00 AM 7.05 44.69 0.069 7.3 2.69 11.64
10/31/2020 12:45:00 AM 7.03 44.654 0.069 7.29 2.65 11.65
10/31/2020 1:00:00 AM 7 44.6 0.069 7.24 2.55 11.66
10/31/2020 1:15:00 AM 6.99 44.582 0.069 7.31 2.75 11.66
10/31/2020 1:30:00 AM 6.96 44.528 0.069 7.3 2.7 11.68
10/31/2020 1:45:00 AM 6.94 44.492 0.069 7.3 2.72 11.68
10/31/2020 2:00:00 AM 6.92 44.456 0.069 7.31 2.66 11.68
10/31/2020 2:15:00 AM 6.9 44.42 0.069 7.28 2.58 11.7
10/31/2020 2:30:00 AM 6.88 44.384 0.069 7.3 2.61 11.71
10/31/2020 2:45:00 AM 6.86 44.348 0.069 7.3 2.52 11.71
10/31/2020 3:00:00 AM 6.84 44.312 0.069 7.31 2.7 11.72
10/31/2020 3:15:00 AM 6.81 44.258 0.069 7.27 2.61 11.72
10/31/2020 3:30:00 AM 6.78 44.204 0.069 7.27 2.54 11.73
10/31/2020 3:45:00 AM 6.75 44.15 0.07 7.27 2.9 11.76
10/31/2020 4:00:00 AM 6.73 44.114 0.069 7.31 2.66 11.76
10/31/2020 4:15:00 AM 6.69 44.042 0.07 7.25 2.58 11.78
10/31/2020 4:30:00 AM 6.67 44.006 0.07 7.28 2.47 11.78
10/31/2020 4:45:00 AM 6.64 43.952 0.07 7.28 2.47 11.79
10/31/2020 5:00:00 AM 6.62 43.916 0.07 7.32 2.53 11.8
10/31/2020 5:15:00 AM 6.59 43.862 0.07 7.29 2.45 11.8
10/31/2020 5:30:00 AM 6.57 43.826 0.07 7.3 2.4 11.81
10/31/2020 5:45:00 AM 6.54 43.772 0.07 7.27 2.48 11.82
10/31/2020 6:00:00 AM 6.51 43.718 0.07 7.26 2.48 11.83
10/31/2020 6:15:00 AM 6.48 43.664 0.07 7.3 2.44 11.83
10/31/2020 6:30:00 AM 6.44 43.592 0.07 7.25 2.3 11.85
10/31/2020 6:45:00 AM 6.39 43.502 0.07 7.27 2.38 11.87
10/31/2020 7:00:00 AM 6.35 43.43 0.07 7.32 2.4 11.87
10/31/2020 7:15:00 AM 6.31 43.358 0.07 7.3 2.39 11.9
10/31/2020 7:30:00 AM 6.27 43.286 0.07 7.31 2.38 11.91
10/31/2020 7:45:00 AM 6.23 43.214 0.07 7.26 2.29 11.94
10/31/2020 8:00:00 AM 6.19 43.142 0.07 7.27 2.35 11.96
10/31/2020 8:15:00 AM 6.16 43.088 0.07 7.33 2.36 12
10/31/2020 8:30:00 AM 6.12 43.016 0.07 7.31 2.24 12.05
10/31/2020 8:45:00 AM 6.11 42.998 0.07 7.33 2.22 12.09
10/31/2020 9:00:00 AM 6.12 43.016 0.07 7.34 2.23 12.12
10/31/2020 9:15:00 AM 6.13 43.034 0.07 7.3 2.26 12.16
10/31/2020 9:30:00 AM 6.15 43.07 0.069 7.36 2.11 12.2
10/31/2020 9:45:00 AM 6.17 43.106 0.069 7.32 2.17 12.22
10/31/2020 10:00:00 AM 6.19 43.142 0.069 7.32 2.07 12.24
10/31/2020 10:15:00 AM 6.24 43.232 0.069 7.34 2.07 12.26
10/31/2020 10:30:00 AM 6.31 43.358 0.069 7.37 2.05 12.26
10/31/2020 10:45:00 AM 6.36 43.448 0.069 7.36 2.07 12.25
10/31/2020 11:00:00 AM 6.4 43.52 0.069 7.37 2.01 12.25
10/31/2020 11:15:00 AM 6.45 43.61 0.069 7.39 2.03 12.26
10/31/2020 11:30:00 AM 6.51 43.718 0.069 7.39 2 12.25
10/31/2020 11:45:00 AM 6.61 43.898 0.069 7.34 1.95 12.22
10/31/2020 12:00:00 PM 6.71 44.078 0.069 7.37 1.98 12.21
10/31/2020 12:15:00 PM 6.77 44.186 0.069 7.39 1.94 12.18
10/31/2020 12:30:00 PM 6.8 44.24 0.069 7.34 1.97 12.18
10/31/2020 12:45:00 PM 6.82 44.276 0.069 7.39 1.92 12.15
10/31/2020 1:00:00 PM 6.87 44.366 0.069 7.37 1.9 12.13
10/31/2020 1:15:00 PM 6.99 44.582 0.069 7.41 1.98 12.13
10/31/2020 1:30:00 PM 7.14 44.852 0.069 7.39 1.91 12.07
10/31/2020 1:45:00 PM 7.25 45.05 0.069 7.38 1.89 12.05
10/31/2020 2:00:00 PM 7.33 45.194 0.069 7.4 1.88 12.03
10/31/2020 2:15:00 PM 7.4 45.32 0.069 7.39 1.89 11.97
10/31/2020 2:30:00 PM 7.47 45.446 0.069 7.4 1.81 11.94
10/31/2020 2:45:00 PM 7.55 45.59 0.069 7.41 1.84 11.91
10/31/2020 3:00:00 PM 7.6 45.68 0.069 7.35 1.88 11.91
10/31/2020 3:15:00 PM 7.7 45.86 0.069 7.38 1.77 11.89
10/31/2020 3:30:00 PM 7.75 45.95 0.069 7.38 1.85 11.87
10/31/2020 3:45:00 PM 7.78 46.004 0.069 7.39 1.84 11.87
10/31/2020 4:00:00 PM 7.78 46.004 0.069 7.38 1.82 11.84
10/31/2020 4:15:00 PM 7.75 45.95 0.069 7.41 1.86 11.84
10/31/2020 4:30:00 PM 7.74 45.932 0.069 7.42 1.88 11.83
10/31/2020 4:45:00 PM 7.69 45.842 0.069 7.41 1.81 11.81
10/31/2020 5:00:00 PM 7.65 45.77 0.069 7.4 1.87 11.79
10/31/2020 5:15:00 PM 7.62 45.716 0.069 7.41 1.87 11.78
10/31/2020 5:30:00 PM 7.58 45.644 0.069 7.37 1.84 11.76
10/31/2020 5:45:00 PM 7.53 45.554 0.069 7.38 1.84 11.74
10/31/2020 6:00:00 PM 7.48 45.464 0.069 7.39 1.85 11.71
10/31/2020 6:15:00 PM 7.41 45.338 0.069 7.37 1.91 11.68
10/31/2020 6:30:00 PM 7.33 45.194 0.069 7.34 1.81 11.66
10/31/2020 6:45:00 PM 7.25 45.05 0.069 7.34 1.93 11.67
10/31/2020 7:00:00 PM 7.15 44.87 0.069 7.31 1.95 11.66
10/31/2020 7:15:00 PM 7.06 44.708 0.069 7.35 1.94 11.67
10/31/2020 7:30:00 PM 6.97 44.546 0.069 7.34 1.85 11.68
10/31/2020 7:45:00 PM 6.87 44.366 0.069 7.34 1.92 11.7
10/31/2020 8:00:00 PM 6.77 44.186 0.07 7.32 1.96 11.72
10/31/2020 8:15:00 PM 6.67 44.006 0.07 7.33 1.94 11.74
10/31/2020 8:30:00 PM 6.57 43.826 0.07 7.3 1.95 11.77
10/31/2020 8:45:00 PM 6.49 43.682 0.07 7.32 1.88 11.78
10/31/2020 9:00:00 PM 6.41 43.538 0.07 7.32 1.89 11.8
10/31/2020 9:15:00 PM 6.33 43.394 0.07 7.31 1.77 11.82
10/31/2020 9:30:00 PM 6.28 43.304 0.07 7.32 1.84 11.84
10/31/2020 9:45:00 PM 6.22 43.196 0.07 7.31 1.77 11.87
10/31/2020 10:00:00 PM 6.15 43.07 0.07 7.33 1.85 11.88
10/31/2020 10:15:00 PM 6.08 42.944 0.07 7.29 1.82 11.9
10/31/2020 10:30:00 PM 6.02 42.836 0.07 7.3 1.88 11.93
10/31/2020 10:45:00 PM 5.96 42.728 0.07 7.32 1.85 11.94
10/31/2020 11:00:00 PM 5.9 42.62 0.07 7.31 1.77 11.96
10/31/2020 11:15:00 PM 5.84 42.512 0.07 7.27 1.8 11.97
10/31/2020 11:30:00 PM 5.78 42.404 0.07 7.26 1.78 11.98
10/31/2020 11:45:00 PM 5.72 42.296 0.07 7.31 1.72 12
11/1/2020 12:00:00 AM 5.67 42.206 0.07 7.3 1.79 12.02
11/1/2020 12:15:00 AM 5.61 42.098 0.07 7.29 1.73 12.04
11/1/2020 12:30:00 AM 5.56 42.008 0.07 7.28 1.79 12.06
11/1/2020 12:45:00 AM 5.51 41.918 0.07 7.26 1.78 12.07
11/1/2020 1:00:00 AM 5.47 41.846 0.07 7.29 1.74 12.08
11/1/2020 1:15:00 AM 5.42 41.756 0.07 7.31 1.77 12.09
11/1/2020 1:30:00 AM 5.39 41.702 0.07 7.26 1.71 12.1
11/1/2020 1:45:00 AM 5.38 41.684 0.07 7.31 1.75 12.11
11/1/2020 2:00:00 AM 5.38 41.684 0.07 7.25 1.74 12.12
11/1/2020 2:15:00 AM 5.36 41.648 0.07 7.31 1.7 12.13
11/1/2020 2:30:00 AM 5.37 41.666 0.07 7.31 1.77 12.12
11/1/2020 2:45:00 AM 5.38 41.684 0.07 7.3 1.76 12.12
11/1/2020 3:00:00 AM 5.38 41.684 0.07 7.3 1.68 12.13
11/1/2020 3:15:00 AM 5.4 41.72 0.07 7.28 1.73 12.12
11/1/2020 3:30:00 AM 5.42 41.756 0.07 7.31 1.65 12.12
11/1/2020 3:45:00 AM 5.45 41.81 0.07 7.28 1.67 12.11
11/1/2020 4:00:00 AM 5.47 41.846 0.07 7.3 1.68 12.1
11/1/2020 4:15:00 AM 5.55 41.99 0.07 7.33 1.79 12.05
11/1/2020 4:30:00 AM 5.56 42.008 0.07 7.27 1.76 12.04
11/1/2020 4:45:00 AM 5.57 42.026 0.07 7.32 1.65 12.03
11/1/2020 5:00:00 AM 5.58 42.044 0.07 7.27 1.68 12.04
11/1/2020 5:15:00 AM 5.58 42.044 0.07 7.29 1.7 12.03
11/1/2020 5:30:00 AM 5.59 42.062 0.07 7.29 1.67 12.03
11/1/2020 5:45:00 AM 5.59 42.062 0.07 7.31 1.62 12.03
11/1/2020 6:00:00 AM 5.6 42.08 0.07 7.33 1.69 12.03
11/1/2020 6:15:00 AM 5.62 42.116 0.07 7.28 1.7 12.01
11/1/2020 6:30:00 AM 5.63 42.134 0.07 7.29 1.7 12
11/1/2020 6:45:00 AM 5.65 42.17 0.07 7.32 1.67 12
11/1/2020 7:00:00 AM 5.67 42.206 0.07 7.28 1.57 11.99
11/1/2020 7:15:00 AM 5.68 42.224 0.07 7.3 1.64 12.01
11/1/2020 7:30:00 AM 5.7 42.26 0.07 7.35 1.59 12.03
11/1/2020 7:45:00 AM 5.73 42.314 0.07 7.33 1.58 12.04
11/1/2020 8:00:00 AM 5.77 42.386 0.07 7.36 1.51 12.06
11/1/2020 8:15:00 AM 5.81 42.458 0.07 7.36 1.57 12.06
11/1/2020 8:30:00 AM 5.84 42.512 0.07 7.3 1.61 12.08
11/1/2020 8:45:00 AM 5.89 42.602 0.07 7.36 1.7 12.11
11/1/2020 9:00:00 AM 5.94 42.692 0.07 7.36 1.54 12.12
11/1/2020 9:15:00 AM 5.98 42.764 0.07 7.39 1.55 12.11
11/1/2020 9:30:00 AM 6.03 42.854 0.07 7.35 1.55 12.11
11/1/2020 9:45:00 AM 6.12 43.016 0.07 7.35 1.53 12.12
11/1/2020 10:00:00 AM 6.17 43.106 0.07 7.32 1.64 12.11
11/1/2020 10:15:00 AM 6.22 43.196 0.07 7.41 1.61 12.11
11/1/2020 10:30:00 AM 6.29 43.322 0.069 7.34 1.57 12.08
11/1/2020 10:45:00 AM 6.33 43.394 0.069 7.36 1.53 12.07
11/1/2020 11:00:00 AM 6.38 43.484 0.069 7.39 1.55 12.04
11/1/2020 11:15:00 AM 6.41 43.538 0.069 7.36 1.5 12
11/1/2020 11:30:00 AM 6.46 43.628 0.069 7.38 1.51 11.98
11/1/2020 11:45:00 AM 6.52 43.736 0.069 7.34 1.52 11.99
11/1/2020 12:00:00 PM 6.58 43.844 0.069 7.37 1.52 11.98
11/1/2020 12:15:00 PM 6.62 43.916 0.069 7.38 1.55 11.96
11/1/2020 12:30:00 PM 6.68 44.024 0.069 7.43 1.53 11.95
11/1/2020 12:45:00 PM 6.76 44.168 0.069 7.37 1.46 11.94
11/1/2020 1:00:00 PM 6.81 44.258 0.069 7.38 1.56 11.91
11/1/2020 1:15:00 PM 6.84 44.312 0.068 7.37 1.57 11.85
11/1/2020 1:30:00 PM 6.86 44.348 0.068 7.35 1.62 11.81
11/1/2020 1:45:00 PM 6.89 44.402 0.068 7.36 1.61 11.82
11/1/2020 2:00:00 PM 6.98 44.564 0.068 7.36 1.53 11.81
11/1/2020 2:15:00 PM 7.1 44.78 0.068 7.37 1.51 11.79
11/1/2020 2:30:00 PM 7.02 44.636 0.068 7.36 1.62 11.74
11/1/2020 2:45:00 PM 6.97 44.546 0.068 7.36 1.68 11.78
11/1/2020 3:00:00 PM 6.93 44.474 0.068 7.37 1.67 11.77
11/1/2020 3:15:00 PM 6.92 44.456 0.068 7.37 1.66 11.75
11/1/2020 3:30:00 PM 6.96 44.528 0.068 7.36 1.6 11.77
11/1/2020 3:45:00 PM 6.99 44.582 0.068 7.36 1.6 11.76
11/1/2020 4:00:00 PM 7 44.6 0.068 7.37 1.66 11.74
11/1/2020 4:15:00 PM 7.01 44.618 0.068 7.38 1.61 11.72
11/1/2020 4:30:00 PM 6.98 44.564 0.068 7.39 1.61 11.7
11/1/2020 4:45:00 PM 6.92 44.456 0.068 7.35 1.55 11.69
11/1/2020 5:00:00 PM 6.81 44.258 0.068 7.37 1.69 11.68
11/1/2020 5:15:00 PM 6.69 44.042 0.069 7.38 1.65 11.68
11/1/2020 5:30:00 PM 6.66 43.988 0.069 7.32 1.7 11.67
11/1/2020 5:45:00 PM 6.62 43.916 0.069 7.32 1.78 11.66
11/1/2020 6:00:00 PM 6.57 43.826 0.069 7.34 1.89 11.66
11/1/2020 6:15:00 PM 6.52 43.736 0.069 7.32 1.69 11.67
11/1/2020 6:30:00 PM 6.45 43.61 0.069 7.36 1.86 11.67
11/1/2020 6:45:00 PM 6.39 43.502 0.069 7.36 1.83 11.69
11/1/2020 7:00:00 PM 6.32 43.376 0.069 7.35 1.82 11.7
11/1/2020 7:15:00 PM 6.28 43.304 0.069 7.28 1.78 11.72
11/1/2020 7:30:00 PM 6.19 43.142 0.069 7.3 1.87 11.73
11/1/2020 7:45:00 PM 6.08 42.944 0.069 7.34 1.94 11.77
11/1/2020 8:00:00 PM 6.03 42.854 0.069 7.33 1.95 11.78
11/1/2020 8:15:00 PM 5.97 42.746 0.069 7.29 1.87 11.8
11/1/2020 8:30:00 PM 5.91 42.638 0.069 7.34 1.98 11.81
11/1/2020 8:45:00 PM 5.83 42.494 0.069 7.31 1.88 11.84
11/1/2020 9:00:00 PM 5.78 42.404 0.069 7.32 1.92 11.86
11/1/2020 9:15:00 PM 5.75 42.35 0.069 7.33 1.81 11.86
11/1/2020 9:30:00 PM 5.7 42.26 0.069 7.34 1.79 11.88
11/1/2020 9:45:00 PM 5.64 42.152 0.069 7.27 1.81 11.91
11/1/2020 10:00:00 PM 5.59 42.062 0.069 7.33 1.8 11.91
11/1/2020 10:15:00 PM 5.55 41.99 0.069 7.29 1.67 11.94
11/1/2020 10:30:00 PM 5.51 41.918 0.069 7.29 1.68 11.95
11/1/2020 10:45:00 PM 5.49 41.882 0.069 7.29 1.74 11.96
11/1/2020 11:00:00 PM 5.43 41.774 0.069 7.3 1.66 11.96
11/1/2020 11:15:00 PM 5.39 41.702 0.069 7.29 1.71 11.98
11/1/2020 11:30:00 PM 5.36 41.648 0.069 7.3 1.71 12
11/1/2020 11:45:00 PM 5.33 41.594 0.069 7.32 1.63 12
11/2/2020 12:00:00 AM 5.31 41.558 0.069 7.3 1.65 12.01
11/2/2020 12:15:00 AM 5.28 41.504 0.069 7.3 1.57 12.02
11/2/2020 12:30:00 AM 5.24 41.432 0.069 7.34 1.71 12.03
11/2/2020 12:45:00 AM 5.2 41.36 0.069 7.34 1.63 12.04
11/2/2020 1:00:00 AM 5.17 41.306 0.069 7.26 1.63 12.04
11/2/2020 1:15:00 AM 5.15 41.27 0.069 7.33 1.62 12.05
11/2/2020 1:30:00 AM 5.11 41.198 0.069 7.31 1.66 12.06
11/2/2020 1:45:00 AM 5.08 41.144 0.069 7.29 1.7 12.08
11/2/2020 2:00:00 AM 5.06 41.108 0.069 7.34 1.62 12.09
11/2/2020 2:15:00 AM 5.03 41.054 0.069 7.26 1.66 12.1
11/2/2020 2:30:00 AM 5.01 41.018 0.069 7.31 1.61 12.11
11/2/2020 2:45:00 AM 4.99 40.982 0.069 7.34 1.66 12.12
11/2/2020 3:00:00 AM 4.95 40.91 0.069 7.26 1.66 12.12
11/2/2020 3:15:00 AM 4.92 40.856 0.069 7.3 1.66 12.14
11/2/2020 3:30:00 AM 4.91 40.838 0.069 7.33 1.76 12.15
11/2/2020 3:45:00 AM 4.89 40.802 0.069 7.32 1.69 12.14
11/2/2020 4:00:00 AM 4.66 40.388 0.069 7.28 1.69 12.16
11/2/2020 4:15:00 AM 4.49 40.082 0.069 7.29 1.68 12.19
11/2/2020 4:30:00 AM 4.41 39.938 0.069 7.34 1.71 12.22
11/2/2020 4:45:00 AM 4.45 40.01 0.069 7.28 1.64 12.23
11/2/2020 5:00:00 AM 4.35 39.83 0.069 7.29 1.61 12.24
11/2/2020 5:15:00 AM 4.34 39.812 0.069 7.3 1.61 12.28
11/2/2020 5:30:00 AM 4.39 39.902 0.069 7.3 1.67 12.29
11/2/2020 5:45:00 AM 4.41 39.938 0.069 7.31 1.56 12.29
11/2/2020 6:00:00 AM 4.43 39.974 0.069 7.29 1.67 12.3
11/2/2020 6:15:00 AM 4.37 39.866 0.069 7.29 1.67 12.32
11/2/2020 6:30:00 AM 4.33 39.794 0.069 7.29 1.56 12.35
11/2/2020 6:45:00 AM 4.3 39.74 0.069 7.29 1.6 12.37
11/2/2020 7:00:00 AM 4.27 39.686 0.069 7.3 1.58 12.39
11/2/2020 7:15:00 AM 4.23 39.614 0.069 7.34 1.66 12.44
11/2/2020 7:30:00 AM 4.21 39.578 0.069 7.3 1.62 12.5
11/2/2020 7:45:00 AM 4.17 39.506 0.069 7.33 1.58 12.54
11/2/2020 8:00:00 AM 4.16 39.488 0.069 7.37 1.56 12.59
11/2/2020 8:15:00 AM 4.16 39.488 0.069 7.32 1.59 12.63
11/2/2020 8:30:00 AM 4.15 39.47 0.069 7.36 1.61 12.67
11/2/2020 8:45:00 AM 4.14 39.452 0.069 7.38 1.55 12.71
11/2/2020 9:00:00 AM 4.15 39.47 0.069 7.34 1.49 12.74
11/2/2020 9:15:00 AM 4.17 39.506 0.069 7.39 1.5 12.77
11/2/2020 9:30:00 AM 4.2 39.56 0.069 7.35 1.56 12.79
11/2/2020 9:45:00 AM 4.26 39.668 0.069 7.37 1.5 12.8
11/2/2020 10:00:00 AM 4.35 39.83 0.069 7.4 1.48 12.8
11/2/2020 10:15:00 AM 4.41 39.938 0.069 7.41 1.48 12.79
11/2/2020 10:30:00 AM 4.48 40.064 0.069 7.41 1.47 12.78
11/2/2020 10:45:00 AM 4.54 40.172 0.069 7.39 1.47 12.77
11/2/2020 11:00:00 AM 4.62 40.316 0.069 7.38 1.44 12.76
11/2/2020 11:15:00 AM 4.68 40.424 0.069 7.42 1.43 12.75
11/2/2020 11:30:00 AM 4.72 40.496 0.069 7.41 1.45 12.72
11/2/2020 11:45:00 AM 4.79 40.622 0.069 7.39 1.36 12.71
11/2/2020 12:00:00 PM 4.87 40.766 0.069 7.39 1.44 12.67
11/2/2020 12:15:00 PM 4.84 40.712 0.069 7.41 1.47 12.66
11/2/2020 12:30:00 PM 4.8 40.64 0.069 7.37 1.42 12.67
11/2/2020 12:45:00 PM 4.88 40.784 0.069 7.4 1.4 12.68
11/2/2020 1:00:00 PM 4.98 40.964 0.069 7.4 1.45 12.63
11/2/2020 1:15:00 PM 5.02 41.036 0.069 7.41 1.37 12.61
11/2/2020 1:30:00 PM 5.03 41.054 0.069 7.42 1.46 12.6
11/2/2020 1:45:00 PM 5.1 41.18 0.069 7.4 1.38 12.59
11/2/2020 2:00:00 PM 5.16 41.288 0.069 7.4 1.45 12.58
11/2/2020 2:15:00 PM 5.23 41.414 0.069 7.41 1.38 12.56
11/2/2020 2:30:00 PM 5.24 41.432 0.069 7.4 1.38 12.52
11/2/2020 2:45:00 PM 5.24 41.432 0.069 7.41 1.43 12.51
11/2/2020 3:00:00 PM 5.23 41.414 0.069 7.39 1.39 12.46
11/2/2020 3:15:00 PM 5.25 41.45 0.069 7.39 1.42 12.47
11/2/2020 3:30:00 PM 5.25 41.45 0.069 7.4 1.34 12.46
11/2/2020 3:45:00 PM 5.27 41.486 0.069 7.41 1.35 12.46
11/2/2020 4:00:00 PM 5.31 41.558 0.069 7.41 1.37 12.45
11/2/2020 4:15:00 PM 5.28 41.504 0.069 7.4 1.4 12.44
11/2/2020 4:30:00 PM 5.24 41.432 0.069 7.41 1.41 12.41
11/2/2020 4:45:00 PM 5.22 41.396 0.069 7.39 1.42 12.38
11/2/2020 5:00:00 PM 5.19 41.342 0.069 7.37 1.42 12.34
11/2/2020 5:15:00 PM 5.14 41.252 0.069 7.37 1.35 12.32
11/2/2020 5:30:00 PM 5.1 41.18 0.069 7.36 1.43 12.28
11/2/2020 5:45:00 PM 5.07 41.126 0.069 7.36 1.44 12.27
11/2/2020 6:00:00 PM 5.03 41.054 0.069 7.35 1.44 12.26
11/2/2020 6:15:00 PM 4.99 40.982 0.069 7.34 1.47 12.26
11/2/2020 6:30:00 PM 4.95 40.91 0.07 7.34 1.51 12.25
11/2/2020 6:45:00 PM 4.91 40.838 0.07 7.34 1.5 12.25
11/2/2020 7:00:00 PM 4.86 40.748 0.07 7.34 1.46 12.26
11/2/2020 7:15:00 PM 4.81 40.658 0.07 7.33 1.43 12.27
11/2/2020 7:30:00 PM 4.75 40.55 0.07 7.32 1.38 12.27
11/2/2020 7:45:00 PM 4.68 40.424 0.07 7.32 1.42 12.29
11/2/2020 8:00:00 PM 4.62 40.316 0.07 7.33 1.42 12.3
11/2/2020 8:15:00 PM 4.55 40.19 0.07 7.32 1.41 12.3
11/2/2020 8:30:00 PM 4.49 40.082 0.07 7.32 1.44 12.32
11/2/2020 8:45:00 PM 4.44 39.992 0.07 7.34 1.46 12.34
11/2/2020 9:00:00 PM 4.4 39.92 0.07 7.36 1.44 12.35
11/2/2020 9:15:00 PM 4.35 39.83 0.07 7.32 1.43 12.37
11/2/2020 9:30:00 PM 4.31 39.758 0.07 7.31 1.4 12.38
11/2/2020 9:45:00 PM 4.25 39.65 0.07 7.32 1.42 12.4
11/2/2020 10:00:00 PM 4.19 39.542 0.07 7.35 1.37 12.42
11/2/2020 10:15:00 PM 4.15 39.47 0.07 7.31 1.41 12.44
11/2/2020 10:30:00 PM 4.1 39.38 0.07 7.36 1.39 12.46
11/2/2020 10:45:00 PM 4.08 39.344 0.07 7.32 1.43 12.47
11/2/2020 11:00:00 PM 4.06 39.308 0.07 7.31 1.46 12.48
11/2/2020 11:15:00 PM 4.04 39.272 0.07 7.31 1.44 12.49
11/2/2020 11:30:00 PM 4.03 39.254 0.07 7.31 1.46 12.5
11/2/2020 11:45:00 PM 4.01 39.218 0.07 7.31 1.4 12.5
11/3/2020 12:00:00 AM 3.99 39.182 0.07 7.31 1.35 12.51
11/3/2020 12:15:00 AM 3.97 39.146 0.07 7.31 1.47 12.52
11/3/2020 12:30:00 AM 3.97 39.146 0.07 7.31 1.34 12.52
11/3/2020 12:45:00 AM 3.95 39.11 0.07 7.31 1.37 12.53
11/3/2020 1:00:00 AM 3.93 39.074 0.07 7.3 1.37 12.53
11/3/2020 1:15:00 AM 3.9 39.02 0.07 7.34 1.39 12.53
11/3/2020 1:30:00 AM 3.87 38.966 0.07 7.33 1.36 12.54
11/3/2020 1:45:00 AM 3.86 38.948 0.07 7.3 1.4 12.54
11/3/2020 2:00:00 AM 3.84 38.912 0.07 7.31 1.38 12.55
11/3/2020 2:15:00 AM 3.83 38.894 0.07 7.35 1.31 12.55
11/3/2020 2:30:00 AM 3.81 38.858 0.07 7.32 1.38 12.56
11/3/2020 2:45:00 AM 3.79 38.822 0.07 7.3 1.37 12.56
11/3/2020 3:00:00 AM 3.78 38.804 0.07 7.31 1.41 12.56
11/3/2020 3:15:00 AM 3.77 38.786 0.07 7.3 1.31 12.57
11/3/2020 3:30:00 AM 3.74 38.732 0.07 7.31 1.36 12.58
11/3/2020 3:45:00 AM 3.72 38.696 0.07 7.31 1.37 12.58
11/3/2020 4:00:00 AM 3.7 38.66 0.07 7.32 1.38 12.6
11/3/2020 4:15:00 AM 3.68 38.624 0.07 7.31 1.37 12.61
11/3/2020 4:30:00 AM 3.67 38.606 0.07 7.3 1.36 12.62
11/3/2020 4:45:00 AM 3.66 38.588 0.07 7.34 1.38 12.63
11/3/2020 5:00:00 AM 3.65 38.57 0.07 7.33 1.33 12.63
11/3/2020 5:15:00 AM 3.64 38.552 0.07 7.29 1.35 12.64
11/3/2020 5:30:00 AM 3.62 38.516 0.07 7.33 1.43 12.66
11/3/2020 5:45:00 AM 3.61 38.498 0.07 7.31 1.34 12.67
11/3/2020 6:00:00 AM 3.61 38.498 0.07 7.3 1.37 12.67
11/3/2020 6:15:00 AM 3.61 38.498 0.07 7.3 1.34 12.67
11/3/2020 6:30:00 AM 3.61 38.498 0.07 7.35 1.32 12.67
11/3/2020 6:45:00 AM 3.6 38.48 0.07 7.28 1.51 12.69
11/3/2020 7:00:00 AM 3.59 38.462 0.07 7.3 1.33 12.71
11/3/2020 7:15:00 AM 3.6 38.48 0.07 7.32 1.32 12.75
11/3/2020 7:30:00 AM 3.61 38.498 0.07 7.33 1.29 12.79
11/3/2020 7:45:00 AM 3.63 38.534 0.07 7.34 1.32 12.82
11/3/2020 8:00:00 AM 3.64 38.552 0.07 7.36 1.33 12.85
11/3/2020 8:15:00 AM 3.68 38.624 0.07 7.32 1.32 12.86
11/3/2020 8:30:00 AM 3.73 38.714 0.07 7.34 1.32 12.88
11/3/2020 8:45:00 AM 3.77 38.786 0.07 7.34 1.29 12.89
11/3/2020 9:00:00 AM 3.83 38.894 0.07 7.34 1.31 12.89
11/3/2020 9:15:00 AM 3.88 38.984 0.07 7.39 1.37 12.91
11/3/2020 9:30:00 AM 3.97 39.146 0.07 7.34 1.32 12.92
11/3/2020 9:45:00 AM 4.09 39.362 0.07 7.4 1.27 12.91
11/3/2020 10:00:00 AM 4.19 39.542 0.07 7.35 1.32 12.91
11/3/2020 10:15:00 AM 4.29 39.722 0.07 7.37 1.32 12.89
11/3/2020 10:30:00 AM 4.4 39.92 0.07 7.37 1.29 12.87
11/3/2020 10:45:00 AM 4.51 40.118 0.07 7.38 1.32 12.84
11/3/2020 11:00:00 AM 4.67 40.406 0.07 7.38 1.35 12.82
11/3/2020 11:15:00 AM 4.82 40.676 0.07 7.39 1.4 12.79
11/3/2020 11:30:00 AM 4.89 40.802 0.07 7.43 1.42 12.76
11/3/2020 11:45:00 AM 4.99 40.982 0.07 7.43 1.5 12.72
11/3/2020 12:00:00 PM 5.09 41.162 0.07 7.39 1.62 12.69
11/3/2020 12:15:00 PM 5.28 41.504 0.07 7.39 1.82 12.67
11/3/2020 12:30:00 PM 5.5 41.9 0.07 7.44 1.9 12.61
11/3/2020 12:45:00 PM 5.56 42.008 0.07 7.43 2.01 12.58
11/3/2020 1:00:00 PM 5.66 42.188 0.07 7.38 1.9 12.54
11/3/2020 1:15:00 PM 5.8 42.44 0.069 7.44 1.77 12.5
11/3/2020 1:30:00 PM 5.96 42.728 0.069 7.41 1.76 12.46
11/3/2020 1:45:00 PM 6.09 42.962 0.069 7.4 1.59 12.39
11/3/2020 2:00:00 PM 6.22 43.196 0.069 7.41 1.57 12.36
11/3/2020 2:15:00 PM 6.34 43.412 0.069 7.42 1.51 12.31
11/3/2020 2:30:00 PM 6.43 43.574 0.069 7.46 1.42 12.28
11/3/2020 2:45:00 PM 6.5 43.7 0.069 7.45 1.43 12.25
11/3/2020 3:00:00 PM 6.53 43.754 0.069 7.38 1.36 12.23
11/3/2020 3:15:00 PM 6.53 43.754 0.069 7.45 1.4 12.21
11/3/2020 3:30:00 PM 6.52 43.736 0.069 7.45 1.31 12.19
11/3/2020 3:45:00 PM 6.52 43.736 0.069 7.38 1.32 12.16
11/3/2020 4:00:00 PM 6.52 43.736 0.069 7.45 1.3 12.12
11/3/2020 4:15:00 PM 6.56 43.808 0.069 7.38 1.31 12.07
11/3/2020 4:30:00 PM 6.6 43.88 0.069 7.41 1.33 12.04
11/3/2020 4:45:00 PM 6.62 43.916 0.069 7.42 1.3 12
11/3/2020 5:00:00 PM 6.61 43.898 0.07 7.4 1.35 11.96
11/3/2020 5:15:00 PM 6.57 43.826 0.07 7.41 1.31 11.92
11/3/2020 5:30:00 PM 6.51 43.718 0.07 7.39 1.39 11.9
11/3/2020 5:45:00 PM 6.46 43.628 0.07 7.38 1.37 11.89
11/3/2020 6:00:00 PM 6.39 43.502 0.07 7.38 1.35 11.89
11/3/2020 6:15:00 PM 6.31 43.358 0.07 7.38 1.41 11.91
11/3/2020 6:30:00 PM 6.23 43.214 0.07 7.38 1.36 11.92
11/3/2020 6:45:00 PM 6.15 43.07 0.07 7.37 1.29 11.93
11/3/2020 7:00:00 PM 6.07 42.926 0.07 7.37 1.38 11.95
11/3/2020 7:15:00 PM 5.99 42.782 0.07 7.36 1.43 11.97
11/3/2020 7:30:00 PM 5.91 42.638 0.07 7.32 1.42 11.99
11/3/2020 7:45:00 PM 5.83 42.494 0.07 7.32 1.32 12.01
11/3/2020 8:00:00 PM 5.75 42.35 0.07 7.35 1.37 12.02
11/3/2020 8:15:00 PM 5.67 42.206 0.071 7.35 1.35 12.05
11/3/2020 8:30:00 PM 5.6 42.08 0.071 7.34 1.37 12.07
11/3/2020 8:45:00 PM 5.53 41.954 0.071 7.29 1.36 12.09
11/3/2020 9:00:00 PM 5.45 41.81 0.071 7.3 1.41 12.11
11/3/2020 9:15:00 PM 5.38 41.684 0.071 7.34 1.41 12.14
11/3/2020 9:30:00 PM 5.31 41.558 0.071 7.28 1.46 12.16
11/3/2020 9:45:00 PM 5.24 41.432 0.071 7.29 1.39 12.18
11/3/2020 10:00:00 PM 5.17 41.306 0.071 7.31 1.34 12.2
11/3/2020 10:15:00 PM 5.1 41.18 0.071 7.35 1.35 12.23
11/3/2020 10:30:00 PM 5.03 41.054 0.071 7.26 1.39 12.26
11/3/2020 10:45:00 PM 4.97 40.946 0.071 7.34 1.42 12.29
11/3/2020 11:00:00 PM 4.91 40.838 0.071 7.34 1.54 12.31
11/3/2020 11:15:00 PM 4.84 40.712 0.071 7.34 1.31 12.33
11/3/2020 11:30:00 PM 4.78 40.604 0.071 7.33 1.39 12.36
11/3/2020 11:45:00 PM 4.73 40.514 0.071 7.27 1.35 12.37
11/4/2020 12:00:00 AM 4.67 40.406 0.071 7.29 1.35 12.4
11/4/2020 12:15:00 AM 4.62 40.316 0.071 7.29 1.33 12.41
11/4/2020 12:30:00 AM 4.56 40.208 0.071 7.31 1.31 12.42
11/4/2020 12:45:00 AM 4.5 40.1 0.071 7.33 1.42 12.45
11/4/2020 1:00:00 AM 4.45 40.01 0.071 7.33 1.33 12.46
11/4/2020 1:15:00 AM 4.4 39.92 0.071 7.26 1.4 12.49
11/4/2020 1:30:00 AM 4.35 39.83 0.071 7.31 1.36 12.51
11/4/2020 1:45:00 AM 4.31 39.758 0.071 7.29 1.4 12.52
11/4/2020 2:00:00 AM 4.25 39.65 0.071 7.32 1.4 12.55
11/4/2020 2:15:00 AM 4.2 39.56 0.071 7.3 1.39 12.58
11/4/2020 2:30:00 AM 4.16 39.488 0.071 7.29 1.34 12.59
11/4/2020 2:45:00 AM 4.12 39.416 0.071 7.3 1.34 12.59
11/4/2020 3:00:00 AM 4.07 39.326 0.071 7.33 1.36 12.62
11/4/2020 3:15:00 AM 4.03 39.254 0.071 7.25 1.33 12.64
11/4/2020 3:30:00 AM 3.98 39.164 0.071 7.28 1.38 12.66
11/4/2020 3:45:00 AM 3.94 39.092 0.071 7.28 1.34 12.67
11/4/2020 4:00:00 AM 3.9 39.02 0.071 7.33 1.32 12.69
11/4/2020 4:15:00 AM 3.87 38.966 0.071 7.29 1.36 12.7
11/4/2020 4:30:00 AM 3.83 38.894 0.071 7.27 1.36 12.7
11/4/2020 4:45:00 AM 3.8 38.84 0.071 7.28 1.4 12.71
11/4/2020 5:00:00 AM 3.76 38.768 0.071 7.31 1.37 12.73
11/4/2020 5:15:00 AM 3.72 38.696 0.071 7.3 1.49 12.75
11/4/2020 5:30:00 AM 3.68 38.624 0.071 7.29 1.37 12.78
11/4/2020 5:45:00 AM 3.64 38.552 0.071 7.32 1.38 12.8
11/4/2020 6:00:00 AM 3.61 38.498 0.071 7.25 1.41 12.79
11/4/2020 6:15:00 AM 3.58 38.444 0.071 7.26 1.48 12.81
11/4/2020 6:30:00 AM 3.55 38.39 0.071 7.27 1.43 12.82
11/4/2020 6:45:00 AM 3.5 38.3 0.071 7.27 1.47 12.85
11/4/2020 7:00:00 AM 3.47 38.246 0.071 7.28 1.41 12.88
11/4/2020 7:15:00 AM 3.44 38.192 0.071 7.28 1.43 12.92
11/4/2020 7:30:00 AM 3.42 38.156 0.071 7.33 1.41 12.96
11/4/2020 7:45:00 AM 3.41 38.138 0.071 7.34 1.4 13
11/4/2020 8:00:00 AM 3.4 38.12 0.071 7.34 1.43 13.02
11/4/2020 8:15:00 AM 3.4 38.12 0.071 7.35 1.42 13.07
11/4/2020 8:30:00 AM 3.42 38.156 0.071 7.32 1.38 13.1
11/4/2020 8:45:00 AM 3.45 38.21 0.071 7.37 1.39 13.12
11/4/2020 9:00:00 AM 3.5 38.3 0.07 7.36 1.4 13.12
11/4/2020 9:15:00 AM 3.55 38.39 0.07 7.37 1.37 13.14
11/4/2020 9:30:00 AM 3.63 38.534 0.07 7.31 1.41 13.14
11/4/2020 9:45:00 AM 3.73 38.714 0.07 7.39 1.34 13.13
11/4/2020 10:00:00 AM 3.86 38.948 0.07 7.39 1.35 13.11
11/4/2020 10:15:00 AM 4 39.2 0.07 7.38 1.35 13.1
11/4/2020 10:30:00 AM 4.16 39.488 0.07 7.39 1.33 13.08
11/4/2020 10:45:00 AM 4.36 39.848 0.07 7.34 1.35 13.03
11/4/2020 11:00:00 AM 4.56 40.208 0.07 7.41 1.35 12.98
11/4/2020 11:15:00 AM 4.77 40.586 0.07 7.35 1.32 12.93
11/4/2020 11:30:00 AM 4.97 40.946 0.07 7.36 1.31 12.88
11/4/2020 11:45:00 AM 5.17 41.306 0.07 7.38 1.27 12.81
11/4/2020 12:00:00 PM 5.37 41.666 0.07 7.42 1.32 12.76
11/4/2020 12:15:00 PM 5.54 41.972 0.07 7.41 1.27 12.72
11/4/2020 12:30:00 PM 5.73 42.314 0.07 7.43 1.27 12.65
11/4/2020 12:45:00 PM 5.91 42.638 0.07 7.42 1.26 12.59
11/4/2020 1:00:00 PM 6.07 42.926 0.07 7.45 1.28 12.56
11/4/2020 1:15:00 PM 6.25 43.25 0.07 7.44 1.25 12.5
11/4/2020 1:30:00 PM 6.4 43.52 0.07 7.45 1.28 12.44
11/4/2020 1:45:00 PM 6.56 43.808 0.069 7.37 1.31 12.37
11/4/2020 2:00:00 PM 6.69 44.042 0.069 7.45 1.28 12.33
11/4/2020 2:15:00 PM 6.81 44.258 0.069 7.45 1.25 12.28
11/4/2020 2:30:00 PM 6.94 44.492 0.069 7.43 1.27 12.22
11/4/2020 2:45:00 PM 7.04 44.672 0.069 7.43 1.29 12.17
11/4/2020 3:00:00 PM 7.09 44.762 0.069 7.46 1.28 12.15
11/4/2020 3:15:00 PM 7.17 44.906 0.069 7.46 1.28 12.1
11/4/2020 3:30:00 PM 7.24 45.032 0.069 7.45 1.25 12.04
11/4/2020 3:45:00 PM 7.3 45.14 0.069 7.45 1.31 11.99
11/4/2020 4:00:00 PM 7.34 45.212 0.069 7.44 1.29 11.93
11/4/2020 4:15:00 PM 7.38 45.284 0.069 7.43 1.33 11.89
11/4/2020 4:30:00 PM 7.42 45.356 0.069 7.37 1.31 11.83
11/4/2020 4:45:00 PM 7.46 45.428 0.069 7.42 1.36 11.78
11/4/2020 5:00:00 PM 7.48 45.464 0.069 7.33 1.35 11.73
11/4/2020 5:15:00 PM 7.47 45.446 0.07 7.38 4.22 11.68
11/4/2020 5:30:00 PM 7.45 45.41 0.07 7.33 1.3 11.66
11/4/2020 5:45:00 PM 7.42 45.356 0.07 7.39 1.39 11.65
11/4/2020 6:00:00 PM 7.37 45.266 0.07 7.38 1.35 11.64
11/4/2020 6:15:00 PM 7.32 45.176 0.07 7.37 1.38 11.64
11/4/2020 6:30:00 PM 7.26 45.068 0.07 7.37 1.39 11.65
11/4/2020 6:45:00 PM 7.19 44.942 0.07 7.37 1.31 11.65
11/4/2020 7:00:00 PM 7.11 44.798 0.07 7.37 1.44 11.67
11/4/2020 7:15:00 PM 7.03 44.654 0.07 7.36 1.37 11.68
11/4/2020 7:30:00 PM 6.95 44.51 0.07 7.36 1.37 11.7
11/4/2020 7:45:00 PM 6.87 44.366 0.07 7.34 1.31 11.73
11/4/2020 8:00:00 PM 6.79 44.222 0.07 7.28 1.47 11.75
11/4/2020 8:15:00 PM 6.72 44.096 0.07 7.36 1.34 11.76
11/4/2020 8:30:00 PM 6.64 43.952 0.071 7.35 1.33 11.79
11/4/2020 8:45:00 PM 6.56 43.808 0.071 7.34 1.36 11.81
11/4/2020 9:00:00 PM 6.48 43.664 0.071 7.35 1.32 11.83
11/4/2020 9:15:00 PM 6.4 43.52 0.071 7.34 1.27 11.85
11/4/2020 9:30:00 PM 6.33 43.394 0.071 7.29 1.33 11.88
11/4/2020 9:45:00 PM 6.25 43.25 0.071 7.35 1.27 11.9
11/4/2020 10:00:00 PM 6.17 43.106 0.071 7.34 1.32 11.92
11/4/2020 10:15:00 PM 6.09 42.962 0.071 7.29 1.29 11.95
11/4/2020 10:30:00 PM 6.01 42.818 0.071 7.35 1.31 11.98
11/4/2020 10:45:00 PM 5.94 42.692 0.071 7.32 1.29 12
11/4/2020 11:00:00 PM 5.85 42.53 0.071 7.34 1.26 12.03
11/4/2020 11:15:00 PM 5.78 42.404 0.071 7.33 1.36 12.04
11/4/2020 11:30:00 PM 5.71 42.278 0.071 7.33 1.3 12.07
11/4/2020 11:45:00 PM 5.63 42.134 0.071 7.33 1.3 12.09
11/5/2020 12:00:00 AM 5.56 42.008 0.071 7.33 1.26 12.12
11/5/2020 12:15:00 AM 5.49 41.882 0.071 7.32 1.24 12.14
11/5/2020 12:30:00 AM 5.42 41.756 0.071 7.33 1.25 12.17
11/5/2020 12:45:00 AM 5.35 41.63 0.071 7.26 1.26 12.19
11/5/2020 1:00:00 AM 5.29 41.522 0.071 7.33 1.25 12.21
11/5/2020 1:15:00 AM 5.23 41.414 0.071 7.32 1.26 12.23
11/5/2020 1:30:00 AM 5.16 41.288 0.071 7.32 1.26 12.25
11/5/2020 1:45:00 AM 5.1 41.18 0.071 7.32 1.24 12.27
11/5/2020 2:00:00 AM 5.04 41.072 0.071 7.29 1.22 12.3
11/5/2020 2:15:00 AM 4.98 40.964 0.071 7.33 1.78 12.32
11/5/2020 2:30:00 AM 4.92 40.856 0.071 7.32 1.27 12.34
11/5/2020 2:45:00 AM 4.87 40.766 0.071 7.32 1.27 12.36
11/5/2020 3:00:00 AM 4.82 40.676 0.071 7.33 1.24 12.38
11/5/2020 3:15:00 AM 4.77 40.586 0.071 7.32 1.16 12.39
11/5/2020 3:30:00 AM 4.73 40.514 0.071 7.31 1.19 12.41
11/5/2020 3:45:00 AM 4.68 40.424 0.071 7.33 1.22 12.42
11/5/2020 4:00:00 AM 4.64 40.352 0.071 7.33 1.19 12.44
11/5/2020 4:15:00 AM 4.6 40.28 0.071 7.32 1.22 12.45
11/5/2020 4:30:00 AM 4.56 40.208 0.071 7.32 1.26 12.46
11/5/2020 4:45:00 AM 4.53 40.154 0.071 7.33 1.24 12.48
11/5/2020 5:00:00 AM 4.5 40.1 0.071 7.32 1.15 12.48
11/5/2020 5:15:00 AM 4.46 40.028 0.071 7.32 1.16 12.5
11/5/2020 5:30:00 AM 4.43 39.974 0.071 7.26 1.21 12.51
11/5/2020 5:45:00 AM 4.4 39.92 0.071 7.33 1.22 12.52
11/5/2020 6:00:00 AM 4.37 39.866 0.071 7.32 1.16 12.53
11/5/2020 6:15:00 AM 4.34 39.812 0.071 7.32 1.13 12.55
11/5/2020 6:30:00 AM 4.3 39.74 0.071 7.28 1.14 12.56
11/5/2020 6:45:00 AM 4.26 39.668 0.071 7.27 1.13 12.58
11/5/2020 7:00:00 AM 4.22 39.596 0.071 7.29 1.14 12.61
11/5/2020 7:15:00 AM 4.2 39.56 0.071 7.28 1.14 12.65
11/5/2020 7:30:00 AM 4.19 39.542 0.071 7.29 1.17 12.7
11/5/2020 7:45:00 AM 4.2 39.56 0.071 7.3 1.17 12.77
11/5/2020 8:00:00 AM 4.21 39.578 0.071 7.36 1.15 12.81
11/5/2020 8:15:00 AM 4.23 39.614 0.071 7.35 1.17 12.85
11/5/2020 8:30:00 AM 4.26 39.668 0.071 7.38 1.11 12.87
11/5/2020 8:45:00 AM 4.3 39.74 0.071 7.38 1.14 12.9
11/5/2020 9:00:00 AM 4.38 39.884 0.071 7.39 1.08 12.91
11/5/2020 9:15:00 AM 4.46 40.028 0.07 7.39 1.12 12.91
11/5/2020 9:30:00 AM 4.56 40.208 0.07 7.4 1.1 12.92
11/5/2020 9:45:00 AM 4.66 40.388 0.07 7.35 1.12 12.92
11/5/2020 10:00:00 AM 4.77 40.586 0.07 7.43 1.11 12.92
11/5/2020 10:15:00 AM 4.88 40.784 0.07 7.42 1.13 12.9
11/5/2020 10:30:00 AM 5.02 41.036 0.07 7.39 1.17 12.89
11/5/2020 10:45:00 AM 5.2 41.36 0.07 7.35 1.1 12.85
11/5/2020 11:00:00 AM 5.45 41.81 0.07 7.4 1.13 12.8
11/5/2020 11:15:00 AM 5.79 42.422 0.07 7.45 1.1 12.72
11/5/2020 11:30:00 AM 6.08 42.944 0.069 7.45 1.06 12.65
11/5/2020 11:45:00 AM 6.25 43.25 0.069 7.44 1.15 12.58
11/5/2020 12:00:00 PM 6.34 43.412 0.069 7.37 1.1 12.55
11/5/2020 12:15:00 PM 6.47 43.646 0.069 7.47 1.07 12.53
11/5/2020 12:30:00 PM 6.69 44.042 0.069 7.46 1.1 12.48
11/5/2020 12:45:00 PM 6.89 44.402 0.069 7.48 1.17 12.42
11/5/2020 1:00:00 PM 7.08 44.744 0.069 7.48 1.12 12.35
11/5/2020 1:15:00 PM 7.3 45.14 0.069 7.42 1.07 12.3
11/5/2020 1:30:00 PM 7.47 45.446 0.069 7.5 1.08 12.25
11/5/2020 1:45:00 PM 7.62 45.716 0.069 7.5 1.09 12.17
11/5/2020 2:00:00 PM 7.72 45.896 0.069 7.51 1.14 12.14
11/5/2020 2:15:00 PM 7.85 46.13 0.069 7.52 1.12 12.1
11/5/2020 2:30:00 PM 7.97 46.346 0.069 7.44 1.12 12.05
11/5/2020 2:45:00 PM 8.1 46.58 0.069 7.5 1.14 12
11/5/2020 3:00:00 PM 8.2 46.76 0.069 7.51 1.13 11.95
11/5/2020 3:15:00 PM 8.26 46.868 0.069 7.49 1.05 11.89
11/5/2020 3:30:00 PM 8.31 46.958 0.069 7.53 1.11 11.82
11/5/2020 3:45:00 PM 8.32 46.976 0.069 7.51 1.15 11.76
11/5/2020 4:00:00 PM 8.32 46.976 0.069 7.46 1.16 11.72
11/5/2020 4:15:00 PM 8.3 46.94 0.069 7.51 1.16 11.67
11/5/2020 4:30:00 PM 8.27 46.886 0.069 7.49 1.12 11.6
11/5/2020 4:45:00 PM 8.25 46.85 0.069 7.47 1.13 11.55
11/5/2020 5:00:00 PM 8.24 46.832 0.069 7.44 1.26 11.5
11/5/2020 5:15:00 PM 8.21 46.778 0.069 7.35 1.2 11.44
11/5/2020 5:30:00 PM 8.18 46.724 0.07 7.43 1.22 11.41
11/5/2020 5:45:00 PM 8.14 46.652 0.07 7.36 1.21 11.4
11/5/2020 6:00:00 PM 8.1 46.58 0.07 7.39 1.22 11.39
11/5/2020 6:15:00 PM 8.06 46.508 0.07 7.42 1.17 11.39
11/5/2020 6:30:00 PM 8 46.4 0.07 7.41 1.17 11.39
11/5/2020 6:45:00 PM 7.94 46.292 0.07 7.41 1.19 11.4
11/5/2020 7:00:00 PM 7.87 46.166 0.07 7.4 1.17 11.41
11/5/2020 7:15:00 PM 7.8 46.04 0.07 7.4 1.22 11.43
11/5/2020 7:30:00 PM 7.71 45.878 0.07 7.39 1.21 11.45
11/5/2020 7:45:00 PM 7.63 45.734 0.071 7.39 1.38 11.47
11/5/2020 8:00:00 PM 7.55 45.59 0.071 7.38 1.24 11.48
11/5/2020 8:15:00 PM 7.46 45.428 0.071 7.38 1.18 11.51
11/5/2020 8:30:00 PM 7.4 45.32 0.071 7.38 1.29 11.53
11/5/2020 8:45:00 PM 7.33 45.194 0.071 7.36 1.18 11.55
11/5/2020 9:00:00 PM 7.28 45.104 0.071 7.38 1.18 11.56
11/5/2020 9:15:00 PM 7.23 45.014 0.071 7.38 1.23 11.58
11/5/2020 9:30:00 PM 7.17 44.906 0.071 7.38 1.15 11.6
11/5/2020 9:45:00 PM 7.13 44.834 0.071 7.38 1.15 11.6
11/5/2020 10:00:00 PM 7.09 44.762 0.071 7.35 1.18 11.61
11/5/2020 10:15:00 PM 7.05 44.69 0.071 7.37 1.21 11.62
11/5/2020 10:30:00 PM 7.02 44.636 0.071 7.37 1.19 11.64
11/5/2020 10:45:00 PM 6.98 44.564 0.071 7.36 1.19 11.65
11/5/2020 11:00:00 PM 6.96 44.528 0.071 7.35 1.18 11.66
11/5/2020 11:15:00 PM 6.93 44.474 0.071 7.35 1.17 11.65
11/5/2020 11:30:00 PM 6.9 44.42 0.071 7.29 1.26 11.67
11/5/2020 11:45:00 PM 6.87 44.366 0.071 7.36 1.17 11.68
11/6/2020 12:00:00 AM 6.84 44.312 0.071 7.35 1.18 11.69
11/6/2020 12:15:00 AM 6.81 44.258 0.071 7.35 1.17 11.7
11/6/2020 12:30:00 AM 6.79 44.222 0.071 7.34 1.19 11.71
11/6/2020 12:45:00 AM 6.77 44.186 0.071 7.34 1.15 11.71
11/6/2020 1:00:00 AM 6.76 44.168 0.071 7.34 1.2 11.71
11/6/2020 1:15:00 AM 6.73 44.114 0.071 7.33 1.16 11.72
11/6/2020 1:30:00 AM 6.71 44.078 0.071 7.29 1.19 11.73
11/6/2020 1:45:00 AM 6.7 44.06 0.071 7.29 1.12 11.73
11/6/2020 2:00:00 AM 6.69 44.042 0.071 7.3 1.21 11.74
11/6/2020 2:15:00 AM 6.66 43.988 0.071 7.3 1.14 11.74
11/6/2020 2:30:00 AM 6.63 43.934 0.071 7.3 1.18 11.75
11/6/2020 2:45:00 AM 6.59 43.862 0.071 7.34 1.19 11.76
11/6/2020 3:00:00 AM 6.54 43.772 0.071 7.35 1.19 11.78
11/6/2020 3:15:00 AM 6.5 43.7 0.071 7.26 1.19 11.77
11/6/2020 3:30:00 AM 6.45 43.61 0.071 7.35 1.15 11.78
11/6/2020 3:45:00 AM 6.4 43.52 0.071 7.35 1.16 11.79
11/6/2020 4:00:00 AM 6.36 43.448 0.071 7.32 1.17 11.81
11/6/2020 4:15:00 AM 6.32 43.376 0.071 7.35 1.17 11.83
11/6/2020 4:30:00 AM 6.27 43.286 0.071 7.34 1.15 11.85
11/6/2020 4:45:00 AM 6.21 43.178 0.071 7.35 1.13 11.87
11/6/2020 5:00:00 AM 6.15 43.07 0.071 7.25 1.17 11.89
11/6/2020 5:15:00 AM 6.1 42.98 0.071 7.35 1.17 11.9
11/6/2020 5:30:00 AM 6.05 42.89 0.071 7.34 1.15 11.91
11/6/2020 5:45:00 AM 6 42.8 0.071 7.33 1.14 11.94
11/6/2020 6:00:00 AM 5.94 42.692 0.071 7.27 1.18 11.95
11/6/2020 6:15:00 AM 5.88 42.584 0.071 7.28 1.16 11.96
11/6/2020 6:30:00 AM 5.82 42.476 0.071 7.31 1.13 11.98
11/6/2020 6:45:00 AM 5.76 42.368 0.071 7.29 1.15 12
11/6/2020 7:00:00 AM 5.7 42.26 0.071 7.34 1.17 12.04
11/6/2020 7:15:00 AM 5.65 42.17 0.071 7.33 1.12 12.09
11/6/2020 7:30:00 AM 5.6 42.08 0.071 7.35 1.15 12.16
11/6/2020 7:45:00 AM 5.56 42.008 0.071 7.31 1.09 12.21
11/6/2020 8:00:00 AM 5.52 41.936 0.071 7.37 1.12 12.27
11/6/2020 8:15:00 AM 5.51 41.918 0.071 7.37 1.19 12.32
11/6/2020 8:30:00 AM 5.51 41.918 0.071 7.38 1.12 12.38
11/6/2020 8:45:00 AM 5.51 41.918 0.071 7.35 1.15 12.42
11/6/2020 9:00:00 AM 5.53 41.954 0.071 7.4 1.09 12.45
11/6/2020 9:15:00 AM 5.58 42.044 0.071 7.41 1.09 12.48
11/6/2020 9:30:00 AM 5.65 42.17 0.07 7.41 1.13 12.5
11/6/2020 9:45:00 AM 5.73 42.314 0.07 7.43 1.03 12.51
11/6/2020 10:00:00 AM 5.84 42.512 0.07 7.43 1.05 12.5
11/6/2020 10:15:00 AM 5.99 42.782 0.07 7.45 1.12 12.49
11/6/2020 10:30:00 AM 6.15 43.07 0.07 7.45 1.09 12.48
11/6/2020 10:45:00 AM 6.33 43.394 0.07 7.46 1.04 12.44
11/6/2020 11:00:00 AM 6.53 43.754 0.07 7.46 1.09 12.4
11/6/2020 11:15:00 AM 6.71 44.078 0.07 7.4 1.02 12.36
11/6/2020 11:30:00 AM 6.9 44.42 0.07 7.47 1.08 12.32
11/6/2020 11:45:00 AM 7.09 44.762 0.07 7.46 1.06 12.27
11/6/2020 12:00:00 PM 7.28 45.104 0.07 7.47 1.11 12.24
11/6/2020 12:15:00 PM 7.45 45.41 0.07 7.51 1.02 12.2
11/6/2020 12:30:00 PM 7.62 45.716 0.069 7.51 1.11 12.16
11/6/2020 12:45:00 PM 7.79 46.022 0.069 7.52 1.09 12.09
11/6/2020 1:00:00 PM 7.97 46.346 0.069 7.51 1.06 12.03
11/6/2020 1:15:00 PM 8.13 46.634 0.069 7.52 1.12 11.98
11/6/2020 1:30:00 PM 8.27 46.886 0.069 7.51 1.15 11.93
11/6/2020 1:45:00 PM 8.4 47.12 0.069 7.45 1.11 11.88
11/6/2020 2:00:00 PM 8.51 47.318 0.069 7.54 1.13 11.84
11/6/2020 2:15:00 PM 8.62 47.516 0.069 7.55 1.09 11.81
11/6/2020 2:30:00 PM 8.71 47.678 0.069 7.55 1.15 11.77
11/6/2020 2:45:00 PM 8.78 47.804 0.069 7.55 1.07 11.73
11/6/2020 3:00:00 PM 8.84 47.912 0.069 7.49 1.13 11.68
11/6/2020 3:15:00 PM 8.89 48.002 0.069 7.56 1.15 11.63
11/6/2020 3:30:00 PM 8.93 48.074 0.069 7.55 1.23 11.57
11/6/2020 3:45:00 PM 8.95 48.11 0.069 7.54 1.11 11.53
11/6/2020 4:00:00 PM 8.97 48.146 0.069 7.51 1.1 11.47
11/6/2020 4:15:00 PM 8.97 48.146 0.069 7.53 1.17 11.44
11/6/2020 4:30:00 PM 8.98 48.164 0.069 7.53 1.11 11.38
11/6/2020 4:45:00 PM 8.99 48.182 0.069 7.51 1.13 11.32
11/6/2020 5:00:00 PM 9 48.2 0.069 7.5 1.13 11.26
11/6/2020 5:15:00 PM 8.99 48.182 0.07 7.48 1.15 11.21
11/6/2020 5:30:00 PM 8.97 48.146 0.07 7.47 1.17 11.16
11/6/2020 5:45:00 PM 8.95 48.11 0.07 7.39 1.11 11.15
11/6/2020 6:00:00 PM 8.92 48.056 0.07 7.42 1.19 11.13
11/6/2020 6:15:00 PM 8.88 47.984 0.07 7.46 1.17 11.12
11/6/2020 6:30:00 PM 8.82 47.876 0.07 7.44 1.17 11.13
11/6/2020 6:45:00 PM 8.76 47.768 0.07 7.44 1.21 11.14
11/6/2020 7:00:00 PM 8.68 47.624 0.07 7.44 1.24 11.15
11/6/2020 7:15:00 PM 8.6 47.48 0.07 7.43 1.18 11.16
11/6/2020 7:30:00 PM 8.51 47.318 0.07 7.43 1.24 11.18
11/6/2020 7:45:00 PM 8.42 47.156 0.071 7.43 1.17 11.2
11/6/2020 8:00:00 PM 8.33 46.994 0.071 7.43 1.13 11.22
11/6/2020 8:15:00 PM 8.24 46.832 0.071 7.43 1.22 11.25
11/6/2020 8:30:00 PM 8.16 46.688 0.071 7.43 1.17 11.27
11/6/2020 8:45:00 PM 8.08 46.544 0.071 7.39 1.21 11.29
11/6/2020 9:00:00 PM 8 46.4 0.071 7.37 1.23 11.32
11/6/2020 9:15:00 PM 7.92 46.256 0.071 7.43 1.16 11.34
11/6/2020 9:30:00 PM 7.85 46.13 0.071 7.42 1.21 11.36
11/6/2020 9:45:00 PM 7.77 45.986 0.071 7.42 1.26 11.37
11/6/2020 10:00:00 PM 7.7 45.86 0.071 7.42 1.26 11.39
11/6/2020 10:15:00 PM 7.62 45.716 0.071 7.42 1.23 11.42
11/6/2020 10:30:00 PM 7.54 45.572 0.072 7.42 1.35 11.44
11/6/2020 10:45:00 PM 7.46 45.428 0.072 7.43 1.19 11.48
11/6/2020 11:00:00 PM 7.4 45.32 0.072 7.42 1.18 11.48
11/6/2020 11:15:00 PM 7.33 45.194 0.072 7.42 1.17 11.5
11/6/2020 11:30:00 PM 7.26 45.068 0.071 7.41 1.1 11.5
11/6/2020 11:45:00 PM 7.19 44.942 0.072 7.41 1.16 11.54
11/7/2020 12:00:00 AM 7.12 44.816 0.072 7.4 1.16 11.54
11/7/2020 12:15:00 AM 7.04 44.672 0.072 7.37 1.14 11.58
11/7/2020 12:30:00 AM 6.96 44.528 0.072 7.38 1.16 11.61
11/7/2020 12:45:00 AM 6.89 44.402 0.072 7.41 1.17 11.63
11/7/2020 1:00:00 AM 6.82 44.276 0.072 7.4 1.15 11.64
11/7/2020 1:15:00 AM 6.74 44.132 0.072 7.34 1.21 11.68
11/7/2020 1:30:00 AM 6.66 43.988 0.072 7.4 1.27 11.7
11/7/2020 1:45:00 AM 6.59 43.862 0.072 7.39 1.2 11.72
11/7/2020 2:00:00 AM 6.52 43.736 0.072 7.32 1.15 11.75
11/7/2020 2:15:00 AM 6.45 43.61 0.072 7.39 1.08 11.76
11/7/2020 2:30:00 AM 6.39 43.502 0.072 7.38 1.14 11.78
11/7/2020 2:45:00 AM 6.33 43.394 0.072 7.39 1.17 11.81
11/7/2020 3:00:00 AM 6.26 43.268 0.072 7.33 1.13 11.83
11/7/2020 3:15:00 AM 6.21 43.178 0.072 7.39 1.15 11.85
11/7/2020 3:30:00 AM 6.15 43.07 0.072 7.38 1.11 11.88
11/7/2020 3:45:00 AM 6.09 42.962 0.072 7.33 1.22 11.91
11/7/2020 4:00:00 AM 6.05 42.89 0.072 7.39 1.11 11.91
11/7/2020 4:15:00 AM 6 42.8 0.072 7.37 1.14 11.94
11/7/2020 4:30:00 AM 5.95 42.71 0.071 7.38 1.11 11.95
11/7/2020 4:45:00 AM 5.9 42.62 0.071 7.37 1.14 11.97
11/7/2020 5:00:00 AM 5.85 42.53 0.071 7.31 1.1 11.98
11/7/2020 5:15:00 AM 5.8 42.44 0.071 7.37 1.1 12
11/7/2020 5:30:00 AM 5.76 42.368 0.071 7.3 1.12 12.01
11/7/2020 5:45:00 AM 5.72 42.296 0.071 7.37 1.1 12.03
11/7/2020 6:00:00 AM 5.67 42.206 0.071 7.27 1.1 12.05
11/7/2020 6:15:00 AM 5.63 42.134 0.071 7.37 1.06 12.07
11/7/2020 6:30:00 AM 5.59 42.062 0.071 7.36 1.09 12.08
11/7/2020 6:45:00 AM 5.55 41.99 0.071 7.34 1.1 12.1
11/7/2020 7:00:00 AM 5.51 41.918 0.071 7.36 1.08 12.13
11/7/2020 7:15:00 AM 5.48 41.864 0.071 7.29 1.07 12.19
11/7/2020 7:30:00 AM 5.45 41.81 0.071 7.39 1.03 12.25
11/7/2020 7:45:00 AM 5.44 41.792 0.071 7.39 1.1 12.3
11/7/2020 8:00:00 AM 5.42 41.756 0.071 7.39 1.05 12.34
11/7/2020 8:15:00 AM 5.41 41.738 0.071 7.34 1.08 12.39
11/7/2020 8:30:00 AM 5.41 41.738 0.071 7.41 1.08 12.44
11/7/2020 8:45:00 AM 5.44 41.792 0.071 7.36 1.08 12.49
11/7/2020 9:00:00 AM 5.47 41.846 0.071 7.44 1.08 12.53
11/7/2020 9:15:00 AM 5.53 41.954 0.071 7.44 1.08 12.55
11/7/2020 9:30:00 AM 5.6 42.08 0.071 7.45 1.05 12.55
11/7/2020 9:45:00 AM 5.69 42.242 0.071 7.46 1.08 12.56
11/7/2020 10:00:00 AM 5.8 42.44 0.07 7.47 1.04 12.57
11/7/2020 10:15:00 AM 5.92 42.656 0.07 7.48 1.02 12.57
11/7/2020 10:30:00 AM 6.06 42.908 0.07 7.42 1.05 12.56
11/7/2020 10:45:00 AM 6.22 43.196 0.07 7.49 1.06 12.54
11/7/2020 11:00:00 AM 6.39 43.502 0.07 7.47 1.28 12.5
11/7/2020 11:15:00 AM 6.57 43.826 0.07 7.45 0.98 12.47
11/7/2020 11:30:00 AM 6.78 44.204 0.07 7.47 1.03 12.41
11/7/2020 11:45:00 AM 7 44.6 0.07 7.49 1 12.34
11/7/2020 12:00:00 PM 7.2 44.96 0.07 7.5 1 12.27
11/7/2020 12:15:00 PM 7.38 45.284 0.069 7.5 1.03 12.23
11/7/2020 12:30:00 PM 7.56 45.608 0.069 7.51 0.99 12.19
11/7/2020 12:45:00 PM 7.76 45.968 0.069 7.43 0.99 12.12
11/7/2020 1:00:00 PM 7.93 46.274 0.069 7.47 0.98 12.08
11/7/2020 1:15:00 PM 8.09 46.562 0.069 7.54 1.08 12.04
11/7/2020 1:30:00 PM 8.23 46.814 0.069 7.56 1.04 11.99
11/7/2020 1:45:00 PM 8.36 47.048 0.069 7.57 1.04 11.95
11/7/2020 2:00:00 PM 8.5 47.3 0.069 7.54 1.03 11.92
11/7/2020 2:15:00 PM 8.61 47.498 0.069 7.59 1.08 11.9
11/7/2020 2:30:00 PM 8.71 47.678 0.069 7.59 1.1 11.87
11/7/2020 2:45:00 PM 8.79 47.822 0.069 7.6 1.06 11.83
11/7/2020 3:00:00 PM 8.87 47.966 0.069 7.54 1.12 11.8
11/7/2020 3:15:00 PM 8.96 48.128 0.069 7.61 1.14 11.75
11/7/2020 3:30:00 PM 9.01 48.218 0.069 7.61 1.09 11.71
11/7/2020 3:45:00 PM 9.06 48.308 0.069 7.6 1.05 11.66
11/7/2020 4:00:00 PM 9.1 48.38 0.069 7.6 1.04 11.6
11/7/2020 4:15:00 PM 9.13 48.434 0.069 7.56 1.08 11.55
11/7/2020 4:30:00 PM 9.15 48.47 0.069 7.58 1.07 11.48
11/7/2020 4:45:00 PM 9.17 48.506 0.069 7.57 1.11 11.4
11/7/2020 5:00:00 PM 9.17 48.506 0.069 7.54 1.17 11.32
11/7/2020 5:15:00 PM 9.16 48.488 0.069 7.52 1.09 11.24
11/7/2020 5:30:00 PM 9.15 48.47 0.07 7.51 1.19 11.19
11/7/2020 5:45:00 PM 9.12 48.416 0.07 7.5 1.13 11.15
11/7/2020 6:00:00 PM 9.09 48.362 0.07 7.4 1.18 11.12
11/7/2020 6:15:00 PM 9.05 48.29 0.07 7.47 1.13 11.11
11/7/2020 6:30:00 PM 9 48.2 0.07 7.48 1.18 11.11
11/7/2020 6:45:00 PM 8.94 48.092 0.07 7.42 1.13 11.11
11/7/2020 7:00:00 PM 8.87 47.966 0.07 7.47 1.19 11.11
11/7/2020 7:15:00 PM 8.79 47.822 0.07 7.36 1.43 11.13
11/7/2020 7:30:00 PM 8.7 47.66 0.07 7.41 1.18 11.16
11/7/2020 7:45:00 PM 8.6 47.48 0.07 7.46 1.26 11.17
11/7/2020 8:00:00 PM 8.51 47.318 0.071 7.46 1.15 11.18
11/7/2020 8:15:00 PM 8.41 47.138 0.071 7.35 1.2 11.21
11/7/2020 8:30:00 PM 8.31 46.958 0.071 7.45 1.17 11.23
11/7/2020 8:45:00 PM 8.21 46.778 0.071 7.37 1.16 11.26
11/7/2020 9:00:00 PM 8.12 46.616 0.071 7.45 1.21 11.29
11/7/2020 9:15:00 PM 8.02 46.436 0.071 7.44 1.25 11.32
11/7/2020 9:30:00 PM 7.92 46.256 0.071 7.44 1.18 11.35
11/7/2020 9:45:00 PM 7.83 46.094 0.071 7.4 1.19 11.37
11/7/2020 10:00:00 PM 7.73 45.914 0.072 7.43 1.14 11.4
11/7/2020 10:15:00 PM 7.63 45.734 0.072 7.44 1.11 11.43
11/7/2020 10:30:00 PM 7.54 45.572 0.072 7.44 1.13 11.46
11/7/2020 10:45:00 PM 7.45 45.41 0.072 7.35 1.13 11.48
11/7/2020 11:00:00 PM 7.36 45.248 0.072 7.43 1.08 11.5
11/7/2020 11:15:00 PM 7.27 45.086 0.072 7.42 1.13 11.52
11/7/2020 11:30:00 PM 7.18 44.924 0.072 7.34 1.14 11.55
11/7/2020 11:45:00 PM 7.09 44.762 0.072 7.42 1.28 11.56
11/8/2020 12:00:00 AM 7.01 44.618 0.072 7.43 1.21 11.59
11/8/2020 12:15:00 AM 6.91 44.438 0.072 7.42 1.12 11.62
11/8/2020 12:30:00 AM 6.82 44.276 0.072 7.34 1.12 11.66
11/8/2020 12:45:00 AM 6.74 44.132 0.072 7.42 1.15 11.68
11/8/2020 1:00:00 AM 6.65 43.97 0.072 7.41 1.15 11.71
11/8/2020 1:15:00 AM 6.57 43.826 0.072 7.41 1.12 11.73
11/8/2020 1:30:00 AM 6.49 43.682 0.072 7.34 1.16 11.76
11/8/2020 1:45:00 AM 6.41 43.538 0.072 7.4 1.1 11.8
11/8/2020 2:00:00 AM 6.32 43.376 0.072 7.43 1.1 11.82
11/8/2020 2:15:00 AM 6.24 43.232 0.072 7.34 1.11 11.86
11/8/2020 2:30:00 AM 6.17 43.106 0.072 7.4 1.17 11.88
11/8/2020 2:45:00 AM 6.09 42.962 0.072 7.36 1.13 11.91
11/8/2020 3:00:00 AM 6.01 42.818 0.072 7.41 1.16 11.94
11/8/2020 3:15:00 AM 5.94 42.692 0.072 7.33 1.15 11.95
11/8/2020 3:30:00 AM 5.87 42.566 0.072 7.4 1.14 11.97
11/8/2020 3:45:00 AM 5.8 42.44 0.072 7.39 1.11 12
11/8/2020 4:00:00 AM 5.73 42.314 0.072 7.33 1.11 12.03
11/8/2020 4:15:00 AM 5.67 42.206 0.072 7.38 1.14 12.05
11/8/2020 4:30:00 AM 5.6 42.08 0.072 7.37 1.12 12.07
11/8/2020 4:45:00 AM 5.54 41.972 0.072 7.29 1.11 12.11
11/8/2020 5:00:00 AM 5.47 41.846 0.072 7.33 1.12 12.13
11/8/2020 5:15:00 AM 5.42 41.756 0.072 7.38 1.13 12.15
11/8/2020 5:30:00 AM 5.36 41.648 0.072 7.37 1.12 12.17
11/8/2020 5:45:00 AM 5.3 41.54 0.072 7.33 1.11 12.19
11/8/2020 6:00:00 AM 5.24 41.432 0.072 7.34 1.11 12.21
11/8/2020 6:15:00 AM 5.19 41.342 0.072 7.32 1.15 12.23
11/8/2020 6:30:00 AM 5.13 41.234 0.072 7.37 1.11 12.24
11/8/2020 6:45:00 AM 5.08 41.144 0.072 7.34 1.17 12.27
11/8/2020 7:00:00 AM 5.03 41.054 0.072 7.32 1.12 12.32
11/8/2020 7:15:00 AM 4.99 40.982 0.072 7.34 1.14 12.36
11/8/2020 7:30:00 AM 4.95 40.91 0.072 7.38 1.13 12.44
11/8/2020 7:45:00 AM 4.91 40.838 0.071 7.39 1.06 12.49
11/8/2020 8:00:00 AM 4.89 40.802 0.071 7.39 1.1 12.54
11/8/2020 8:15:00 AM 4.86 40.748 0.071 7.4 1.15 12.6
11/8/2020 8:30:00 AM 4.87 40.766 0.071 7.41 1.12 12.67
11/8/2020 8:45:00 AM 4.88 40.784 0.071 7.43 1.09 12.71
11/8/2020 9:00:00 AM 4.9 40.82 0.071 7.38 1.11 12.74
11/8/2020 9:15:00 AM 4.94 40.892 0.071 7.42 1.09 12.77
11/8/2020 9:30:00 AM 5.01 41.018 0.071 7.45 1.08 12.79
11/8/2020 9:45:00 AM 5.1 41.18 0.071 7.46 1.09 12.79
11/8/2020 10:00:00 AM 5.21 41.378 0.071 7.46 1.06 12.79
11/8/2020 10:15:00 AM 5.34 41.612 0.07 7.47 1.08 12.79
11/8/2020 10:30:00 AM 5.47 41.846 0.07 7.42 1.06 12.79
11/8/2020 10:45:00 AM 5.63 42.134 0.07 7.49 1.04 12.76
11/8/2020 11:00:00 AM 5.8 42.44 0.07 7.5 1.05 12.73
11/8/2020 11:15:00 AM 5.98 42.764 0.07 7.43 1.05 12.71
11/8/2020 11:30:00 AM 6.15 43.07 0.07 7.5 1.04 12.67
11/8/2020 11:45:00 AM 6.34 43.412 0.07 7.51 1.02 12.62
11/8/2020 12:00:00 PM 6.53 43.754 0.07 7.5 1.06 12.57
11/8/2020 12:15:00 PM 6.72 44.096 0.07 7.49 1.05 12.51
11/8/2020 12:30:00 PM 6.91 44.438 0.07 7.48 1.04 12.45
11/8/2020 12:45:00 PM 7.1 44.78 0.069 7.52 1.02 12.4
11/8/2020 1:00:00 PM 7.27 45.086 0.069 7.52 1.02 12.34
11/8/2020 1:15:00 PM 7.44 45.392 0.069 7.52 1.05 12.3
11/8/2020 1:30:00 PM 7.58 45.644 0.069 7.54 0.99 12.26
11/8/2020 1:45:00 PM 7.71 45.878 0.069 7.54 1.02 12.21
11/8/2020 2:00:00 PM 7.84 46.112 0.069 7.52 1.03 12.15
11/8/2020 2:15:00 PM 7.97 46.346 0.069 7.52 1.04 12.1
11/8/2020 2:30:00 PM 8.1 46.58 0.069 7.52 0.96 12.04
11/8/2020 2:45:00 PM 8.19 46.742 0.069 7.53 1.01 11.99
11/8/2020 3:00:00 PM 8.25 46.85 0.069 7.55 1.06 11.94
11/8/2020 3:15:00 PM 8.31 46.958 0.069 7.51 1.04 11.89
11/8/2020 3:30:00 PM 8.33 46.994 0.069 7.52 1.05 11.84
11/8/2020 3:45:00 PM 8.35 47.03 0.069 7.56 1.03 11.77
11/8/2020 4:00:00 PM 8.35 47.03 0.069 7.56 1.04 11.73
11/8/2020 4:15:00 PM 8.36 47.048 0.069 7.51 1.71 11.68
11/8/2020 4:30:00 PM 8.37 47.066 0.069 7.54 1.04 11.62
11/8/2020 4:45:00 PM 8.38 47.084 0.069 7.53 1.09 11.57
11/8/2020 5:00:00 PM 8.39 47.102 0.069 7.51 1.01 11.5
11/8/2020 5:15:00 PM 8.39 47.102 0.07 7.49 1.06 11.43
11/8/2020 5:30:00 PM 8.39 47.102 0.07 7.45 1.08 11.38
11/8/2020 5:45:00 PM 8.38 47.084 0.07 7.49 1.15 11.35
11/8/2020 6:00:00 PM 8.37 47.066 0.07 7.49 1.13 11.33
11/8/2020 6:15:00 PM 8.36 47.048 0.07 7.48 1.11 11.31
11/8/2020 6:30:00 PM 8.33 46.994 0.07 7.47 1.12 11.31
11/8/2020 6:45:00 PM 8.29 46.922 0.07 7.47 1.15 11.32
11/8/2020 7:00:00 PM 8.23 46.814 0.07 7.38 1.07 11.32
11/8/2020 7:15:00 PM 8.17 46.706 0.07 7.46 1.11 11.33
11/8/2020 7:30:00 PM 8.09 46.562 0.07 7.41 1.11 11.34
11/8/2020 7:45:00 PM 8.01 46.418 0.071 7.44 1.31 11.37
11/8/2020 8:00:00 PM 7.92 46.256 0.071 7.45 1.08 11.39
11/8/2020 8:15:00 PM 7.83 46.094 0.071 7.44 1.1 11.4
11/8/2020 8:30:00 PM 7.74 45.932 0.071 7.45 1.12 11.42
11/8/2020 8:45:00 PM 7.65 45.77 0.071 7.37 1.16 11.45
11/8/2020 9:00:00 PM 7.57 45.626 0.071 7.46 1.16 11.47
11/8/2020 9:15:00 PM 7.48 45.464 0.071 7.45 1.11 11.5
11/8/2020 9:30:00 PM 7.39 45.302 0.071 7.36 1.15 11.53
11/8/2020 9:45:00 PM 7.31 45.158 0.071 7.4 1.11 11.56
11/8/2020 10:00:00 PM 7.23 45.014 0.072 7.44 1.1 11.58
11/8/2020 10:15:00 PM 7.14 44.852 0.072 7.42 1.17 11.59
11/8/2020 10:30:00 PM 7.06 44.708 0.072 7.41 1.08 11.62
11/8/2020 10:45:00 PM 6.98 44.564 0.072 7.44 1.08 11.64
11/8/2020 11:00:00 PM 6.9 44.42 0.072 7.44 1.12 11.67
11/8/2020 11:15:00 PM 6.83 44.294 0.072 7.44 1.02 11.7
11/8/2020 11:30:00 PM 6.75 44.15 0.072 7.4 1.13 11.71
11/8/2020 11:45:00 PM 6.68 44.024 0.072 7.44 1.07 11.73
11/9/2020 12:00:00 AM 6.61 43.898 0.072 7.43 1.19 11.75
11/9/2020 12:15:00 AM 6.53 43.754 0.072 7.42 1.29 11.77
11/9/2020 12:30:00 AM 6.46 43.628 0.072 7.43 1.08 11.79
11/9/2020 12:45:00 AM 6.38 43.484 0.072 7.39 1.09 11.82
11/9/2020 1:00:00 AM 6.32 43.376 0.072 7.38 1.07 11.84
11/9/2020 1:15:00 AM 6.24 43.232 0.072 7.39 1.03 11.86
11/9/2020 1:30:00 AM 6.17 43.106 0.072 7.42 1.06 11.89
11/9/2020 1:45:00 AM 6.1 42.98 0.072 7.42 1.05 11.92
11/9/2020 2:00:00 AM 6.03 42.854 0.072 7.42 1.02 11.94
11/9/2020 2:15:00 AM 5.96 42.728 0.072 7.42 1.04 11.97
11/9/2020 2:30:00 AM 5.89 42.602 0.072 7.41 1.07 11.98
11/9/2020 2:45:00 AM 5.83 42.494 0.072 7.4 1 12
11/9/2020 3:00:00 AM 5.76 42.368 0.072 7.36 0.97 12.04
11/9/2020 3:15:00 AM 5.69 42.242 0.072 7.38 1.06 12.06
11/9/2020 3:30:00 AM 5.63 42.134 0.072 7.39 1 12.08
11/9/2020 3:45:00 AM 5.57 42.026 0.072 7.34 1.08 12.1
11/9/2020 4:00:00 AM 5.5 41.9 0.072 7.33 1.01 12.12
11/9/2020 4:15:00 AM 5.44 41.792 0.072 7.35 1.05 12.15
11/9/2020 4:30:00 AM 5.38 41.684 0.072 7.32 1.06 12.17
11/9/2020 4:45:00 AM 5.32 41.576 0.072 7.34 1.03 12.18
11/9/2020 5:00:00 AM 5.26 41.468 0.072 7.37 1.03 12.2
11/9/2020 5:15:00 AM 5.21 41.378 0.072 7.35 1.06 12.22
11/9/2020 5:30:00 AM 5.15 41.27 0.072 7.35 1.04 12.24
11/9/2020 5:45:00 AM 5.09 41.162 0.072 7.31 1.06 12.26
11/9/2020 6:00:00 AM 5.04 41.072 0.072 7.37 1.02 12.28
11/9/2020 6:15:00 AM 4.99 40.982 0.072 7.37 1.03 12.31
11/9/2020 6:30:00 AM 4.94 40.892 0.072 7.36 0.98 12.33
11/9/2020 6:45:00 AM 4.89 40.802 0.072 7.36 1.03 12.34
11/9/2020 7:00:00 AM 4.84 40.712 0.072 7.37 1 12.38
11/9/2020 7:15:00 AM 4.8 40.64 0.072 7.38 0.99 12.43
11/9/2020 7:30:00 AM 4.76 40.568 0.072 7.31 0.99 12.49
11/9/2020 7:45:00 AM 4.73 40.514 0.072 7.38 1.02 12.55
11/9/2020 8:00:00 AM 4.7 40.46 0.072 7.4 1 12.6
11/9/2020 8:15:00 AM 4.68 40.424 0.072 7.4 1 12.65
11/9/2020 8:30:00 AM 4.69 40.442 0.071 7.4 0.96 12.71
11/9/2020 8:45:00 AM 4.7 40.46 0.071 7.35 0.99 12.76
11/9/2020 9:00:00 AM 4.72 40.496 0.071 7.43 0.99 12.8
11/9/2020 9:15:00 AM 4.77 40.586 0.071 7.43 0.95 12.83
11/9/2020 9:30:00 AM 4.84 40.712 0.071 7.38 0.97 12.85
11/9/2020 9:45:00 AM 4.94 40.892 0.071 7.43 0.99 12.84
11/9/2020 10:00:00 AM 5.05 41.09 0.071 7.47 0.93 12.85
11/9/2020 10:15:00 AM 5.18 41.324 0.071 7.46 0.93 12.83
11/9/2020 10:30:00 AM 5.34 41.612 0.071 7.45 0.95 12.83
11/9/2020 10:45:00 AM 5.5 41.9 0.071 7.48 0.95 12.81
11/9/2020 11:00:00 AM 5.67 42.206 0.07 7.5 0.96 12.78
11/9/2020 11:15:00 AM 5.84 42.512 0.07 7.5 0.99 12.74
11/9/2020 11:30:00 AM 6.02 42.836 0.07 7.5 0.96 12.7
11/9/2020 11:45:00 AM 6.19 43.142 0.07 7.47 0.96 12.67
11/9/2020 12:00:00 PM 6.38 43.484 0.07 7.51 0.93 12.61
11/9/2020 12:15:00 PM 6.56 43.808 0.07 7.51 0.95 12.56
11/9/2020 12:30:00 PM 6.74 44.132 0.07 7.51 0.88 12.5
11/9/2020 12:45:00 PM 6.92 44.456 0.07 7.52 0.9 12.45
11/9/2020 1:00:00 PM 7.11 44.798 0.069 7.48 0.91 12.38
11/9/2020 1:15:00 PM 7.3 45.14 0.069 7.53 0.95 12.32
11/9/2020 1:30:00 PM 7.48 45.464 0.069 7.52 0.95 12.26
11/9/2020 1:45:00 PM 7.62 45.716 0.069 7.53 0.94 12.2
11/9/2020 2:00:00 PM 7.74 45.932 0.069 7.54 0.95 12.16
11/9/2020 2:15:00 PM 7.85 46.13 0.069 7.56 0.94 12.12
11/9/2020 2:30:00 PM 7.92 46.256 0.069 7.52 0.93 12.08
11/9/2020 2:45:00 PM 8.01 46.418 0.069 7.57 0.95 12.02
11/9/2020 3:00:00 PM 8.04 46.472 0.069 7.52 1 11.99
11/9/2020 3:15:00 PM 8.07 46.526 0.069 7.55 0.92 11.95
11/9/2020 3:30:00 PM 8.1 46.58 0.069 7.58 1.01 11.89
11/9/2020 3:45:00 PM 8.09 46.562 0.069 7.57 0.96 11.85
11/9/2020 4:00:00 PM 8.12 46.616 0.069 7.58 0.95 11.79
11/9/2020 4:15:00 PM 8.13 46.634 0.069 7.57 1.01 11.73
11/9/2020 4:30:00 PM 8.14 46.652 0.069 7.56 0.95 11.66
11/9/2020 4:45:00 PM 8.15 46.67 0.069 7.55 0.97 11.6
11/9/2020 5:00:00 PM 8.17 46.706 0.069 7.52 1.01 11.53
11/9/2020 5:15:00 PM 8.17 46.706 0.07 7.52 1.02 11.46
11/9/2020 5:30:00 PM 8.17 46.706 0.07 7.44 1.07 11.41
11/9/2020 5:45:00 PM 8.17 46.706 0.07 7.47 1.07 11.38
11/9/2020 6:00:00 PM 8.17 46.706 0.07 7.5 1.08 11.35
11/9/2020 6:15:00 PM 8.17 46.706 0.07 7.5 1.17 11.34
11/9/2020 6:30:00 PM 8.15 46.67 0.07 7.4 1.05 11.33
11/9/2020 6:45:00 PM 8.12 46.616 0.07 7.49 1.08 11.32
11/9/2020 7:00:00 PM 8.09 46.562 0.07 7.4 1 11.32
11/9/2020 7:15:00 PM 8.03 46.454 0.07 7.44 1.1 11.33
11/9/2020 7:30:00 PM 7.98 46.364 0.07 7.43 1.05 11.33
11/9/2020 7:45:00 PM 7.91 46.238 0.07 7.44 1.09 11.35
11/9/2020 8:00:00 PM 7.84 46.112 0.071 7.45 1.05 11.36
11/9/2020 8:15:00 PM 7.76 45.968 0.071 7.45 1.13 11.38
11/9/2020 8:30:00 PM 7.69 45.842 0.071 7.46 1.02 11.39
11/9/2020 8:45:00 PM 7.61 45.698 0.071 7.45 1.06 11.42
11/9/2020 9:00:00 PM 7.53 45.554 0.071 7.46 1.04 11.44
11/9/2020 9:15:00 PM 7.45 45.41 0.071 7.36 1.08 11.45
11/9/2020 9:30:00 PM 7.37 45.266 0.071 7.4 1.03 11.48
11/9/2020 9:45:00 PM 7.3 45.14 0.071 7.46 1.02 11.5
11/9/2020 10:00:00 PM 7.22 44.996 0.072 7.38 1.09 11.53
11/9/2020 10:15:00 PM 7.15 44.87 0.072 7.46 1.03 11.54
11/9/2020 10:30:00 PM 7.08 44.744 0.072 7.45 1.09 11.57
11/9/2020 10:45:00 PM 7 44.6 0.072 7.45 1.03 11.59
11/9/2020 11:00:00 PM 6.93 44.474 0.072 7.41 1.02 11.61
11/9/2020 11:15:00 PM 6.86 44.348 0.072 7.45 1.05 11.64
11/9/2020 11:30:00 PM 6.79 44.222 0.072 7.4 1.02 11.65
11/9/2020 11:45:00 PM 6.73 44.114 0.072 7.43 1.06 11.68
11/10/2020 12:00:00 AM 6.66 43.988 0.072 7.45 1.09 11.69
11/10/2020 12:15:00 AM 6.6 43.88 0.072 7.44 1.03 11.7
11/10/2020 12:30:00 AM 6.54 43.772 0.072 7.4 1.05 11.72
11/10/2020 12:45:00 AM 6.48 43.664 0.072 7.44 1.1 11.74
11/10/2020 1:00:00 AM 6.43 43.574 0.072 7.44 1.02 11.74
11/10/2020 1:15:00 AM 6.37 43.466 0.072 7.44 1.03 11.76
11/10/2020 1:30:00 AM 6.32 43.376 0.072 7.44 1.02 11.78
11/10/2020 1:45:00 AM 6.26 43.268 0.072 7.41 1.05 11.8
11/10/2020 2:00:00 AM 6.21 43.178 0.072 7.41 1.04 11.82
11/10/2020 2:15:00 AM 6.16 43.088 0.072 7.43 1.01 11.84
11/10/2020 2:30:00 AM 6.11 42.998 0.072 7.42 1 11.86
11/10/2020 2:45:00 AM 6.05 42.89 0.072 7.43 1.02 11.87
11/10/2020 3:00:00 AM 6 42.8 0.072 7.39 1.04 11.88
11/10/2020 3:15:00 AM 5.95 42.71 0.072 7.42 0.99 11.91
11/10/2020 3:30:00 AM 5.9 42.62 0.072 7.34 0.98 11.9
11/10/2020 3:45:00 AM 5.85 42.53 0.072 7.39 0.98 11.92
11/10/2020 4:00:00 AM 5.8 42.44 0.072 7.37 1.02 11.93
11/10/2020 4:15:00 AM 5.75 42.35 0.072 7.36 0.97 11.96
11/10/2020 4:30:00 AM 5.71 42.278 0.072 7.4 1.2 11.97
11/10/2020 4:45:00 AM 5.67 42.206 0.072 7.33 1.02 11.99
11/10/2020 5:00:00 AM 5.64 42.152 0.072 7.39 1 11.99
11/10/2020 5:15:00 AM 5.6 42.08 0.072 7.36 1.04 12.01
11/10/2020 5:30:00 AM 5.58 42.044 0.072 7.35 0.98 12.02
11/10/2020 5:45:00 AM 5.56 42.008 0.072 7.29 1.13 12.04
11/10/2020 6:00:00 AM 5.54 41.972 0.072 7.32 0.96 12.04
11/10/2020 6:15:00 AM 5.51 41.918 0.072 7.36 0.95 12.06
11/10/2020 6:30:00 AM 5.49 41.882 0.072 7.36 0.99 12.06
11/10/2020 6:45:00 AM 5.48 41.864 0.072 7.37 0.96 12.07
11/10/2020 7:00:00 AM 5.47 41.846 0.072 7.36 1.06 12.09
11/10/2020 7:15:00 AM 5.46 41.828 0.072 7.36 0.95 12.13
11/10/2020 7:30:00 AM 5.45 41.81 0.072 7.37 0.96 12.17
11/10/2020 7:45:00 AM 5.44 41.792 0.072 7.36 0.92 12.23
11/10/2020 8:00:00 AM 5.43 41.774 0.072 7.39 0.97 12.3
11/10/2020 8:15:00 AM 5.43 41.774 0.072 7.4 0.95 12.37
11/10/2020 8:30:00 AM 5.44 41.792 0.071 7.42 0.94 12.44
11/10/2020 8:45:00 AM 5.46 41.828 0.071 7.4 0.97 12.47
11/10/2020 9:00:00 AM 5.5 41.9 0.071 7.43 0.98 12.51
11/10/2020 9:15:00 AM 5.55 41.99 0.071 7.44 0.95 12.53
11/10/2020 9:30:00 AM 5.62 42.116 0.071 7.44 0.92 12.54
11/10/2020 9:45:00 AM 5.7 42.26 0.071 7.45 0.93 12.56
11/10/2020 10:00:00 AM 5.8 42.44 0.071 7.46 0.96 12.55
11/10/2020 10:15:00 AM 5.94 42.692 0.071 7.47 0.96 12.55
11/10/2020 10:30:00 AM 6.09 42.962 0.071 7.45 0.94 12.55
11/10/2020 10:45:00 AM 6.28 43.304 0.071 7.47 0.95 12.53
11/10/2020 11:00:00 AM 6.52 43.736 0.07 7.51 0.89 12.48
11/10/2020 11:15:00 AM 6.76 44.168 0.07 7.48 0.94 12.43
11/10/2020 11:30:00 AM 6.96 44.528 0.07 7.52 0.94 12.37
11/10/2020 11:45:00 AM 7.16 44.888 0.07 7.47 0.94 12.32
11/10/2020 12:00:00 PM 7.34 45.212 0.07 7.54 0.9 12.29
11/10/2020 12:15:00 PM 7.51 45.518 0.07 7.47 0.92 12.23
11/10/2020 12:30:00 PM 7.68 45.824 0.07 7.53 0.91 12.18
11/10/2020 12:45:00 PM 7.85 46.13 0.069 7.56 0.91 12.15
11/10/2020 1:00:00 PM 8.01 46.418 0.069 7.54 0.92 12.1
11/10/2020 1:15:00 PM 8.17 46.706 0.069 7.59 0.94 12.06
11/10/2020 1:30:00 PM 8.36 47.048 0.069 7.63 0.94 12
11/10/2020 1:45:00 PM 8.5 47.3 0.069 7.62 0.89 11.94
11/10/2020 2:00:00 PM 8.62 47.516 0.069 7.63 0.91 11.89
11/10/2020 2:15:00 PM 8.75 47.75 0.069 7.64 0.94 11.84
11/10/2020 2:30:00 PM 8.86 47.948 0.069 7.63 0.97 11.79
11/10/2020 2:45:00 PM 8.95 48.11 0.069 7.65 0.96 11.74
11/10/2020 3:00:00 PM 8.98 48.164 0.069 7.58 1.02 11.7
11/10/2020 3:15:00 PM 9.04 48.272 0.069 7.66 0.94 11.65
11/10/2020 3:30:00 PM 9.1 48.38 0.069 7.65 0.95 11.57
11/10/2020 3:45:00 PM 9.14 48.452 0.069 7.65 0.95 11.53
11/10/2020 4:00:00 PM 9.17 48.506 0.069 7.65 0.96 11.49
11/10/2020 4:15:00 PM 9.19 48.542 0.069 7.64 1.23 11.42
11/10/2020 4:30:00 PM 9.21 48.578 0.069 7.58 0.95 11.33
11/10/2020 4:45:00 PM 9.25 48.65 0.069 7.6 0.99 11.24
11/10/2020 5:00:00 PM 9.27 48.686 0.069 7.56 1.04 11.14
11/10/2020 5:15:00 PM 9.29 48.722 0.069 7.53 1.04 11.06
11/10/2020 5:30:00 PM 9.29 48.722 0.07 7.54 0.99 11.01
11/10/2020 5:45:00 PM 9.31 48.758 0.07 7.52 1.12 10.96
11/10/2020 6:00:00 PM 9.33 48.794 0.07 7.52 1.04 10.93
11/10/2020 6:15:00 PM 9.34 48.812 0.07 7.52 1.08 10.91
11/10/2020 6:30:00 PM 9.35 48.83 0.07 7.51 1.04 10.89
11/10/2020 6:45:00 PM 9.35 48.83 0.07 7.5 1.09 10.87
11/10/2020 7:00:00 PM 9.33 48.794 0.07 7.48 1.07 10.87
11/10/2020 7:15:00 PM 9.3 48.74 0.07 7.47 1.06 10.87
11/10/2020 7:30:00 PM 9.25 48.65 0.07 7.49 1.04 10.88
11/10/2020 7:45:00 PM 9.21 48.578 0.07 7.48 1.04 10.89
11/10/2020 8:00:00 PM 9.15 48.47 0.07 7.42 1.19 10.9
11/10/2020 8:15:00 PM 9.1 48.38 0.071 7.43 1.12 10.9
11/10/2020 8:30:00 PM 9.04 48.272 0.071 7.48 1.06 10.92
11/10/2020 8:45:00 PM 8.99 48.182 0.071 7.47 1.04 10.93
11/10/2020 9:00:00 PM 8.93 48.074 0.071 7.44 1.01 10.95
11/10/2020 9:15:00 PM 8.87 47.966 0.071 7.43 1.05 10.96
11/10/2020 9:30:00 PM 8.81 47.858 0.071 7.44 1.1 10.98
11/10/2020 9:45:00 PM 8.76 47.768 0.071 7.47 1.04 11
11/10/2020 10:00:00 PM 8.71 47.678 0.071 7.47 1.05 11.01
11/10/2020 10:15:00 PM 8.65 47.57 0.072 7.47 1.03 11.02
11/10/2020 10:30:00 PM 8.59 47.462 0.072 7.47 1.06 11.03
11/10/2020 10:45:00 PM 8.53 47.354 0.072 7.46 1.07 11.05
11/10/2020 11:00:00 PM 8.48 47.264 0.072 7.43 1.05 11.06
11/10/2020 11:15:00 PM 8.43 47.174 0.072 7.44 1.02 11.07
11/10/2020 11:30:00 PM 8.39 47.102 0.072 7.47 1.02 11.08
11/10/2020 11:45:00 PM 8.35 47.03 0.072 7.39 1.12 11.09
11/11/2020 12:00:00 AM 8.31 46.958 0.072 7.46 1.06 11.1
11/11/2020 12:15:00 AM 8.28 46.904 0.072 7.47 1.02 11.11
11/11/2020 12:30:00 AM 8.24 46.832 0.072 7.47 1 11.13
11/11/2020 12:45:00 AM 8.21 46.778 0.072 7.42 1.05 11.14
11/11/2020 1:00:00 AM 8.17 46.706 0.072 7.44 1.01 11.16
11/11/2020 1:15:00 AM 8.15 46.67 0.072 7.45 1.04 11.16
11/11/2020 1:30:00 AM 8.12 46.616 0.072 7.42 1 11.17
11/11/2020 1:45:00 AM 8.08 46.544 0.072 7.42 1.03 11.18
11/11/2020 2:00:00 AM 8.05 46.49 0.072 7.42 0.97 11.18
11/11/2020 2:15:00 AM 8.02 46.436 0.072 7.48 0.99 11.19
11/11/2020 2:30:00 AM 8 46.4 0.072 7.46 1.1 11.2
11/11/2020 2:45:00 AM 7.99 46.382 0.072 7.46 1.03 11.21
11/11/2020 3:00:00 AM 7.97 46.346 0.072 7.41 1.06 11.21
11/11/2020 3:15:00 AM 7.96 46.328 0.072 7.46 1.08 11.21
11/11/2020 3:30:00 AM 7.94 46.292 0.072 7.46 1.17 11.22
11/11/2020 3:45:00 AM 7.92 46.256 0.072 7.42 1.04 11.23
11/11/2020 4:00:00 AM 7.9 46.22 0.072 7.47 1 11.23
11/11/2020 4:15:00 AM 7.89 46.202 0.072 7.45 1.06 11.23
11/11/2020 4:30:00 AM 7.87 46.166 0.072 7.48 1.04 11.24
11/11/2020 4:45:00 AM 7.86 46.148 0.072 7.46 1.07 11.23
11/11/2020 5:00:00 AM 7.88 46.184 0.072 7.47 1.01 11.22
11/11/2020 5:15:00 AM 7.9 46.22 0.072 7.46 1.02 11.23
11/11/2020 5:30:00 AM 7.92 46.256 0.072 7.48 1.06 11.22
11/11/2020 5:45:00 AM 7.94 46.292 0.072 7.47 1.02 11.22
11/11/2020 6:00:00 AM 7.96 46.328 0.072 7.47 1.05 11.21
11/11/2020 6:15:00 AM 7.98 46.364 0.072 7.46 1.04 11.22
11/11/2020 6:30:00 AM 8.01 46.418 0.072 7.46 1.1 11.21
11/11/2020 6:45:00 AM 8.06 46.508 0.071 7.46 1.12 11.2
11/11/2020 7:00:00 AM 8.11 46.598 0.07 7.46 1.22 11.2
11/11/2020 7:15:00 AM 8.16 46.688 0.069 7.45 1.26 11.21
11/11/2020 7:30:00 AM 8.2 46.76 0.069 7.43 1.23 11.21
11/11/2020 7:45:00 AM 8.27 46.886 0.068 7.44 1.28 11.2
11/11/2020 8:00:00 AM 8.31 46.958 0.068 7.46 1.29 11.19
11/11/2020 8:15:00 AM 8.37 47.066 0.067 7.43 1.37 11.16
11/11/2020 8:30:00 AM 8.4 47.12 0.067 7.41 1.34 11.16
11/11/2020 8:45:00 AM 8.48 47.264 0.066 7.39 1.53 11.16
11/11/2020 9:00:00 AM 8.52 47.336 0.066 7.39 1.59 11.17
11/11/2020 9:15:00 AM 8.57 47.426 0.066 7.43 1.79 11.16
11/11/2020 9:30:00 AM 8.61 47.498 0.066 7.43 1.95 11.18
11/11/2020 9:45:00 AM 8.67 47.606 0.065 7.44 2.58 11.19
11/11/2020 10:00:00 AM 8.75 47.75 0.065 7.35 2.21 11.18
11/11/2020 10:15:00 AM 8.82 47.876 0.064 7.44 2.75 11.17
11/11/2020 10:30:00 AM 8.89 48.002 0.064 7.44 3.02 11.17
11/11/2020 10:45:00 AM 8.95 48.11 0.063 7.44 3.19 11.15
11/11/2020 11:00:00 AM 9.01 48.218 0.063 7.43 3.45 11.12
11/11/2020 11:15:00 AM 9.08 48.344 0.062 7.37 3.45 11.12
11/11/2020 11:30:00 AM 9.15 48.47 0.061 7.38 3.57 11.1
11/11/2020 11:45:00 AM 9.21 48.578 0.061 7.41 4.14 11.09
11/11/2020 12:00:00 PM 9.26 48.668 0.061 7.41 4.96 11.11
11/11/2020 12:15:00 PM 9.32 48.776 0.06 7.42 6.19 11.11
11/11/2020 12:30:00 PM 9.37 48.866 0.06 7.42 7.57 11.1
11/11/2020 12:45:00 PM 9.44 48.992 0.06 7.41 8.47 11.1
11/11/2020 1:00:00 PM 9.52 49.136 0.059 7.41 9.32 11.07
11/11/2020 1:15:00 PM 9.57 49.226 0.059 7.41 10.14 11.08
11/11/2020 1:30:00 PM 9.61 49.298 0.059 7.41 10.26 11.05
11/11/2020 1:45:00 PM 9.66 49.388 0.059 7.42 11.7 11.05
11/11/2020 2:00:00 PM 9.71 49.478 0.059 7.41 13.91 11.05
11/11/2020 2:15:00 PM 9.76 49.568 0.06 7.41 15.1 11.05
11/11/2020 2:30:00 PM 9.8 49.64 0.06 7.44 12.95 11.03
11/11/2020 2:45:00 PM 9.84 49.712 0.061 7.45 17.58 11.01
11/11/2020 3:00:00 PM 9.9 49.82 0.061 7.48 19.76 11
11/11/2020 3:15:00 PM 9.94 49.892 0.062 7.48 18.31 11.01
11/11/2020 3:30:00 PM 9.94 49.892 0.062 7.48 17.88 10.99
11/11/2020 3:45:00 PM 9.94 49.892 0.061 7.47 13.93 10.96
11/11/2020 4:00:00 PM 9.92 49.856 0.061 7.49 15.54 10.95
11/11/2020 4:15:00 PM 9.9 49.82 0.061 7.48 15.36 10.92
11/11/2020 4:30:00 PM 9.88 49.784 0.061 7.4 14.54 10.9
11/11/2020 4:45:00 PM 9.88 49.784 0.061 7.46 14.76 10.89
11/11/2020 5:00:00 PM 9.88 49.784 0.061 7.45 13.83 10.87
11/11/2020 5:15:00 PM 9.87 49.766 0.06 7.44 13.01 10.86
11/11/2020 5:30:00 PM 9.88 49.784 0.06 7.44 12.77 10.84
11/11/2020 5:45:00 PM 9.89 49.802 0.06 7.43 12.03 10.83
11/11/2020 6:00:00 PM 9.9 49.82 0.061 7.31 12.17 10.82
11/11/2020 6:15:00 PM 9.91 49.838 0.061 7.39 11.27 10.82
11/11/2020 6:30:00 PM 9.92 49.856 0.061 7.36 10.98 10.81
11/11/2020 6:45:00 PM 9.93 49.874 0.061 7.4 10.45 10.8
11/11/2020 7:00:00 PM 9.94 49.892 0.061 7.39 10.31 10.8
11/11/2020 7:15:00 PM 9.95 49.91 0.061 7.38 10.78 10.79
11/11/2020 7:30:00 PM 9.95 49.91 0.062 7.29 9.87 10.79
11/11/2020 7:45:00 PM 9.96 49.928 0.062 7.31 8.78 10.79
11/11/2020 8:00:00 PM 9.96 49.928 0.062 7.34 8.83 10.77
11/11/2020 8:15:00 PM 9.97 49.946 0.062 7.34 8.12 10.79
11/11/2020 8:30:00 PM 9.97 49.946 0.062 7.32 8.17 10.79
11/11/2020 8:45:00 PM 9.97 49.946 0.063 7.33 8.12 10.78
11/11/2020 9:00:00 PM 9.98 49.964 0.063 7.3 7.63 10.8
11/11/2020 9:15:00 PM 10.01 50.018 0.063 7.35 7.45 10.79
11/11/2020 9:30:00 PM 10.01 50.018 0.063 7.36 7.24 10.79
11/11/2020 9:45:00 PM 10.02 50.036 0.063 7.38 7.07 10.79
11/11/2020 10:00:00 PM 10.03 50.054 0.063 7.34 6.7 10.8
11/11/2020 10:15:00 PM 10.02 50.036 0.063 7.34 6.59 10.8
11/11/2020 10:30:00 PM 10.01 50.018 0.063 7.39 6.57 10.8
11/11/2020 10:45:00 PM 10 50 0.064 7.38 6.31 10.8
11/11/2020 11:00:00 PM 9.98 49.964 0.064 7.34 6.19 10.81
11/11/2020 11:15:00 PM 9.97 49.946 0.064 7.35 5.95 10.8
11/11/2020 11:30:00 PM 9.95 49.91 0.064 7.38 5.56 10.81
11/11/2020 11:45:00 PM 9.93 49.874 0.064 7.39 5.57 10.81
11/12/2020 12:00:00 AM 9.92 49.856 0.064 7.38 5.57 10.82
11/12/2020 12:15:00 AM 9.9 49.82 0.064 7.42 5.21 10.82
11/12/2020 12:30:00 AM 9.88 49.784 0.064 7.41 5.23 10.83
11/12/2020 12:45:00 AM 9.86 49.748 0.064 7.42 5.05 10.83
11/12/2020 1:00:00 AM 9.83 49.694 0.064 7.43 4.99 10.85
11/12/2020 1:15:00 AM 9.8 49.64 0.064 7.37 5.02 10.85
11/12/2020 1:30:00 AM 9.77 49.586 0.064 7.42 4.99 10.85
11/12/2020 1:45:00 AM 9.73 49.514 0.064 7.42 4.75 10.87
11/12/2020 2:00:00 AM 9.69 49.442 0.064 7.34 4.89 10.87
11/12/2020 2:15:00 AM 9.65 49.37 0.064 7.42 4.79 10.89
11/12/2020 2:30:00 AM 9.6 49.28 0.064 7.43 4.62 10.89
11/12/2020 2:45:00 AM 9.55 49.19 0.065 7.43 4.69 10.91
11/12/2020 3:00:00 AM 9.51 49.118 0.064 7.42 4.43 10.91
11/12/2020 3:15:00 AM 9.47 49.046 0.065 7.36 4.41 10.94
11/12/2020 3:30:00 AM 9.43 48.974 0.065 7.41 4.65 10.95
11/12/2020 3:45:00 AM 9.39 48.902 0.065 7.44 4.3 10.96
11/12/2020 4:00:00 AM 9.36 48.848 0.065 7.42 4.27 10.97
11/12/2020 4:15:00 AM 9.33 48.794 0.065 7.42 4.22 10.98
11/12/2020 4:30:00 AM 9.3 48.74 0.065 7.35 4.2 10.99
11/12/2020 4:45:00 AM 9.26 48.668 0.065 7.41 4.17 11
11/12/2020 5:00:00 AM 9.22 48.596 0.065 7.43 4.11 11.01
11/12/2020 5:15:00 AM 9.17 48.506 0.065 7.43 4.13 11.02
11/12/2020 5:30:00 AM 9.11 48.398 0.065 7.43 4.18 11.04
11/12/2020 5:45:00 AM 9.06 48.308 0.065 7.42 4 11.05
11/12/2020 6:00:00 AM 9.02 48.236 0.065 7.41 3.9 11.05
11/12/2020 6:15:00 AM 8.97 48.146 0.065 7.43 3.94 11.06
11/12/2020 6:30:00 AM 8.92 48.056 0.065 7.38 3.89 11.08
11/12/2020 6:45:00 AM 8.88 47.984 0.065 7.44 3.85 11.1
11/12/2020 7:00:00 AM 8.84 47.912 0.065 7.44 3.87 11.12
11/12/2020 7:15:00 AM 8.79 47.822 0.065 7.38 3.75 11.14
11/12/2020 7:30:00 AM 8.75 47.75 0.065 7.45 3.78 11.17
11/12/2020 7:45:00 AM 8.71 47.678 0.065 7.45 3.58 11.2
11/12/2020 8:00:00 AM 8.67 47.606 0.065 7.46 3.5 11.23
11/12/2020 8:15:00 AM 8.65 47.57 0.065 7.46 3.52 11.26
11/12/2020 8:30:00 AM 8.62 47.516 0.065 7.46 3.4 11.3
11/12/2020 8:45:00 AM 8.58 47.444 0.065 7.39 3.38 11.33
11/12/2020 9:00:00 AM 8.55 47.39 0.065 7.48 3.34 11.37
11/12/2020 9:15:00 AM 8.52 47.336 0.065 7.48 3.32 11.41
11/12/2020 9:30:00 AM 8.5 47.3 0.064 7.49 3.3 11.43
11/12/2020 9:45:00 AM 8.48 47.264 0.064 7.42 3.36 11.48
11/12/2020 10:00:00 AM 8.47 47.246 0.064 7.47 3.27 11.51
11/12/2020 10:15:00 AM 8.48 47.264 0.064 7.52 3.15 11.54
11/12/2020 10:30:00 AM 8.48 47.264 0.064 7.52 3.03 11.57
11/12/2020 10:45:00 AM 8.49 47.282 0.064 7.53 3.06 11.59
11/12/2020 11:00:00 AM 8.49 47.282 0.064 7.54 2.97 11.61
11/12/2020 11:15:00 AM 8.49 47.282 0.064 7.54 3.04 11.62
11/12/2020 11:30:00 AM 8.52 47.336 0.064 7.56 2.91 11.66
11/12/2020 11:45:00 AM 8.54 47.372 0.064 7.55 3.05 11.66
11/12/2020 12:00:00 PM 8.54 47.372 0.064 7.57 2.79 11.67
11/12/2020 12:15:00 PM 8.58 47.444 0.064 7.51 2.84 11.67
11/12/2020 12:30:00 PM 8.63 47.534 0.064 7.53 2.75 11.69
11/12/2020 12:45:00 PM 8.64 47.552 0.064 7.6 2.82 11.69
11/12/2020 1:00:00 PM 8.65 47.57 0.064 7.59 2.77 11.69
11/12/2020 1:15:00 PM 8.67 47.606 0.064 7.6 2.66 11.69
11/12/2020 1:30:00 PM 8.72 47.696 0.064 7.6 2.88 11.67
11/12/2020 1:45:00 PM 8.74 47.732 0.064 7.61 2.8 11.66
11/12/2020 2:00:00 PM 8.73 47.714 0.064 7.6 2.65 11.65
11/12/2020 2:15:00 PM 8.75 47.75 0.064 7.54 2.64 11.65
11/12/2020 2:30:00 PM 8.77 47.786 0.064 7.62 2.67 11.64
11/12/2020 2:45:00 PM 8.76 47.768 0.063 7.61 2.71 11.63
11/12/2020 3:00:00 PM 8.74 47.732 0.063 7.52 2.59 11.62
11/12/2020 3:15:00 PM 8.71 47.678 0.063 7.6 2.69 11.6
11/12/2020 3:30:00 PM 8.69 47.642 0.063 7.59 2.67 11.59
11/12/2020 3:45:00 PM 8.67 47.606 0.063 7.6 2.56 11.58
11/12/2020 4:00:00 PM 8.64 47.552 0.063 7.58 2.65 11.55
11/12/2020 4:15:00 PM 8.58 47.444 0.063 7.48 2.52 11.51
11/12/2020 4:30:00 PM 8.52 47.336 0.063 7.54 2.6 11.49
11/12/2020 4:45:00 PM 8.46 47.228 0.064 7.55 2.56 11.46
11/12/2020 5:00:00 PM 8.38 47.084 0.064 7.52 2.64 11.42
11/12/2020 5:15:00 PM 8.29 46.922 0.064 7.47 2.66 11.41
11/12/2020 5:30:00 PM 8.2 46.76 0.064 7.46 2.66 11.4
11/12/2020 5:45:00 PM 8.12 46.616 0.064 7.49 2.69 11.39
11/12/2020 6:00:00 PM 8.04 46.472 0.064 7.48 2.65 11.4
11/12/2020 6:15:00 PM 7.96 46.328 0.064 7.46 2.65 11.39
11/12/2020 6:30:00 PM 7.87 46.166 0.064 7.46 2.62 11.42
11/12/2020 6:45:00 PM 7.78 46.004 0.064 7.46 2.79 11.43
11/12/2020 7:00:00 PM 7.69 45.842 0.064 7.35 2.6 11.45
11/12/2020 7:15:00 PM 7.6 45.68 0.064 7.45 2.55 11.46
11/12/2020 7:30:00 PM 7.51 45.518 0.064 7.45 2.66 11.49
11/12/2020 7:45:00 PM 7.42 45.356 0.064 7.44 2.58 11.52
11/12/2020 8:00:00 PM 7.34 45.212 0.064 7.42 2.61 11.55
11/12/2020 8:15:00 PM 7.25 45.05 0.064 7.41 2.59 11.57
11/12/2020 8:30:00 PM 7.18 44.924 0.064 7.41 2.55 11.59
11/12/2020 8:45:00 PM 7.09 44.762 0.064 7.41 2.58 11.61
11/12/2020 9:00:00 PM 7.02 44.636 0.064 7.42 2.57 11.63
11/12/2020 9:15:00 PM 6.94 44.492 0.064 7.41 2.54 11.65
11/12/2020 9:30:00 PM 6.86 44.348 0.064 7.42 2.48 11.68
11/12/2020 9:45:00 PM 6.79 44.222 0.064 7.36 2.49 11.7
11/12/2020 10:00:00 PM 6.72 44.096 0.064 7.43 2.52 11.72
11/12/2020 10:15:00 PM 6.65 43.97 0.064 7.41 2.51 11.74
11/12/2020 10:30:00 PM 6.58 43.844 0.064 7.42 2.41 11.76
11/12/2020 10:45:00 PM 6.51 43.718 0.064 7.42 2.61 11.77
11/12/2020 11:00:00 PM 6.45 43.61 0.064 7.4 2.44 11.79
11/12/2020 11:15:00 PM 6.4 43.52 0.064 7.42 2.38 11.81
11/12/2020 11:30:00 PM 6.37 43.466 0.064 7.41 2.37 11.83
11/12/2020 11:45:00 PM 6.33 43.394 0.064 7.41 2.45 11.86
11/13/2020 12:00:00 AM 6.29 43.322 0.064 7.37 2.33 11.86
11/13/2020 12:15:00 AM 6.26 43.268 0.064 7.41 2.32 11.88
11/13/2020 12:30:00 AM 6.23 43.214 0.064 7.37 2.33 11.88
11/13/2020 12:45:00 AM 6.2 43.16 0.064 7.41 2.37 11.89
11/13/2020 1:00:00 AM 6.18 43.124 0.064 7.41 2.31 11.9
11/13/2020 1:15:00 AM 6.16 43.088 0.064 7.41 2.31 11.9
11/13/2020 1:30:00 AM 6.14 43.052 0.064 7.4 2.28 11.92
11/13/2020 1:45:00 AM 6.11 42.998 0.064 7.33 2.24 11.92
11/13/2020 2:00:00 AM 6.09 42.962 0.064 7.36 2.29 11.92
11/13/2020 2:15:00 AM 6.07 42.926 0.064 7.37 2.33 11.93
11/13/2020 2:30:00 AM 6.05 42.89 0.064 7.41 2.27 11.93
11/13/2020 2:45:00 AM 6.01 42.818 0.064 7.38 2.25 11.95
11/13/2020 3:00:00 AM 5.98 42.764 0.064 7.36 2.26 11.95
11/13/2020 3:15:00 AM 5.96 42.728 0.064 7.4 2.3 11.95
11/13/2020 3:30:00 AM 5.92 42.656 0.064 7.36 2.24 11.97
11/13/2020 3:45:00 AM 5.89 42.602 0.064 7.39 2.27 11.97
11/13/2020 4:00:00 AM 5.86 42.548 0.064 7.4 2.16 11.99
11/13/2020 4:15:00 AM 5.83 42.494 0.064 7.39 2.2 11.99
11/13/2020 4:30:00 AM 5.79 42.422 0.064 7.32 2.24 12
11/13/2020 4:45:00 AM 5.75 42.35 0.064 7.39 2.22 12.02
11/13/2020 5:00:00 AM 5.72 42.296 0.064 7.4 2.21 12.03
11/13/2020 5:15:00 AM 5.68 42.224 0.064 7.39 2.15 12.04
11/13/2020 5:30:00 AM 5.65 42.17 0.064 7.38 2.18 12.05
11/13/2020 5:45:00 AM 5.61 42.098 0.064 7.38 2.1 12.07
11/13/2020 6:00:00 AM 5.55 41.99 0.064 7.32 2.17 12.08
11/13/2020 6:15:00 AM 5.5 41.9 0.064 7.39 2.21 12.09
11/13/2020 6:30:00 AM 5.45 41.81 0.064 7.32 2.13 12.1
11/13/2020 6:45:00 AM 5.4 41.72 0.064 7.39 2.18 12.13
11/13/2020 7:00:00 AM 5.36 41.648 0.064 7.37 2.12 12.14
11/13/2020 7:15:00 AM 5.31 41.558 0.064 7.36 2.03 12.18
11/13/2020 7:30:00 AM 5.28 41.504 0.064 7.36 2.09 12.21
11/13/2020 7:45:00 AM 5.25 41.45 0.064 7.33 2.06 12.26
11/13/2020 8:00:00 AM 5.21 41.378 0.064 7.31 2.06 12.28
11/13/2020 8:15:00 AM 5.17 41.306 0.064 7.3 2.09 12.34
11/13/2020 8:30:00 AM 5.14 41.252 0.064 7.29 2.04 12.37
11/13/2020 8:45:00 AM 5.12 41.216 0.064 7.36 1.98 12.4
11/13/2020 9:00:00 AM 5.1 41.18 0.064 7.35 1.99 12.44
11/13/2020 9:15:00 AM 5.11 41.198 0.064 7.3 1.94 12.48
11/13/2020 9:30:00 AM 5.11 41.198 0.064 7.39 2.02 12.51
11/13/2020 9:45:00 AM 5.14